﻿<?xml version="1.0" encoding="utf-8"?><gpx creator="Garmin Desktop App" version="1.1" xsi:schemaLocation="http://www.topografix.com/GPX/1/1 http://www.topografix.com/GPX/1/1/gpx.xsd http://www.garmin.com/xmlschemas/WaypointExtension/v1 http://www8.garmin.com/xmlschemas/WaypointExtensionv1.xsd http://www.garmin.com/xmlschemas/TrackPointExtension/v1 http://www.garmin.com/xmlschemas/TrackPointExtensionv1.xsd http://www.garmin.com/xmlschemas/GpxExtensions/v3 http://www8.garmin.com/xmlschemas/GpxExtensionsv3.xsd http://www.garmin.com/xmlschemas/ActivityExtension/v1 http://www8.garmin.com/xmlschemas/ActivityExtensionv1.xsd http://www.garmin.com/xmlschemas/AdventuresExtensions/v1 http://www8.garmin.com/xmlschemas/AdventuresExtensionv1.xsd http://www.garmin.com/xmlschemas/PressureExtension/v1 http://www.garmin.com/xmlschemas/PressureExtensionv1.xsd http://www.garmin.com/xmlschemas/TripExtensions/v1 http://www.garmin.com/xmlschemas/TripExtensionsv1.xsd http://www.garmin.com/xmlschemas/TripMetaDataExtensions/v1 http://www.garmin.com/xmlschemas/TripMetaDataExtensionsv1.xsd http://www.garmin.com/xmlschemas/ViaPointTransportationModeExtensions/v1 http://www.garmin.com/xmlschemas/ViaPointTransportationModeExtensionsv1.xsd http://www.garmin.com/xmlschemas/CreationTimeExtension/v1 http://www.garmin.com/xmlschemas/CreationTimeExtensionsv1.xsd http://www.garmin.com/xmlschemas/AccelerationExtension/v1 http://www.garmin.com/xmlschemas/AccelerationExtensionv1.xsd http://www.garmin.com/xmlschemas/PowerExtension/v1 http://www.garmin.com/xmlschemas/PowerExtensionv1.xsd http://www.garmin.com/xmlschemas/VideoExtension/v1 http://www.garmin.com/xmlschemas/VideoExtensionv1.xsd" xmlns="http://www.topografix.com/GPX/1/1" xmlns:xsi="http://www.w3.org/2001/XMLSchema-instance" xmlns:wptx1="http://www.garmin.com/xmlschemas/WaypointExtension/v1" xmlns:gpxtrx="http://www.garmin.com/xmlschemas/GpxExtensions/v3" xmlns:gpxtpx="http://www.garmin.com/xmlschemas/TrackPointExtension/v1" xmlns:gpxx="http://www.garmin.com/xmlschemas/GpxExtensions/v3" xmlns:trp="http://www.garmin.com/xmlschemas/TripExtensions/v1" xmlns:adv="http://www.garmin.com/xmlschemas/AdventuresExtensions/v1" xmlns:prs="http://www.garmin.com/xmlschemas/PressureExtension/v1" xmlns:tmd="http://www.garmin.com/xmlschemas/TripMetaDataExtensions/v1" xmlns:vptm="http://www.garmin.com/xmlschemas/ViaPointTransportationModeExtensions/v1" xmlns:ctx="http://www.garmin.com/xmlschemas/CreationTimeExtension/v1" xmlns:gpxacc="http://www.garmin.com/xmlschemas/AccelerationExtension/v1" xmlns:gpxpx="http://www.garmin.com/xmlschemas/PowerExtension/v1" xmlns:vidx1="http://www.garmin.com/xmlschemas/VideoExtension/v1">

  <metadata>
    <link href="http://www.garmin.com">
      <text>Garmin International</text>
    </link>
    <time>2020-03-02T10:26:25Z</time>
    <bounds maxlat="44.370464589446783" maxlon="9.321865970268846" minlat="44.328626487404108" minlon="9.230353944003582" />
  </metadata>

  <trk>
    <name>Traversata CHIAVARI - RAPALLO</name>
    <extensions>
      <gpxx:TrackExtension>
        <gpxx:DisplayColor>Cyan</gpxx:DisplayColor>
      </gpxx:TrackExtension>
    </extensions>
    <trkseg>
      <trkpt lat="44.328642077744007" lon="9.321827245876193">
        <ele>9.630000000000001</ele>
        <time>2020-02-28T09:27:49Z</time>
      </trkpt>
      <trkpt lat="44.328678455203772" lon="9.321756167337298">
        <ele>9.27</ele>
        <time>2020-02-28T09:28:17Z</time>
      </trkpt>
      <trkpt lat="44.328626487404108" lon="9.321865970268846">
        <ele>9.810000000000001</ele>
        <time>2020-02-28T09:28:34Z</time>
      </trkpt>
      <trkpt lat="44.328690022230148" lon="9.32178751565516">
        <ele>9.529999999999999</ele>
        <time>2020-02-28T09:28:46Z</time>
      </trkpt>
      <trkpt lat="44.328720783814788" lon="9.321728171780706">
        <ele>9.470000000000001</ele>
        <time>2020-02-28T09:28:50Z</time>
      </trkpt>
      <trkpt lat="44.328834190964699" lon="9.321566736325622">
        <ele>9.699999999999999</ele>
        <time>2020-02-28T09:29:00Z</time>
      </trkpt>
      <trkpt lat="44.328857241198421" lon="9.32153882458806">
        <ele>9.699999999999999</ele>
        <time>2020-02-28T09:29:02Z</time>
      </trkpt>
      <trkpt lat="44.328874172642827" lon="9.321500519290566">
        <ele>9.699999999999999</ele>
        <time>2020-02-28T09:29:04Z</time>
      </trkpt>
      <trkpt lat="44.329021526500583" lon="9.321393147110939">
        <ele>9.699999999999999</ele>
        <time>2020-02-28T09:29:19Z</time>
      </trkpt>
      <trkpt lat="44.329220680519938" lon="9.321279153227806">
        <ele>10.390000000000001</ele>
        <time>2020-02-28T09:29:43Z</time>
      </trkpt>
      <trkpt lat="44.329292345792055" lon="9.321232298389077">
        <ele>10.6</ele>
        <time>2020-02-28T09:29:59Z</time>
      </trkpt>
      <trkpt lat="44.329338865354657" lon="9.321195166558027">
        <ele>10.65</ele>
        <time>2020-02-28T09:30:27Z</time>
      </trkpt>
      <trkpt lat="44.329424276947975" lon="9.321188880130649">
        <ele>11.07</ele>
        <time>2020-02-28T09:30:52Z</time>
      </trkpt>
      <trkpt lat="44.329509772360325" lon="9.32096416130662">
        <ele>11.779999999999999</ele>
        <time>2020-02-28T09:31:09Z</time>
      </trkpt>
      <trkpt lat="44.329555369913578" lon="9.320810437202454">
        <ele>12.369999999999999</ele>
        <time>2020-02-28T09:31:23Z</time>
      </trkpt>
      <trkpt lat="44.329505916684866" lon="9.320779591798782">
        <ele>12.99</ele>
        <time>2020-02-28T09:31:53Z</time>
      </trkpt>
      <trkpt lat="44.329617563635111" lon="9.320737263187766">
        <ele>12.98</ele>
        <time>2020-02-28T09:32:19Z</time>
      </trkpt>
      <trkpt lat="44.329726025462151" lon="9.320406345650554">
        <ele>14.17</ele>
        <time>2020-02-28T09:32:43Z</time>
      </trkpt>
      <trkpt lat="44.32977581396699" lon="9.320218004286289">
        <ele>15.76</ele>
        <time>2020-02-28T09:32:56Z</time>
      </trkpt>
      <trkpt lat="44.329799031838775" lon="9.320153715088964">
        <ele>16.09</ele>
        <time>2020-02-28T09:33:00Z</time>
      </trkpt>
      <trkpt lat="44.329862566664815" lon="9.320003930479288">
        <ele>17.59</ele>
        <time>2020-02-28T09:33:10Z</time>
      </trkpt>
      <trkpt lat="44.329888550564647" lon="9.319959925487638">
        <ele>17.879999999999999</ele>
        <time>2020-02-28T09:33:14Z</time>
      </trkpt>
      <trkpt lat="44.329951079562306" lon="9.319722885265946">
        <ele>19.370000000000001</ele>
        <time>2020-02-28T09:33:29Z</time>
      </trkpt>
      <trkpt lat="44.330044286325574" lon="9.319521719589829">
        <ele>21.34</ele>
        <time>2020-02-28T09:33:45Z</time>
      </trkpt>
      <trkpt lat="44.330079071223736" lon="9.319539656862617">
        <ele>22.809999999999999</ele>
        <time>2020-02-28T09:34:02Z</time>
      </trkpt>
      <trkpt lat="44.330037999898195" lon="9.319524150341749">
        <ele>23.309999999999999</ele>
        <time>2020-02-28T09:34:39Z</time>
      </trkpt>
      <trkpt lat="44.330015871673822" lon="9.319506213068962">
        <ele>22.940000000000001</ele>
        <time>2020-02-28T09:35:09Z</time>
      </trkpt>
      <trkpt lat="44.33005191385746" lon="9.319521551951766">
        <ele>22.91</ele>
        <time>2020-02-28T09:35:37Z</time>
      </trkpt>
      <trkpt lat="44.330036574974656" lon="9.319520546123385">
        <ele>22.620000000000001</ele>
        <time>2020-02-28T09:36:00Z</time>
      </trkpt>
      <trkpt lat="44.330058451741934" lon="9.319524737074971">
        <ele>22.43</ele>
        <time>2020-02-28T09:36:30Z</time>
      </trkpt>
      <trkpt lat="44.330063397064805" lon="9.319526413455606">
        <ele>21.440000000000001</ele>
        <time>2020-02-28T09:36:51Z</time>
      </trkpt>
      <trkpt lat="44.330012267455459" lon="9.319492634385824">
        <ele>21.350000000000001</ele>
        <time>2020-02-28T09:37:24Z</time>
      </trkpt>
      <trkpt lat="44.330032803118229" lon="9.319480145350099">
        <ele>22.48</ele>
        <time>2020-02-28T09:37:44Z</time>
      </trkpt>
      <trkpt lat="44.330045795068145" lon="9.319500178098679">
        <ele>23.010000000000002</ele>
        <time>2020-02-28T09:38:07Z</time>
      </trkpt>
      <trkpt lat="44.330051243305206" lon="9.319535382091999">
        <ele>23.219999999999999</ele>
        <time>2020-02-28T09:38:22Z</time>
      </trkpt>
      <trkpt lat="44.330092733725905" lon="9.31957351975143">
        <ele>23.079999999999998</ele>
        <time>2020-02-28T09:38:45Z</time>
      </trkpt>
      <trkpt lat="44.330136822536588" lon="9.319560276344419">
        <ele>24.399999999999999</ele>
        <time>2020-02-28T09:38:58Z</time>
      </trkpt>
      <trkpt lat="44.330165153369308" lon="9.319491041824222">
        <ele>27.670000000000002</ele>
        <time>2020-02-28T09:39:09Z</time>
      </trkpt>
      <trkpt lat="44.330235728994012" lon="9.319507721811533">
        <ele>30.68</ele>
        <time>2020-02-28T09:39:22Z</time>
      </trkpt>
      <trkpt lat="44.330288870260119" lon="9.319522390142083">
        <ele>33.770000000000003</ele>
        <time>2020-02-28T09:39:38Z</time>
      </trkpt>
      <trkpt lat="44.330307310447097" lon="9.319527084007859">
        <ele>34.32</ele>
        <time>2020-02-28T09:39:42Z</time>
      </trkpt>
      <trkpt lat="44.330426333472133" lon="9.319531694054604">
        <ele>37.600000000000001</ele>
        <time>2020-02-28T09:39:58Z</time>
      </trkpt>
      <trkpt lat="44.330483246594667" lon="9.319507721811533">
        <ele>40.729999999999997</ele>
        <time>2020-02-28T09:40:10Z</time>
      </trkpt>
      <trkpt lat="44.330572513863444" lon="9.319442259147763">
        <ele>43.619999999999997</ele>
        <time>2020-02-28T09:40:33Z</time>
      </trkpt>
      <trkpt lat="44.330665888264775" lon="9.319420885294676">
        <ele>46.729999999999997</ele>
        <time>2020-02-28T09:40:51Z</time>
      </trkpt>
      <trkpt lat="44.330760268494487" lon="9.319415101781488">
        <ele>49.789999999999999</ele>
        <time>2020-02-28T09:41:10Z</time>
      </trkpt>
      <trkpt lat="44.330832185223699" lon="9.319413173943758">
        <ele>52.969999999999999</ele>
        <time>2020-02-28T09:41:24Z</time>
      </trkpt>
      <trkpt lat="44.330882476642728" lon="9.319434715434909">
        <ele>56.060000000000002</ele>
        <time>2020-02-28T09:41:37Z</time>
      </trkpt>
      <trkpt lat="44.330948861315846" lon="9.319424573332071">
        <ele>59.079999999999998</ele>
        <time>2020-02-28T09:41:53Z</time>
      </trkpt>
      <trkpt lat="44.331022202968597" lon="9.319393644109368">
        <ele>62.140000000000001</ele>
        <time>2020-02-28T09:42:12Z</time>
      </trkpt>
      <trkpt lat="44.331085151061416" lon="9.319397499784827">
        <ele>65.239999999999995</ele>
        <time>2020-02-28T09:42:29Z</time>
      </trkpt>
      <trkpt lat="44.331211214885116" lon="9.319370593875647">
        <ele>68.340000000000003</ele>
        <time>2020-02-28T09:42:51Z</time>
      </trkpt>
      <trkpt lat="44.33130769059062" lon="9.319373108446598">
        <ele>71.439999999999998</ele>
        <time>2020-02-28T09:43:08Z</time>
      </trkpt>
      <trkpt lat="44.331421684473753" lon="9.3194161914289">
        <ele>74.609999999999999</ele>
        <time>2020-02-28T09:43:29Z</time>
      </trkpt>
      <trkpt lat="44.33150508441031" lon="9.319475032389164">
        <ele>77.420000000000002</ele>
        <time>2020-02-28T09:43:48Z</time>
      </trkpt>
      <trkpt lat="44.331592004746199" lon="9.319477966055274">
        <ele>78.840000000000003</ele>
        <time>2020-02-28T09:44:02Z</time>
      </trkpt>
      <trkpt lat="44.331669956445694" lon="9.319490538910031">
        <ele>80.739999999999995</ele>
        <time>2020-02-28T09:44:18Z</time>
      </trkpt>
      <trkpt lat="44.331787303090096" lon="9.319496909156442">
        <ele>82.920000000000002</ele>
        <time>2020-02-28T09:44:36Z</time>
      </trkpt>
      <trkpt lat="44.331931388005614" lon="9.319521384313703">
        <ele>85.280000000000001</ele>
        <time>2020-02-28T09:44:57Z</time>
      </trkpt>
      <trkpt lat="44.332088464871049" lon="9.319524401798844">
        <ele>88.069999999999993</ele>
        <time>2020-02-28T09:45:21Z</time>
      </trkpt>
      <trkpt lat="44.33219650760293" lon="9.319517612457275">
        <ele>91.150000000000006</ele>
        <time>2020-02-28T09:45:43Z</time>
      </trkpt>
      <trkpt lat="44.332313183695078" lon="9.31948852725327">
        <ele>93.980000000000004</ele>
        <time>2020-02-28T09:46:04Z</time>
      </trkpt>
      <trkpt lat="44.332399349659681" lon="9.319422477856278">
        <ele>96.599999999999994</ele>
        <time>2020-02-28T09:46:24Z</time>
      </trkpt>
      <trkpt lat="44.332503201439977" lon="9.31934972293675">
        <ele>98.430000000000007</ele>
        <time>2020-02-28T09:46:43Z</time>
      </trkpt>
      <trkpt lat="44.332632618024945" lon="9.319181749597192">
        <ele>100.11</ele>
        <time>2020-02-28T09:47:06Z</time>
      </trkpt>
      <trkpt lat="44.332729764282703" lon="9.319082004949451">
        <ele>101.37</ele>
        <time>2020-02-28T09:47:25Z</time>
      </trkpt>
      <trkpt lat="44.33290109038353" lon="9.318937584757805">
        <ele>102.45999999999999</ele>
        <time>2020-02-28T09:47:51Z</time>
      </trkpt>
      <trkpt lat="44.333043415099382" lon="9.318766091018915">
        <ele>105.39</ele>
        <time>2020-02-28T09:48:14Z</time>
      </trkpt>
      <trkpt lat="44.333096807822585" lon="9.318674644455314">
        <ele>106.97</ele>
        <time>2020-02-28T09:48:36Z</time>
      </trkpt>
      <trkpt lat="44.333163779228926" lon="9.318622760474682">
        <ele>107.02</ele>
        <time>2020-02-28T09:48:59Z</time>
      </trkpt>
      <trkpt lat="44.333297805860639" lon="9.318464007228613">
        <ele>106.79000000000001</ele>
        <time>2020-02-28T09:49:16Z</time>
      </trkpt>
      <trkpt lat="44.333450021222234" lon="9.3183006439358">
        <ele>107.29000000000001</ele>
        <time>2020-02-28T09:49:39Z</time>
      </trkpt>
      <trkpt lat="44.333579605445266" lon="9.318242892622948">
        <ele>107.56999999999999</ele>
        <time>2020-02-28T09:49:57Z</time>
      </trkpt>
      <trkpt lat="44.333694437518716" lon="9.318209700286388">
        <ele>109.44</ele>
        <time>2020-02-28T09:50:17Z</time>
      </trkpt>
      <trkpt lat="44.333789069205523" lon="9.318149015307427">
        <ele>112.59</ele>
        <time>2020-02-28T09:50:33Z</time>
      </trkpt>
      <trkpt lat="44.333867523819208" lon="9.318141639232636">
        <ele>115.7</ele>
        <time>2020-02-28T09:50:52Z</time>
      </trkpt>
      <trkpt lat="44.333889903500676" lon="9.318156223744154">
        <ele>117.37</ele>
        <time>2020-02-28T09:51:16Z</time>
      </trkpt>
      <trkpt lat="44.334011105820537" lon="9.31814331561327">
        <ele>120.44</ele>
        <time>2020-02-28T09:51:36Z</time>
      </trkpt>
      <trkpt lat="44.334084112197161" lon="9.31816284544766">
        <ele>123.27</ele>
        <time>2020-02-28T09:51:53Z</time>
      </trkpt>
      <trkpt lat="44.334178157150745" lon="9.318189835175872">
        <ele>126.28</ele>
        <time>2020-02-28T09:52:14Z</time>
      </trkpt>
      <trkpt lat="44.334244625642896" lon="9.31821858510375">
        <ele>128.13</ele>
        <time>2020-02-28T09:52:38Z</time>
      </trkpt>
      <trkpt lat="44.334375550970435" lon="9.318278850987554">
        <ele>131.25999999999999</ele>
        <time>2020-02-28T09:52:59Z</time>
      </trkpt>
      <trkpt lat="44.334456939250231" lon="9.318308522924781">
        <ele>134.25</ele>
        <time>2020-02-28T09:53:20Z</time>
      </trkpt>
      <trkpt lat="44.334557605907321" lon="9.318315647542477">
        <ele>136.61000000000001</ele>
        <time>2020-02-28T09:53:41Z</time>
      </trkpt>
      <trkpt lat="44.334629103541374" lon="9.31836660951376">
        <ele>139.34999999999999</ele>
        <time>2020-02-28T09:54:01Z</time>
      </trkpt>
      <trkpt lat="44.334757179021835" lon="9.318394605070353">
        <ele>142.5</ele>
        <time>2020-02-28T09:54:23Z</time>
      </trkpt>
      <trkpt lat="44.334821132943034" lon="9.318374656140804">
        <ele>145.13</ele>
        <time>2020-02-28T09:54:40Z</time>
      </trkpt>
      <trkpt lat="44.334910735487938" lon="9.318362167105079">
        <ele>148.28999999999999</ele>
        <time>2020-02-28T09:55:00Z</time>
      </trkpt>
      <trkpt lat="44.334919201210141" lon="9.318290166556835">
        <ele>150.43000000000001</ele>
        <time>2020-02-28T09:55:14Z</time>
      </trkpt>
      <trkpt lat="44.334926828742027" lon="9.318284383043647">
        <ele>150.65000000000001</ele>
        <time>2020-02-28T09:55:16Z</time>
      </trkpt>
      <trkpt lat="44.334941916167736" lon="9.318246580660343">
        <ele>152.27000000000001</ele>
        <time>2020-02-28T09:55:29Z</time>
      </trkpt>
      <trkpt lat="44.334932779893279" lon="9.318196708336473">
        <ele>153.12</ele>
        <time>2020-02-28T09:55:35Z</time>
      </trkpt>
      <trkpt lat="44.335014838725328" lon="9.318046923726797">
        <ele>155.94</ele>
        <time>2020-02-28T09:55:56Z</time>
      </trkpt>
      <trkpt lat="44.335072673857212" lon="9.317876771092415">
        <ele>157.40000000000001</ele>
        <time>2020-02-28T09:56:12Z</time>
      </trkpt>
      <trkpt lat="44.335122965276241" lon="9.317668564617634">
        <ele>158.68000000000001</ele>
        <time>2020-02-28T09:56:32Z</time>
      </trkpt>
      <trkpt lat="44.335135202854872" lon="9.317594217136502">
        <ele>159.94999999999999</ele>
        <time>2020-02-28T09:56:43Z</time>
      </trkpt>
      <trkpt lat="44.335088934749365" lon="9.317402523010969">
        <ele>162.28999999999999</ele>
        <time>2020-02-28T09:57:02Z</time>
      </trkpt>
      <trkpt lat="44.335068985819817" lon="9.317310573533177">
        <ele>163.22</ele>
        <time>2020-02-28T09:57:10Z</time>
      </trkpt>
      <trkpt lat="44.33508625254035" lon="9.317193645983934">
        <ele>163.66</ele>
        <time>2020-02-28T09:57:30Z</time>
      </trkpt>
      <trkpt lat="44.335049372166395" lon="9.317348627373576">
        <ele>163.38</ele>
        <time>2020-02-28T09:58:57Z</time>
      </trkpt>
      <trkpt lat="44.335055658593774" lon="9.317117538303137">
        <ele>162.83000000000001</ele>
        <time>2020-02-28T09:59:21Z</time>
      </trkpt>
      <trkpt lat="44.335042499005795" lon="9.317105216905475">
        <ele>161.81</ele>
        <time>2020-02-28T09:59:38Z</time>
      </trkpt>
      <trkpt lat="44.335056329146028" lon="9.317077808082104">
        <ele>161.78999999999999</ele>
        <time>2020-02-28T10:00:23Z</time>
      </trkpt>
      <trkpt lat="44.335079211741686" lon="9.317091219127178">
        <ele>162.12</ele>
        <time>2020-02-28T10:01:10Z</time>
      </trkpt>
      <trkpt lat="44.335081810131669" lon="9.317116197198629">
        <ele>162.68000000000001</ele>
        <time>2020-02-28T10:01:42Z</time>
      </trkpt>
      <trkpt lat="44.335050461813807" lon="9.317114939913154">
        <ele>162.25</ele>
        <time>2020-02-28T10:02:09Z</time>
      </trkpt>
      <trkpt lat="44.33509161695838" lon="9.317131536081433">
        <ele>161.71000000000001</ele>
        <time>2020-02-28T10:02:27Z</time>
      </trkpt>
      <trkpt lat="44.335113577544689" lon="9.317142264917493">
        <ele>161.66999999999999</ele>
        <time>2020-02-28T10:02:36Z</time>
      </trkpt>
      <trkpt lat="44.335067728534341" lon="9.3171626329422">
        <ele>161.84999999999999</ele>
        <time>2020-02-28T10:02:56Z</time>
      </trkpt>
      <trkpt lat="44.335037637501955" lon="9.317059786990285">
        <ele>161.65000000000001</ele>
        <time>2020-02-28T10:03:14Z</time>
      </trkpt>
      <trkpt lat="44.334996733814478" lon="9.317017374560237">
        <ele>161.16999999999999</ele>
        <time>2020-02-28T10:03:34Z</time>
      </trkpt>
      <trkpt lat="44.33502615429461" lon="9.317076131701469">
        <ele>161.15000000000001</ele>
        <time>2020-02-28T10:03:53Z</time>
      </trkpt>
      <trkpt lat="44.335065465420485" lon="9.317103121429682">
        <ele>161.18000000000001</ele>
        <time>2020-02-28T10:03:57Z</time>
      </trkpt>
      <trkpt lat="44.335168395191431" lon="9.317124076187611">
        <ele>161.74000000000001</ele>
        <time>2020-02-28T10:04:15Z</time>
      </trkpt>
      <trkpt lat="44.335213908925653" lon="9.3171142693609">
        <ele>161.69</ele>
        <time>2020-02-28T10:04:29Z</time>
      </trkpt>
      <trkpt lat="44.335223799571395" lon="9.317006729543209">
        <ele>161.91999999999999</ele>
        <time>2020-02-28T10:04:47Z</time>
      </trkpt>
      <trkpt lat="44.335283897817135" lon="9.316933639347553">
        <ele>162.83000000000001</ele>
        <time>2020-02-28T10:05:00Z</time>
      </trkpt>
      <trkpt lat="44.33545027859509" lon="9.316804055124521">
        <ele>164.59</ele>
        <time>2020-02-28T10:05:26Z</time>
      </trkpt>
      <trkpt lat="44.335508532822132" lon="9.316698862239718">
        <ele>165.94999999999999</ele>
        <time>2020-02-28T10:05:41Z</time>
      </trkpt>
      <trkpt lat="44.335603248327971" lon="9.316587885841727">
        <ele>168.22999999999999</ele>
        <time>2020-02-28T10:05:56Z</time>
      </trkpt>
      <trkpt lat="44.335694778710604" lon="9.316464671865106">
        <ele>171.27000000000001</ele>
        <time>2020-02-28T10:06:15Z</time>
      </trkpt>
      <trkpt lat="44.335846994072199" lon="9.316406669095159">
        <ele>173.13999999999999</ele>
        <time>2020-02-28T10:06:31Z</time>
      </trkpt>
      <trkpt lat="44.336001640185714" lon="9.31613752618432">
        <ele>174.59999999999999</ele>
        <time>2020-02-28T10:07:01Z</time>
      </trkpt>
      <trkpt lat="44.336068779230118" lon="9.315945580601692">
        <ele>177.19999999999999</ele>
        <time>2020-02-28T10:07:22Z</time>
      </trkpt>
      <trkpt lat="44.336159806698561" lon="9.315794790163636">
        <ele>179.52000000000001</ele>
        <time>2020-02-28T10:07:43Z</time>
      </trkpt>
      <trkpt lat="44.336272962391376" lon="9.315656656399369">
        <ele>182.13999999999999</ele>
        <time>2020-02-28T10:08:05Z</time>
      </trkpt>
      <trkpt lat="44.336339849978685" lon="9.315551547333598">
        <ele>185.25999999999999</ele>
        <time>2020-02-28T10:08:25Z</time>
      </trkpt>
      <trkpt lat="44.336370946839452" lon="9.315471332520247">
        <ele>188.46000000000001</ele>
        <time>2020-02-28T10:08:43Z</time>
      </trkpt>
      <trkpt lat="44.336364073678851" lon="9.315395057201386">
        <ele>191.58000000000001</ele>
        <time>2020-02-28T10:08:58Z</time>
      </trkpt>
      <trkpt lat="44.336382178589702" lon="9.315312495455146">
        <ele>194.65000000000001</ele>
        <time>2020-02-28T10:09:14Z</time>
      </trkpt>
      <trkpt lat="44.336367761716247" lon="9.315203782171011">
        <ele>197.83000000000001</ele>
        <time>2020-02-28T10:09:31Z</time>
      </trkpt>
      <trkpt lat="44.336284445598722" lon="9.315037736669183">
        <ele>200.83000000000001</ele>
        <time>2020-02-28T10:09:54Z</time>
      </trkpt>
      <trkpt lat="44.336277740076184" lon="9.315025499090552">
        <ele>200.86000000000001</ele>
        <time>2020-02-28T10:09:55Z</time>
      </trkpt>
      <trkpt lat="44.336174726486206" lon="9.314865069463849">
        <ele>201.96000000000001</ele>
        <time>2020-02-28T10:10:16Z</time>
      </trkpt>
      <trkpt lat="44.336159974336624" lon="9.314710926264525">
        <ele>204.13</ele>
        <time>2020-02-28T10:10:39Z</time>
      </trkpt>
      <trkpt lat="44.336115214973688" lon="9.314519399777055">
        <ele>205.84999999999999</ele>
        <time>2020-02-28T10:10:59Z</time>
      </trkpt>
      <trkpt lat="44.33611337095499" lon="9.314336087554693">
        <ele>207.49000000000001</ele>
        <time>2020-02-28T10:11:18Z</time>
      </trkpt>
      <trkpt lat="44.336046483367682" lon="9.314182614907622">
        <ele>209.08000000000001</ele>
        <time>2020-02-28T10:11:36Z</time>
      </trkpt>
      <trkpt lat="44.335977248847485" lon="9.314029309898615">
        <ele>211.03999999999999</ele>
        <time>2020-02-28T10:11:56Z</time>
      </trkpt>
      <trkpt lat="44.335856130346656" lon="9.313853038474917">
        <ele>212.74000000000001</ele>
        <time>2020-02-28T10:12:18Z</time>
      </trkpt>
      <trkpt lat="44.335858728736639" lon="9.313722616061568">
        <ele>215.68000000000001</ele>
        <time>2020-02-28T10:12:40Z</time>
      </trkpt>
      <trkpt lat="44.335892423987389" lon="9.313547350466251">
        <ele>217.19999999999999</ele>
        <time>2020-02-28T10:12:58Z</time>
      </trkpt>
      <trkpt lat="44.33598143979907" lon="9.313346184790134">
        <ele>219.41999999999999</ele>
        <time>2020-02-28T10:13:19Z</time>
      </trkpt>
      <trkpt lat="44.336035335436463" lon="9.313150299713016">
        <ele>221.00999999999999</ele>
        <time>2020-02-28T10:13:41Z</time>
      </trkpt>
      <trkpt lat="44.336158381775022" lon="9.313050135970116">
        <ele>222.75</ele>
        <time>2020-02-28T10:14:01Z</time>
      </trkpt>
      <trkpt lat="44.336223676800728" lon="9.312965897843242">
        <ele>223.22999999999999</ele>
        <time>2020-02-28T10:14:11Z</time>
      </trkpt>
      <trkpt lat="44.336253181099892" lon="9.312928346917033">
        <ele>223.36000000000001</ele>
        <time>2020-02-28T10:14:15Z</time>
      </trkpt>
      <trkpt lat="44.336272878572345" lon="9.31290915235877">
        <ele>223.41</ele>
        <time>2020-02-28T10:14:17Z</time>
      </trkpt>
      <trkpt lat="44.336352674290538" lon="9.3127884529531">
        <ele>223.25999999999999</ele>
        <time>2020-02-28T10:14:31Z</time>
      </trkpt>
      <trkpt lat="44.336386788636446" lon="9.312790716066957">
        <ele>223.68000000000001</ele>
        <time>2020-02-28T10:14:53Z</time>
      </trkpt>
      <trkpt lat="44.336429871618748" lon="9.312731958925724">
        <ele>223.75999999999999</ele>
        <time>2020-02-28T10:15:16Z</time>
      </trkpt>
      <trkpt lat="44.336614357307553" lon="9.312566667795181">
        <ele>225.18000000000001</ele>
        <time>2020-02-28T10:15:40Z</time>
      </trkpt>
      <trkpt lat="44.336727848276496" lon="9.312386205419898">
        <ele>226.52000000000001</ele>
        <time>2020-02-28T10:16:01Z</time>
      </trkpt>
      <trkpt lat="44.336857097223401" lon="9.312310852110386">
        <ele>228.28</ele>
        <time>2020-02-28T10:16:19Z</time>
      </trkpt>
      <trkpt lat="44.33690395206213" lon="9.312241114675999">
        <ele>231.24000000000001</ele>
        <time>2020-02-28T10:16:43Z</time>
      </trkpt>
      <trkpt lat="44.336914848536253" lon="9.312235079705715">
        <ele>231.69</ele>
        <time>2020-02-28T10:17:06Z</time>
      </trkpt>
      <trkpt lat="44.336912585422397" lon="9.312238683924079">
        <ele>232.19999999999999</ele>
        <time>2020-02-28T10:17:26Z</time>
      </trkpt>
      <trkpt lat="44.336953572928905" lon="9.312275229021907">
        <ele>233.06999999999999</ele>
        <time>2020-02-28T10:17:48Z</time>
      </trkpt>
      <trkpt lat="44.337027752771974" lon="9.312245473265648">
        <ele>234.58000000000001</ele>
        <time>2020-02-28T10:18:08Z</time>
      </trkpt>
      <trkpt lat="44.337046528235078" lon="9.312164671719074">
        <ele>234.69</ele>
        <time>2020-02-28T10:18:22Z</time>
      </trkpt>
      <trkpt lat="44.337118193507195" lon="9.312021005898714">
        <ele>235.86000000000001</ele>
        <time>2020-02-28T10:18:44Z</time>
      </trkpt>
      <trkpt lat="44.337205030024052" lon="9.311772985383868">
        <ele>236.80000000000001</ele>
        <time>2020-02-28T10:19:04Z</time>
      </trkpt>
      <trkpt lat="44.337258255109191" lon="9.311698218807578">
        <ele>236.71000000000001</ele>
        <time>2020-02-28T10:19:11Z</time>
      </trkpt>
      <trkpt lat="44.337405357509851" lon="9.31145547889173">
        <ele>236.62</ele>
        <time>2020-02-28T10:19:35Z</time>
      </trkpt>
      <trkpt lat="44.337452296167612" lon="9.311352632939816">
        <ele>237.53999999999999</ele>
        <time>2020-02-28T10:19:45Z</time>
      </trkpt>
      <trkpt lat="44.337497809901834" lon="9.311316087841988">
        <ele>237.77000000000001</ele>
        <time>2020-02-28T10:19:50Z</time>
      </trkpt>
      <trkpt lat="44.337579282000661" lon="9.311238806694746">
        <ele>238.58000000000001</ele>
        <time>2020-02-28T10:20:00Z</time>
      </trkpt>
      <trkpt lat="44.337614988908172" lon="9.311203602701426">
        <ele>239.30000000000001</ele>
        <time>2020-02-28T10:20:05Z</time>
      </trkpt>
      <trkpt lat="44.337638122960925" lon="9.311169153079391">
        <ele>240.02000000000001</ele>
        <time>2020-02-28T10:20:09Z</time>
      </trkpt>
      <trkpt lat="44.337760247290134" lon="9.311041245236993">
        <ele>242.58000000000001</ele>
        <time>2020-02-28T10:20:27Z</time>
      </trkpt>
      <trkpt lat="44.337808778509498" lon="9.310938902199268">
        <ele>244.68000000000001</ele>
        <time>2020-02-28T10:20:45Z</time>
      </trkpt>
      <trkpt lat="44.337924448773265" lon="9.310727342963219">
        <ele>245.91999999999999</ele>
        <time>2020-02-28T10:21:07Z</time>
      </trkpt>
      <trkpt lat="44.337985720485449" lon="9.310545036569238">
        <ele>246.88999999999999</ele>
        <time>2020-02-28T10:21:27Z</time>
      </trkpt>
      <trkpt lat="44.338017655536532" lon="9.310431545600295">
        <ele>247.72</ele>
        <time>2020-02-28T10:21:46Z</time>
      </trkpt>
      <trkpt lat="44.338094349950552" lon="9.310300787910819">
        <ele>248.46000000000001</ele>
        <time>2020-02-28T10:22:00Z</time>
      </trkpt>
      <trkpt lat="44.338182611390948" lon="9.310079589486122">
        <ele>249.19999999999999</ele>
        <time>2020-02-28T10:22:20Z</time>
      </trkpt>
      <trkpt lat="44.338151179254055" lon="9.310000212863088">
        <ele>250.34999999999999</ele>
        <time>2020-02-28T10:22:38Z</time>
      </trkpt>
      <trkpt lat="44.338231310248375" lon="9.309835759922862">
        <ele>251.22</ele>
        <time>2020-02-28T10:22:56Z</time>
      </trkpt>
      <trkpt lat="44.338367935270071" lon="9.309630235657096">
        <ele>252.91999999999999</ele>
        <time>2020-02-28T10:23:19Z</time>
      </trkpt>
      <trkpt lat="44.338302640244365" lon="9.309602407738566">
        <ele>252.61000000000001</ele>
        <time>2020-02-28T10:23:35Z</time>
      </trkpt>
      <trkpt lat="44.338352764025331" lon="9.309528227895498">
        <ele>252.78999999999999</ele>
        <time>2020-02-28T10:24:04Z</time>
      </trkpt>
      <trkpt lat="44.338483354076743" lon="9.309412389993668">
        <ele>255.59</ele>
        <time>2020-02-28T10:24:26Z</time>
      </trkpt>
      <trkpt lat="44.338574800640345" lon="9.309360254555941">
        <ele>257.81</ele>
        <time>2020-02-28T10:24:43Z</time>
      </trkpt>
      <trkpt lat="44.338649651035666" lon="9.309265539050102">
        <ele>259.99000000000001</ele>
        <time>2020-02-28T10:25:01Z</time>
      </trkpt>
      <trkpt lat="44.338751910254359" lon="9.309153808280826">
        <ele>261.33999999999997</ele>
        <time>2020-02-28T10:25:18Z</time>
      </trkpt>
      <trkpt lat="44.338827095925808" lon="9.309064373373985">
        <ele>261.51999999999998</ele>
        <time>2020-02-28T10:25:28Z</time>
      </trkpt>
      <trkpt lat="44.338998673483729" lon="9.308862620964646">
        <ele>262.39999999999998</ele>
        <time>2020-02-28T10:25:50Z</time>
      </trkpt>
      <trkpt lat="44.339004289358854" lon="9.308855580165982">
        <ele>262.45999999999998</ele>
        <time>2020-02-28T10:25:51Z</time>
      </trkpt>
      <trkpt lat="44.339181818068027" lon="9.30872549302876">
        <ele>264.33999999999997</ele>
        <time>2020-02-28T10:26:12Z</time>
      </trkpt>
      <trkpt lat="44.339315509423614" lon="9.308652402833104">
        <ele>266.22000000000003</ele>
        <time>2020-02-28T10:26:24Z</time>
      </trkpt>
      <trkpt lat="44.339353060349822" lon="9.308639410883188">
        <ele>266.68000000000001</ele>
        <time>2020-02-28T10:26:28Z</time>
      </trkpt>
      <trkpt lat="44.339457247406244" lon="9.308589873835445">
        <ele>268.75999999999999</ele>
        <time>2020-02-28T10:26:51Z</time>
      </trkpt>
      <trkpt lat="44.339519273489714" lon="9.308589957654476">
        <ele>271.38999999999999</ele>
        <time>2020-02-28T10:27:13Z</time>
      </trkpt>
      <trkpt lat="44.339524134993553" lon="9.308577049523592">
        <ele>271.85000000000002</ele>
        <time>2020-02-28T10:27:19Z</time>
      </trkpt>
      <trkpt lat="44.339641146361828" lon="9.308598591014743">
        <ele>273.64999999999998</ele>
        <time>2020-02-28T10:27:40Z</time>
      </trkpt>
      <trkpt lat="44.339716080576181" lon="9.308605128899217">
        <ele>275.75</ele>
        <time>2020-02-28T10:27:58Z</time>
      </trkpt>
      <trkpt lat="44.339773580431938" lon="9.308583168312907">
        <ele>277.22000000000003</ele>
        <time>2020-02-28T10:28:13Z</time>
      </trkpt>
      <trkpt lat="44.339793110266328" lon="9.308598591014743">
        <ele>277.63</ele>
        <time>2020-02-28T10:28:16Z</time>
      </trkpt>
      <trkpt lat="44.339873995631933" lon="9.308598842471838">
        <ele>279.81</ele>
        <time>2020-02-28T10:28:35Z</time>
      </trkpt>
      <trkpt lat="44.340006345883012" lon="9.308497589081526">
        <ele>281.95999999999998</ele>
        <time>2020-02-28T10:28:54Z</time>
      </trkpt>
      <trkpt lat="44.340015398338437" lon="9.308467414230108">
        <ele>281.98000000000002</ele>
        <time>2020-02-28T10:28:56Z</time>
      </trkpt>
      <trkpt lat="44.340140204876661" lon="9.308282341808081">
        <ele>282.52999999999997</ele>
        <time>2020-02-28T10:29:16Z</time>
      </trkpt>
      <trkpt lat="44.340213211253285" lon="9.308142783120275">
        <ele>283.31999999999999</ele>
        <time>2020-02-28T10:29:32Z</time>
      </trkpt>
      <trkpt lat="44.340298790484667" lon="9.307984365150333">
        <ele>285.22000000000003</ele>
        <time>2020-02-28T10:29:54Z</time>
      </trkpt>
      <trkpt lat="44.340380011126399" lon="9.307856624945998">
        <ele>286.89999999999998</ele>
        <time>2020-02-28T10:30:16Z</time>
      </trkpt>
      <trkpt lat="44.340344974771142" lon="9.307739026844502">
        <ele>290.05000000000001</ele>
        <time>2020-02-28T10:30:33Z</time>
      </trkpt>
      <trkpt lat="44.340294180437922" lon="9.307530652731657">
        <ele>292.00999999999999</ele>
        <time>2020-02-28T10:30:52Z</time>
      </trkpt>
      <trkpt lat="44.340234249830246" lon="9.307382712140679">
        <ele>292.49000000000001</ele>
        <time>2020-02-28T10:31:13Z</time>
      </trkpt>
      <trkpt lat="44.340208433568478" lon="9.307281961664558">
        <ele>293.69999999999999</ele>
        <time>2020-02-28T10:31:24Z</time>
      </trkpt>
      <trkpt lat="44.340175744146109" lon="9.307165872305632">
        <ele>295.19999999999999</ele>
        <time>2020-02-28T10:31:36Z</time>
      </trkpt>
      <trkpt lat="44.340182449668646" lon="9.307016674429178">
        <ele>296.42000000000002</ele>
        <time>2020-02-28T10:31:51Z</time>
      </trkpt>
      <trkpt lat="44.340197369456291" lon="9.306830344721675">
        <ele>296.93000000000001</ele>
        <time>2020-02-28T10:32:04Z</time>
      </trkpt>
      <trkpt lat="44.340216983109713" lon="9.306573607027531">
        <ele>296.93000000000001</ele>
        <time>2020-02-28T10:32:25Z</time>
      </trkpt>
      <trkpt lat="44.340265681967139" lon="9.306327849626541">
        <ele>297.63</ele>
        <time>2020-02-28T10:32:46Z</time>
      </trkpt>
      <trkpt lat="44.340264508500695" lon="9.306144788861275">
        <ele>298.05000000000001</ele>
        <time>2020-02-28T10:33:00Z</time>
      </trkpt>
      <trkpt lat="44.340310944244266" lon="9.30590758100152">
        <ele>300.01999999999998</ele>
        <time>2020-02-28T10:33:23Z</time>
      </trkpt>
      <trkpt lat="44.340380849316716" lon="9.305657800287008">
        <ele>302.62</ele>
        <time>2020-02-28T10:33:49Z</time>
      </trkpt>
      <trkpt lat="44.340459471568465" lon="9.305484294891357">
        <ele>304.58999999999997</ele>
        <time>2020-02-28T10:34:08Z</time>
      </trkpt>
      <trkpt lat="44.340539099648595" lon="9.305312046781182">
        <ele>306.47000000000003</ele>
        <time>2020-02-28T10:34:30Z</time>
      </trkpt>
      <trkpt lat="44.340580422431231" lon="9.305285643786192">
        <ele>307.51999999999998</ele>
        <time>2020-02-28T10:34:48Z</time>
      </trkpt>
      <trkpt lat="44.340659882873297" lon="9.305198891088367">
        <ele>307.27999999999997</ele>
        <time>2020-02-28T10:35:02Z</time>
      </trkpt>
      <trkpt lat="44.340815953910351" lon="9.305118592455983">
        <ele>309.62</ele>
        <time>2020-02-28T10:35:24Z</time>
      </trkpt>
      <trkpt lat="44.340835986658931" lon="9.305090345442295">
        <ele>309.79000000000002</ele>
        <time>2020-02-28T10:35:28Z</time>
      </trkpt>
      <trkpt lat="44.340928690508008" lon="9.304944416508079">
        <ele>309.93000000000001</ele>
        <time>2020-02-28T10:35:46Z</time>
      </trkpt>
      <trkpt lat="44.341065231710672" lon="9.304782813414931">
        <ele>311.29000000000002</ele>
        <time>2020-02-28T10:36:10Z</time>
      </trkpt>
      <trkpt lat="44.341189786791801" lon="9.304616935551167">
        <ele>312.25999999999999</ele>
        <time>2020-02-28T10:36:31Z</time>
      </trkpt>
      <trkpt lat="44.341327669098973" lon="9.304487351328135">
        <ele>314.29000000000002</ele>
        <time>2020-02-28T10:36:51Z</time>
      </trkpt>
      <trkpt lat="44.341434706002474" lon="9.304298590868712">
        <ele>315.63999999999999</ele>
        <time>2020-02-28T10:37:12Z</time>
      </trkpt>
      <trkpt lat="44.341483237221837" lon="9.304181579500437">
        <ele>315.68000000000001</ele>
        <time>2020-02-28T10:37:24Z</time>
      </trkpt>
      <trkpt lat="44.341632518917322" lon="9.303940180689097">
        <ele>315.76999999999998</ele>
        <time>2020-02-28T10:37:45Z</time>
      </trkpt>
      <trkpt lat="44.341749111190438" lon="9.303729794919491">
        <ele>314.82999999999998</ele>
        <time>2020-02-28T10:38:06Z</time>
      </trkpt>
      <trkpt lat="44.341855896636844" lon="9.30355972610414">
        <ele>315.24000000000001</ele>
        <time>2020-02-28T10:38:25Z</time>
      </trkpt>
      <trkpt lat="44.341937117278576" lon="9.303395692259073">
        <ele>316.57999999999998</ele>
        <time>2020-02-28T10:38:44Z</time>
      </trkpt>
      <trkpt lat="44.341994365677238" lon="9.303299048915505">
        <ele>316.58999999999997</ele>
        <time>2020-02-28T10:38:52Z</time>
      </trkpt>
      <trkpt lat="44.342066030949354" lon="9.303161082789302">
        <ele>316.93000000000001</ele>
        <time>2020-02-28T10:39:04Z</time>
      </trkpt>
      <trkpt lat="44.342165775597095" lon="9.302929323166609">
        <ele>318.24000000000001</ele>
        <time>2020-02-28T10:39:26Z</time>
      </trkpt>
      <trkpt lat="44.34221682138741" lon="9.302746010944247">
        <ele>319.88</ele>
        <time>2020-02-28T10:39:48Z</time>
      </trkpt>
      <trkpt lat="44.34226275421679" lon="9.302576947957277">
        <ele>321.07999999999998</ele>
        <time>2020-02-28T10:40:08Z</time>
      </trkpt>
      <trkpt lat="44.342266945168376" lon="9.302376536652446">
        <ele>323.67000000000002</ele>
        <time>2020-02-28T10:40:30Z</time>
      </trkpt>
      <trkpt lat="44.342312626540661" lon="9.302241336554289">
        <ele>326.14999999999998</ele>
        <time>2020-02-28T10:40:50Z</time>
      </trkpt>
      <trkpt lat="44.342368952929974" lon="9.302131030708551">
        <ele>328.50999999999999</ele>
        <time>2020-02-28T10:41:12Z</time>
      </trkpt>
      <trkpt lat="44.342445395886898" lon="9.302019299939275">
        <ele>331.23000000000002</ele>
        <time>2020-02-28T10:41:33Z</time>
      </trkpt>
      <trkpt lat="44.342538435012102" lon="9.301913687959313">
        <ele>333.42000000000002</ele>
        <time>2020-02-28T10:41:54Z</time>
      </trkpt>
      <trkpt lat="44.342582272365689" lon="9.301725095137954">
        <ele>335.14999999999998</ele>
        <time>2020-02-28T10:42:13Z</time>
      </trkpt>
      <trkpt lat="44.342623511329293" lon="9.301533401012421">
        <ele>337.17000000000002</ele>
        <time>2020-02-28T10:42:34Z</time>
      </trkpt>
      <trkpt lat="44.342643292620778" lon="9.30137699469924">
        <ele>339.04000000000002</ele>
        <time>2020-02-28T10:42:52Z</time>
      </trkpt>
      <trkpt lat="44.342686040326953" lon="9.301173146814108">
        <ele>341.54000000000002</ele>
        <time>2020-02-28T10:43:17Z</time>
      </trkpt>
      <trkpt lat="44.342747814953327" lon="9.300978938117623">
        <ele>343.44999999999999</ele>
        <time>2020-02-28T10:43:38Z</time>
      </trkpt>
      <trkpt lat="44.342750916257501" lon="9.300827560946345">
        <ele>345.39999999999998</ele>
        <time>2020-02-28T10:43:58Z</time>
      </trkpt>
      <trkpt lat="44.34278167784214" lon="9.300623126327992">
        <ele>348.36000000000001</ele>
        <time>2020-02-28T10:44:22Z</time>
      </trkpt>
      <trkpt lat="44.342776900157332" lon="9.300507539883256">
        <ele>350.66000000000003</ele>
        <time>2020-02-28T10:44:41Z</time>
      </trkpt>
      <trkpt lat="44.342837501317263" lon="9.300403939560056">
        <ele>353.72000000000003</ele>
        <time>2020-02-28T10:45:02Z</time>
      </trkpt>
      <trkpt lat="44.342899946495891" lon="9.300324730575085">
        <ele>356.14999999999998</ele>
        <time>2020-02-28T10:45:21Z</time>
      </trkpt>
      <trkpt lat="44.342927020043135" lon="9.300210401415825">
        <ele>358.22000000000003</ele>
        <time>2020-02-28T10:45:40Z</time>
      </trkpt>
      <trkpt lat="44.342989632859826" lon="9.300064221024513">
        <ele>359.91000000000003</ele>
        <time>2020-02-28T10:45:58Z</time>
      </trkpt>
      <trkpt lat="44.3429771438241" lon="9.299910832196474">
        <ele>362.74000000000001</ele>
        <time>2020-02-28T10:46:20Z</time>
      </trkpt>
      <trkpt lat="44.34298150241375" lon="9.299735818058252">
        <ele>365.82999999999998</ele>
        <time>2020-02-28T10:46:44Z</time>
      </trkpt>
      <trkpt lat="44.342899024486542" lon="9.299500957131386">
        <ele>368.58999999999997</ele>
        <time>2020-02-28T10:47:07Z</time>
      </trkpt>
      <trkpt lat="44.342869520187378" lon="9.299359051510692">
        <ele>369.81</ele>
        <time>2020-02-28T10:47:28Z</time>
      </trkpt>
      <trkpt lat="44.342947723343968" lon="9.299358632415533">
        <ele>369.26999999999998</ele>
        <time>2020-02-28T10:47:59Z</time>
      </trkpt>
      <trkpt lat="44.342983681708574" lon="9.299394674599171">
        <ele>369.13999999999999</ele>
        <time>2020-02-28T10:48:22Z</time>
      </trkpt>
      <trkpt lat="44.34297320432961" lon="9.299223348498344">
        <ele>369.43000000000001</ele>
        <time>2020-02-28T10:48:45Z</time>
      </trkpt>
      <trkpt lat="44.34293263591826" lon="9.298980943858624">
        <ele>371.23000000000002</ele>
        <time>2020-02-28T10:49:08Z</time>
      </trkpt>
      <trkpt lat="44.342947974801064" lon="9.298676680773497">
        <ele>372.39999999999998</ele>
        <time>2020-02-28T10:49:30Z</time>
      </trkpt>
      <trkpt lat="44.342972114682198" lon="9.298475598916411">
        <ele>375.01999999999998</ele>
        <time>2020-02-28T10:49:50Z</time>
      </trkpt>
      <trkpt lat="44.342986615374684" lon="9.298308799043298">
        <ele>377.05000000000001</ele>
        <time>2020-02-28T10:50:09Z</time>
      </trkpt>
      <trkpt lat="44.342970438301563" lon="9.298152979463339">
        <ele>379.36000000000001</ele>
        <time>2020-02-28T10:50:30Z</time>
      </trkpt>
      <trkpt lat="44.342973874881864" lon="9.298060778528452">
        <ele>380.79000000000002</ele>
        <time>2020-02-28T10:50:56Z</time>
      </trkpt>
      <trkpt lat="44.342984016984701" lon="9.297982743009925">
        <ele>381.37</ele>
        <time>2020-02-28T10:51:27Z</time>
      </trkpt>
      <trkpt lat="44.342991476878524" lon="9.297890542075038">
        <ele>384.54000000000002</ele>
        <time>2020-02-28T10:51:45Z</time>
      </trkpt>
      <trkpt lat="44.342974796891212" lon="9.297821307554841">
        <ele>387.41000000000003</ele>
        <time>2020-02-28T10:52:09Z</time>
      </trkpt>
      <trkpt lat="44.342980412766337" lon="9.297782583162189">
        <ele>387.82999999999998</ele>
        <time>2020-02-28T10:52:37Z</time>
      </trkpt>
      <trkpt lat="44.342937832698226" lon="9.297762801870704">
        <ele>387.98000000000002</ele>
        <time>2020-02-28T10:53:10Z</time>
      </trkpt>
      <trkpt lat="44.342889469116926" lon="9.297736566513777">
        <ele>388.63999999999999</ele>
        <time>2020-02-28T10:53:41Z</time>
      </trkpt>
      <trkpt lat="44.34295367449522" lon="9.297770764678717">
        <ele>388.38999999999999</ele>
        <time>2020-02-28T10:54:14Z</time>
      </trkpt>
      <trkpt lat="44.342920901253819" lon="9.297725167125464">
        <ele>389.62</ele>
        <time>2020-02-28T10:54:37Z</time>
      </trkpt>
      <trkpt lat="44.342867927625775" lon="9.297610754147172">
        <ele>392.56999999999999</ele>
        <time>2020-02-28T10:54:58Z</time>
      </trkpt>
      <trkpt lat="44.342849235981703" lon="9.297470776364207">
        <ele>395.10000000000002</ele>
        <time>2020-02-28T10:55:17Z</time>
      </trkpt>
      <trkpt lat="44.342791317030787" lon="9.29737857542932">
        <ele>397.58999999999997</ele>
        <time>2020-02-28T10:55:37Z</time>
      </trkpt>
      <trkpt lat="44.342772122472525" lon="9.297275394201279">
        <ele>400.19</ele>
        <time>2020-02-28T10:55:53Z</time>
      </trkpt>
      <trkpt lat="44.34275871142745" lon="9.297190653160214">
        <ele>403.17000000000002</ele>
        <time>2020-02-28T10:56:13Z</time>
      </trkpt>
      <trkpt lat="44.342760890722275" lon="9.297187216579914">
        <ele>403.31999999999999</ele>
        <time>2020-02-28T10:56:14Z</time>
      </trkpt>
      <trkpt lat="44.342747563496232" lon="9.297121921554208">
        <ele>406.01999999999998</ele>
        <time>2020-02-28T10:56:37Z</time>
      </trkpt>
      <trkpt lat="44.3427992798388" lon="9.297045143321157">
        <ele>408.01999999999998</ele>
        <time>2020-02-28T10:57:00Z</time>
      </trkpt>
      <trkpt lat="44.342822078615427" lon="9.296997198835015">
        <ele>410.62</ele>
        <time>2020-02-28T10:57:20Z</time>
      </trkpt>
      <trkpt lat="44.342856863513589" lon="9.296947326511145">
        <ele>413.72000000000003</ele>
        <time>2020-02-28T10:57:38Z</time>
      </trkpt>
      <trkpt lat="44.342873459681869" lon="9.296852862462401">
        <ele>416.82999999999998</ele>
        <time>2020-02-28T10:57:58Z</time>
      </trkpt>
      <trkpt lat="44.34289064258337" lon="9.296801146119833">
        <ele>419.36000000000001</ele>
        <time>2020-02-28T10:58:18Z</time>
      </trkpt>
      <trkpt lat="44.342850493267179" lon="9.296718249097467">
        <ele>422.32999999999998</ele>
        <time>2020-02-28T10:58:38Z</time>
      </trkpt>
      <trkpt lat="44.342784443870187" lon="9.29659285582602">
        <ele>424.51999999999998</ele>
        <time>2020-02-28T10:58:57Z</time>
      </trkpt>
      <trkpt lat="44.342824593186378" lon="9.296522280201316">
        <ele>427.47000000000003</ele>
        <time>2020-02-28T10:59:19Z</time>
      </trkpt>
      <trkpt lat="44.342822581529617" lon="9.296424211934209">
        <ele>430.51999999999998</ele>
        <time>2020-02-28T10:59:40Z</time>
      </trkpt>
      <trkpt lat="44.342762315645814" lon="9.296361766755581">
        <ele>433.54000000000002</ele>
        <time>2020-02-28T11:00:03Z</time>
      </trkpt>
      <trkpt lat="44.34278117492795" lon="9.296263447031379">
        <ele>436.63</ele>
        <time>2020-02-28T11:00:20Z</time>
      </trkpt>
      <trkpt lat="44.342807913199067" lon="9.296137886121869">
        <ele>439.67000000000002</ele>
        <time>2020-02-28T11:00:42Z</time>
      </trkpt>
      <trkpt lat="44.342822413891554" lon="9.296041410416365">
        <ele>442.75999999999999</ele>
        <time>2020-02-28T11:01:01Z</time>
      </trkpt>
      <trkpt lat="44.342847056686878" lon="9.296022467315197">
        <ele>444.60000000000002</ele>
        <time>2020-02-28T11:01:21Z</time>
      </trkpt>
      <trkpt lat="44.342855690047145" lon="9.295935463160276">
        <ele>447.63</ele>
        <time>2020-02-28T11:01:41Z</time>
      </trkpt>
      <trkpt lat="44.342848984524608" lon="9.295927584171295">
        <ele>447.74000000000001</ele>
        <time>2020-02-28T11:01:42Z</time>
      </trkpt>
      <trkpt lat="44.342825096100569" lon="9.295845692977309">
        <ele>450.18000000000001</ele>
        <time>2020-02-28T11:02:04Z</time>
      </trkpt>
      <trkpt lat="44.342809338122606" lon="9.295784085988998">
        <ele>452.69</ele>
        <time>2020-02-28T11:02:25Z</time>
      </trkpt>
      <trkpt lat="44.342817552387714" lon="9.295692890882492">
        <ele>454.63</ele>
        <time>2020-02-28T11:02:47Z</time>
      </trkpt>
      <trkpt lat="44.342824006453156" lon="9.295680820941925">
        <ele>454.99000000000001</ele>
        <time>2020-02-28T11:02:50Z</time>
      </trkpt>
      <trkpt lat="44.34283641166985" lon="9.295615777373314">
        <ele>457.99000000000001</ele>
        <time>2020-02-28T11:03:10Z</time>
      </trkpt>
      <trkpt lat="44.34281637892127" lon="9.295511171221733">
        <ele>460.86000000000001</ele>
        <time>2020-02-28T11:03:35Z</time>
      </trkpt>
      <trkpt lat="44.342816462740302" lon="9.295450821518898">
        <ele>463.94999999999999</ele>
        <time>2020-02-28T11:03:53Z</time>
      </trkpt>
      <trkpt lat="44.342898605391383" lon="9.295329786837101">
        <ele>465.95999999999998</ele>
        <time>2020-02-28T11:04:16Z</time>
      </trkpt>
      <trkpt lat="44.342924002557993" lon="9.295253762975335">
        <ele>467.55000000000001</ele>
        <time>2020-02-28T11:04:29Z</time>
      </trkpt>
      <trkpt lat="44.343006983399391" lon="9.29516701027751">
        <ele>470.01999999999998</ele>
        <time>2020-02-28T11:04:49Z</time>
      </trkpt>
      <trkpt lat="44.343028943985701" lon="9.295011274516583">
        <ele>472.17000000000002</ele>
        <time>2020-02-28T11:05:13Z</time>
      </trkpt>
      <trkpt lat="44.343070266768336" lon="9.294895185157657">
        <ele>474.69999999999999</ele>
        <time>2020-02-28T11:05:33Z</time>
      </trkpt>
      <trkpt lat="44.343216111883521" lon="9.294747579842806">
        <ele>476.88999999999999</ele>
        <time>2020-02-28T11:05:59Z</time>
      </trkpt>
      <trkpt lat="44.343280903995037" lon="9.294529901817441">
        <ele>479.19</ele>
        <time>2020-02-28T11:06:22Z</time>
      </trkpt>
      <trkpt lat="44.343370674178004" lon="9.294373076409102">
        <ele>481.88</ele>
        <time>2020-02-28T11:06:46Z</time>
      </trkpt>
      <trkpt lat="44.343414762988687" lon="9.294214658439159">
        <ele>484.89999999999998</ele>
        <time>2020-02-28T11:07:08Z</time>
      </trkpt>
      <trkpt lat="44.343567732721567" lon="9.294109465554357">
        <ele>486.81</ele>
        <time>2020-02-28T11:07:30Z</time>
      </trkpt>
      <trkpt lat="44.343692874535918" lon="9.293949287384749">
        <ele>486.77999999999997</ele>
        <time>2020-02-28T11:07:50Z</time>
      </trkpt>
      <trkpt lat="44.343785913661122" lon="9.293768825009465">
        <ele>488.79000000000002</ele>
        <time>2020-02-28T11:08:11Z</time>
      </trkpt>
      <trkpt lat="44.343924717977643" lon="9.293638905510306">
        <ele>490.39999999999998</ele>
        <time>2020-02-28T11:08:32Z</time>
      </trkpt>
      <trkpt lat="44.344059834256768" lon="9.293505465611816">
        <ele>490.63999999999999</ele>
        <time>2020-02-28T11:08:53Z</time>
      </trkpt>
      <trkpt lat="44.344180785119534" lon="9.293411839753389">
        <ele>491.68000000000001</ele>
        <time>2020-02-28T11:09:13Z</time>
      </trkpt>
      <trkpt lat="44.344191681593657" lon="9.293401697650552">
        <ele>492.08999999999997</ele>
        <time>2020-02-28T11:09:16Z</time>
      </trkpt>
      <trkpt lat="44.344350434839725" lon="9.293275969102979">
        <ele>491.97000000000003</ele>
        <time>2020-02-28T11:09:39Z</time>
      </trkpt>
      <trkpt lat="44.34450214728713" lon="9.293100787326694">
        <ele>490.79000000000002</ele>
        <time>2020-02-28T11:09:59Z</time>
      </trkpt>
      <trkpt lat="44.344581691548228" lon="9.292910853400827">
        <ele>492.35000000000002</ele>
        <time>2020-02-28T11:10:20Z</time>
      </trkpt>
      <trkpt lat="44.344587055966258" lon="9.292854694649577">
        <ele>492.99000000000001</ele>
        <time>2020-02-28T11:10:49Z</time>
      </trkpt>
      <trkpt lat="44.344553109258413" lon="9.292932227253914">
        <ele>492.79000000000002</ele>
        <time>2020-02-28T11:11:23Z</time>
      </trkpt>
      <trkpt lat="44.344567861407995" lon="9.292894005775452">
        <ele>493.29000000000002</ele>
        <time>2020-02-28T11:11:54Z</time>
      </trkpt>
      <trkpt lat="44.344708845019341" lon="9.292776491492987">
        <ele>495.66000000000003</ele>
        <time>2020-02-28T11:12:16Z</time>
      </trkpt>
      <trkpt lat="44.344788137823343" lon="9.292652104049921">
        <ele>498.75999999999999</ele>
        <time>2020-02-28T11:12:38Z</time>
      </trkpt>
      <trkpt lat="44.344859886914492" lon="9.292553616687655">
        <ele>501.87</ele>
        <time>2020-02-28T11:12:57Z</time>
      </trkpt>
      <trkpt lat="44.344989890232682" lon="9.292419841513038">
        <ele>504.94</ele>
        <time>2020-02-28T11:13:20Z</time>
      </trkpt>
      <trkpt lat="44.345068763941526" lon="9.292339207604528">
        <ele>508.00999999999999</ele>
        <time>2020-02-28T11:13:37Z</time>
      </trkpt>
      <trkpt lat="44.345200778916478" lon="9.292270308360457">
        <ele>510.12</ele>
        <time>2020-02-28T11:13:59Z</time>
      </trkpt>
      <trkpt lat="44.345277976244688" lon="9.292104514315724">
        <ele>510.88</ele>
        <time>2020-02-28T11:14:21Z</time>
      </trkpt>
      <trkpt lat="44.34531083330512" lon="9.291899157688022">
        <ele>510.38</ele>
        <time>2020-02-28T11:14:41Z</time>
      </trkpt>
      <trkpt lat="44.345360202714801" lon="9.291785163804889">
        <ele>510.31</ele>
        <time>2020-02-28T11:15:01Z</time>
      </trkpt>
      <trkpt lat="44.345433795824647" lon="9.291551476344466">
        <ele>511.45999999999998</ele>
        <time>2020-02-28T11:15:20Z</time>
      </trkpt>
      <trkpt lat="44.345513759180903" lon="9.291278393939138">
        <ele>513.37</ele>
        <time>2020-02-28T11:15:42Z</time>
      </trkpt>
      <trkpt lat="44.345587436109781" lon="9.291098518297076">
        <ele>514.78999999999996</ele>
        <time>2020-02-28T11:16:01Z</time>
      </trkpt>
      <trkpt lat="44.345627166330814" lon="9.290834404528141">
        <ele>514.47000000000003</ele>
        <time>2020-02-28T11:16:23Z</time>
      </trkpt>
      <trkpt lat="44.345627836883068" lon="9.290598034858704">
        <ele>516.11000000000001</ele>
        <time>2020-02-28T11:16:42Z</time>
      </trkpt>
      <trkpt lat="44.345663376152515" lon="9.290418159216642">
        <ele>519.24000000000001</ele>
        <time>2020-02-28T11:17:04Z</time>
      </trkpt>
      <trkpt lat="44.345661951228976" lon="9.290255298838019">
        <ele>522.44000000000005</ele>
        <time>2020-02-28T11:17:24Z</time>
      </trkpt>
      <trkpt lat="44.345645103603601" lon="9.290169887244701">
        <ele>524.20000000000005</ele>
        <time>2020-02-28T11:17:40Z</time>
      </trkpt>
      <trkpt lat="44.345663040876389" lon="9.29021573625505">
        <ele>523.86000000000001</ele>
        <time>2020-02-28T11:18:00Z</time>
      </trkpt>
      <trkpt lat="44.345774436369538" lon="9.290192434564233">
        <ele>522.09000000000003</ele>
        <time>2020-02-28T11:18:18Z</time>
      </trkpt>
      <trkpt lat="44.345841156318784" lon="9.290172066539526">
        <ele>520.28999999999996</ele>
        <time>2020-02-28T11:18:28Z</time>
      </trkpt>
      <trkpt lat="44.345971075817943" lon="9.290116997435689">
        <ele>517.76999999999998</ele>
        <time>2020-02-28T11:18:47Z</time>
      </trkpt>
      <trkpt lat="44.346098732203245" lon="9.290014654397965">
        <ele>516</ele>
        <time>2020-02-28T11:19:00Z</time>
      </trkpt>
      <trkpt lat="44.346275590360165" lon="9.289818936958909">
        <ele>514.59000000000003</ele>
        <time>2020-02-28T11:19:21Z</time>
      </trkpt>
      <trkpt lat="44.346285313367844" lon="9.289807453751564">
        <ele>514.59000000000003</ele>
        <time>2020-02-28T11:19:22Z</time>
      </trkpt>
      <trkpt lat="44.346415065228939" lon="9.289581226184964">
        <ele>513.85000000000002</ele>
        <time>2020-02-28T11:19:43Z</time>
      </trkpt>
      <trkpt lat="44.346421686932445" lon="9.289562702178955">
        <ele>513.79999999999995</ele>
        <time>2020-02-28T11:19:45Z</time>
      </trkpt>
      <trkpt lat="44.346466111019254" lon="9.289347706362605">
        <ele>512.84000000000003</ele>
        <time>2020-02-28T11:20:04Z</time>
      </trkpt>
      <trkpt lat="44.346585972234607" lon="9.289165316149592">
        <ele>511.86000000000001</ele>
        <time>2020-02-28T11:20:23Z</time>
      </trkpt>
      <trkpt lat="44.346651267260313" lon="9.289024751633406">
        <ele>510.80000000000001</ele>
        <time>2020-02-28T11:20:34Z</time>
      </trkpt>
      <trkpt lat="44.346758387982845" lon="9.288821825757623">
        <ele>509.24000000000001</ele>
        <time>2020-02-28T11:20:56Z</time>
      </trkpt>
      <trkpt lat="44.346815468743443" lon="9.288794584572315">
        <ele>508.88</ele>
        <time>2020-02-28T11:21:23Z</time>
      </trkpt>
      <trkpt lat="44.346926026046276" lon="9.288757871836424">
        <ele>508.56999999999999</ele>
        <time>2020-02-28T11:21:42Z</time>
      </trkpt>
      <trkpt lat="44.347045216709375" lon="9.2887107655406">
        <ele>508.48000000000002</ele>
        <time>2020-02-28T11:21:56Z</time>
      </trkpt>
      <trkpt lat="44.347218805924058" lon="9.288538601249456">
        <ele>508.35000000000002</ele>
        <time>2020-02-28T11:22:16Z</time>
      </trkpt>
      <trkpt lat="44.347277143970132" lon="9.288465762510896">
        <ele>508.07999999999998</ele>
        <time>2020-02-28T11:22:23Z</time>
      </trkpt>
      <trkpt lat="44.34737672097981" lon="9.288315726444125">
        <ele>507.49000000000001</ele>
        <time>2020-02-28T11:22:36Z</time>
      </trkpt>
      <trkpt lat="44.347441429272294" lon="9.288261327892542">
        <ele>507.13999999999999</ele>
        <time>2020-02-28T11:22:42Z</time>
      </trkpt>
      <trkpt lat="44.347521727904677" lon="9.288135347887874">
        <ele>506.66000000000003</ele>
        <time>2020-02-28T11:22:52Z</time>
      </trkpt>
      <trkpt lat="44.347564727067947" lon="9.28806527517736">
        <ele>506.41000000000003</ele>
        <time>2020-02-28T11:22:57Z</time>
      </trkpt>
      <trkpt lat="44.347710572183132" lon="9.287872742861509">
        <ele>505.41000000000003</ele>
        <time>2020-02-28T11:23:16Z</time>
      </trkpt>
      <trkpt lat="44.347843090072274" lon="9.287724634632468">
        <ele>503.85000000000002</ele>
        <time>2020-02-28T11:23:34Z</time>
      </trkpt>
      <trkpt lat="44.347959011793137" lon="9.287597816437483">
        <ele>502.04000000000002</ele>
        <time>2020-02-28T11:23:50Z</time>
      </trkpt>
      <trkpt lat="44.347959263250232" lon="9.287453480064869">
        <ele>502.32999999999998</ele>
        <time>2020-02-28T11:24:11Z</time>
      </trkpt>
      <trkpt lat="44.347988348454237" lon="9.287339905276895">
        <ele>502.75999999999999</ele>
        <time>2020-02-28T11:24:26Z</time>
      </trkpt>
      <trkpt lat="44.347984911873937" lon="9.287334457039833">
        <ele>502.47000000000003</ele>
        <time>2020-02-28T11:24:53Z</time>
      </trkpt>
      <trkpt lat="44.347998993471265" lon="9.287332277745009">
        <ele>502.57999999999998</ele>
        <time>2020-02-28T11:25:16Z</time>
      </trkpt>
      <trkpt lat="44.347984157502651" lon="9.287324650213122">
        <ele>502.52999999999997</ele>
        <time>2020-02-28T11:25:45Z</time>
      </trkpt>
      <trkpt lat="44.34806470759213" lon="9.2872947268188">
        <ele>502.55000000000001</ele>
        <time>2020-02-28T11:26:03Z</time>
      </trkpt>
      <trkpt lat="44.348107958212495" lon="9.287222307175398">
        <ele>502.57999999999998</ele>
        <time>2020-02-28T11:26:24Z</time>
      </trkpt>
      <trkpt lat="44.348058756440878" lon="9.287233455106616">
        <ele>502.55000000000001</ele>
        <time>2020-02-28T11:26:56Z</time>
      </trkpt>
      <trkpt lat="44.348037717863917" lon="9.287234880030155">
        <ele>500.99000000000001</ele>
        <time>2020-02-28T11:27:14Z</time>
      </trkpt>
      <trkpt lat="44.348040651530027" lon="9.287228845059872">
        <ele>500.51999999999998</ele>
        <time>2020-02-28T11:28:28Z</time>
      </trkpt>
      <trkpt lat="44.348035203292966" lon="9.287208812311292">
        <ele>500.11000000000001</ele>
        <time>2020-02-28T11:29:06Z</time>
      </trkpt>
      <trkpt lat="44.34798457659781" lon="9.287195904180408">
        <ele>499.83999999999997</ele>
        <time>2020-02-28T11:29:21Z</time>
      </trkpt>
      <trkpt lat="44.347989857196808" lon="9.287200178951025">
        <ele>499.29000000000002</ele>
        <time>2020-02-28T11:29:38Z</time>
      </trkpt>
      <trkpt lat="44.348025983199477" lon="9.287197245284915">
        <ele>499.01999999999998</ele>
        <time>2020-02-28T11:30:22Z</time>
      </trkpt>
      <trkpt lat="44.348011147230864" lon="9.287194898352027">
        <ele>498.92000000000002</ele>
        <time>2020-02-28T11:31:32Z</time>
      </trkpt>
      <trkpt lat="44.34799924492836" lon="9.287198251113296">
        <ele>498.50999999999999</ele>
        <time>2020-02-28T11:33:09Z</time>
      </trkpt>
      <trkpt lat="44.348011063411832" lon="9.287217780947685">
        <ele>498.83999999999997</ele>
        <time>2020-02-28T11:35:05Z</time>
      </trkpt>
      <trkpt lat="44.348005782812834" lon="9.287205543369055">
        <ele>498.81999999999999</ele>
        <time>2020-02-28T11:37:09Z</time>
      </trkpt>
      <trkpt lat="44.348015505820513" lon="9.287214763462544">
        <ele>498.80000000000001</ele>
        <time>2020-02-28T11:38:40Z</time>
      </trkpt>
      <trkpt lat="44.348012404516339" lon="9.287203866988421">
        <ele>498.70999999999998</ele>
        <time>2020-02-28T11:40:04Z</time>
      </trkpt>
      <trkpt lat="44.348007710650563" lon="9.287198837846518">
        <ele>500.13999999999999</ele>
        <time>2020-02-28T11:42:09Z</time>
      </trkpt>
      <trkpt lat="44.348003352060914" lon="9.287206884473562">
        <ele>500.74000000000001</ele>
        <time>2020-02-28T11:43:11Z</time>
      </trkpt>
      <trkpt lat="44.34801148250699" lon="9.287211997434497">
        <ele>501.11000000000001</ele>
        <time>2020-02-28T11:44:30Z</time>
      </trkpt>
      <trkpt lat="44.348022295162082" lon="9.287211494520307">
        <ele>501.42000000000002</ele>
        <time>2020-02-28T11:45:42Z</time>
      </trkpt>
      <trkpt lat="44.34799287468195" lon="9.28720529191196">
        <ele>501.44999999999999</ele>
        <time>2020-02-28T11:46:40Z</time>
      </trkpt>
      <trkpt lat="44.348000837489963" lon="9.287204705178738">
        <ele>501.86000000000001</ele>
        <time>2020-02-28T11:47:13Z</time>
      </trkpt>
      <trkpt lat="44.347987091168761" lon="9.287219708785415">
        <ele>501.44999999999999</ele>
        <time>2020-02-28T11:47:46Z</time>
      </trkpt>
      <trkpt lat="44.347982984036207" lon="9.287215434014797">
        <ele>502.20999999999998</ele>
        <time>2020-02-28T11:48:35Z</time>
      </trkpt>
      <trkpt lat="44.348003100603819" lon="9.287209482863545">
        <ele>502.27999999999997</ele>
        <time>2020-02-28T11:49:07Z</time>
      </trkpt>
      <trkpt lat="44.347998490557075" lon="9.287171345204115">
        <ele>502.69999999999999</ele>
        <time>2020-02-28T11:49:36Z</time>
      </trkpt>
      <trkpt lat="44.34805397875607" lon="9.28717696107924">
        <ele>502.93000000000001</ele>
        <time>2020-02-28T11:50:06Z</time>
      </trkpt>
      <trkpt lat="44.348018355667591" lon="9.287209566682577">
        <ele>502.56</ele>
        <time>2020-02-28T11:50:32Z</time>
      </trkpt>
      <trkpt lat="44.347979798913002" lon="9.287196323275566">
        <ele>502.57999999999998</ele>
        <time>2020-02-28T11:51:19Z</time>
      </trkpt>
      <trkpt lat="44.347980134189129" lon="9.28720235824585">
        <ele>502.85000000000002</ele>
        <time>2020-02-28T11:52:15Z</time>
      </trkpt>
      <trkpt lat="44.347967645153403" lon="9.287218954414129">
        <ele>502.38999999999999</ele>
        <time>2020-02-28T11:53:28Z</time>
      </trkpt>
      <trkpt lat="44.347981391474605" lon="9.287216691300273">
        <ele>502.82999999999998</ele>
        <time>2020-02-28T11:54:35Z</time>
      </trkpt>
      <trkpt lat="44.347987342625856" lon="9.287239238619804">
        <ele>502.48000000000002</ele>
        <time>2020-02-28T11:55:49Z</time>
      </trkpt>
      <trkpt lat="44.347966220229864" lon="9.287223145365715">
        <ele>502.73000000000002</ele>
        <time>2020-02-28T11:56:50Z</time>
      </trkpt>
      <trkpt lat="44.34799144975841" lon="9.287219876423478">
        <ele>502.69999999999999</ele>
        <time>2020-02-28T11:57:59Z</time>
      </trkpt>
      <trkpt lat="44.348004190251231" lon="9.287236304953694">
        <ele>503.31</ele>
        <time>2020-02-28T11:59:04Z</time>
      </trkpt>
      <trkpt lat="44.348014751449227" lon="9.287250805646181">
        <ele>504.35000000000002</ele>
        <time>2020-02-28T11:59:28Z</time>
      </trkpt>
      <trkpt lat="44.348031934350729" lon="9.28722239099443">
        <ele>503.82999999999998</ele>
        <time>2020-02-28T11:59:52Z</time>
      </trkpt>
      <trkpt lat="44.348024893552065" lon="9.287220127880573">
        <ele>503.69999999999999</ele>
        <time>2020-02-28T12:00:17Z</time>
      </trkpt>
      <trkpt lat="44.348031263798475" lon="9.287200681865215">
        <ele>503.19</ele>
        <time>2020-02-28T12:00:43Z</time>
      </trkpt>
      <trkpt lat="44.348020115867257" lon="9.287205040454865">
        <ele>503.05000000000001</ele>
        <time>2020-02-28T12:01:16Z</time>
      </trkpt>
      <trkpt lat="44.348037298768759" lon="9.28723513148725">
        <ele>503.49000000000001</ele>
        <time>2020-02-28T12:01:44Z</time>
      </trkpt>
      <trkpt lat="44.348026821389794" lon="9.287247201427817">
        <ele>502.88999999999999</ele>
        <time>2020-02-28T12:02:33Z</time>
      </trkpt>
      <trkpt lat="44.34802170842886" lon="9.287265473976731">
        <ele>502.75999999999999</ele>
        <time>2020-02-28T12:03:11Z</time>
      </trkpt>
      <trkpt lat="44.348020032048225" lon="9.287247620522976">
        <ele>502.88</ele>
        <time>2020-02-28T12:03:43Z</time>
      </trkpt>
      <trkpt lat="44.348026402294636" lon="9.287260780110955">
        <ele>502.92000000000002</ele>
        <time>2020-02-28T12:04:24Z</time>
      </trkpt>
      <trkpt lat="44.348032521083951" lon="9.287264719605446">
        <ele>503.00999999999999</ele>
        <time>2020-02-28T12:05:00Z</time>
      </trkpt>
      <trkpt lat="44.348032772541046" lon="9.28725952282548">
        <ele>502.91000000000003</ele>
        <time>2020-02-28T12:05:43Z</time>
      </trkpt>
      <trkpt lat="44.348035454750061" lon="9.287244686856866">
        <ele>503.08999999999997</ele>
        <time>2020-02-28T12:06:34Z</time>
      </trkpt>
      <trkpt lat="44.348052637651563" lon="9.287246614694595">
        <ele>503.33999999999997</ele>
        <time>2020-02-28T12:07:22Z</time>
      </trkpt>
      <trkpt lat="44.348049284890294" lon="9.287234460934997">
        <ele>503.64999999999998</ele>
        <time>2020-02-28T12:07:54Z</time>
      </trkpt>
      <trkpt lat="44.348036544397473" lon="9.287253404036164">
        <ele>503.62</ele>
        <time>2020-02-28T12:08:24Z</time>
      </trkpt>
      <trkpt lat="44.348037717863917" lon="9.287250805646181">
        <ele>503.14999999999998</ele>
        <time>2020-02-28T12:08:56Z</time>
      </trkpt>
      <trkpt lat="44.348046183586121" lon="9.2872463632375">
        <ele>502.92000000000002</ele>
        <time>2020-02-28T12:09:28Z</time>
      </trkpt>
      <trkpt lat="44.348044339567423" lon="9.287248039618135">
        <ele>503.13999999999999</ele>
        <time>2020-02-28T12:10:01Z</time>
      </trkpt>
      <trkpt lat="44.348058504983783" lon="9.287250051274896">
        <ele>502.69999999999999</ele>
        <time>2020-02-28T12:10:30Z</time>
      </trkpt>
      <trkpt lat="44.348054146394134" lon="9.287247704342008">
        <ele>502.69999999999999</ele>
        <time>2020-02-28T12:10:52Z</time>
      </trkpt>
      <trkpt lat="44.348046267405152" lon="9.287236975505948">
        <ele>502.69999999999999</ele>
        <time>2020-02-28T12:11:27Z</time>
      </trkpt>
      <trkpt lat="44.348053727298975" lon="9.287225576117635">
        <ele>502.44</ele>
        <time>2020-02-28T12:11:54Z</time>
      </trkpt>
      <trkpt lat="44.348055487498641" lon="9.287202022969723">
        <ele>502.98000000000002</ele>
        <time>2020-02-28T12:12:38Z</time>
      </trkpt>
      <trkpt lat="44.348039394244552" lon="9.287206046283245">
        <ele>502.94</ele>
        <time>2020-02-28T12:13:16Z</time>
      </trkpt>
      <trkpt lat="44.34806864708662" lon="9.287212248891592">
        <ele>503.29000000000002</ele>
        <time>2020-02-28T12:13:53Z</time>
      </trkpt>
      <trkpt lat="44.348135953769088" lon="9.287184588611126">
        <ele>503.62</ele>
        <time>2020-02-28T12:14:03Z</time>
      </trkpt>
      <trkpt lat="44.348254976794124" lon="9.28711200132966">
        <ele>502.00999999999999</ele>
        <time>2020-02-28T12:14:20Z</time>
      </trkpt>
      <trkpt lat="44.348279787227511" lon="9.28709976375103">
        <ele>500.14999999999998</ele>
        <time>2020-02-28T12:14:37Z</time>
      </trkpt>
      <trkpt lat="44.348374167457223" lon="9.287038575857878">
        <ele>499.51999999999998</ele>
        <time>2020-02-28T12:15:00Z</time>
      </trkpt>
      <trkpt lat="44.34849469922483" lon="9.286964647471905">
        <ele>497.74000000000001</ele>
        <time>2020-02-28T12:15:17Z</time>
      </trkpt>
      <trkpt lat="44.348653284832835" lon="9.286872362717986">
        <ele>495.56999999999999</ele>
        <time>2020-02-28T12:15:37Z</time>
      </trkpt>
      <trkpt lat="44.348830562084913" lon="9.286858532577753">
        <ele>493.73000000000002</ele>
        <time>2020-02-28T12:15:56Z</time>
      </trkpt>
      <trkpt lat="44.34902879409492" lon="9.286836739629507">
        <ele>491.44</ele>
        <time>2020-02-28T12:16:12Z</time>
      </trkpt>
      <trkpt lat="44.349231049418449" lon="9.286768510937691">
        <ele>488.19999999999999</ele>
        <time>2020-02-28T12:16:33Z</time>
      </trkpt>
      <trkpt lat="44.349408829584718" lon="9.28675526753068">
        <ele>485.13999999999999</ele>
        <time>2020-02-28T12:16:49Z</time>
      </trkpt>
      <trkpt lat="44.349547801539302" lon="9.286724170669913">
        <ele>482.06999999999999</ele>
        <time>2020-02-28T12:17:05Z</time>
      </trkpt>
      <trkpt lat="44.349694903939962" lon="9.286655858159065">
        <ele>479.63999999999999</ele>
        <time>2020-02-28T12:17:23Z</time>
      </trkpt>
      <trkpt lat="44.349828511476517" lon="9.286657450720668">
        <ele>476.63</ele>
        <time>2020-02-28T12:17:37Z</time>
      </trkpt>
      <trkpt lat="44.349982151761651" lon="9.286603052169085">
        <ele>473.48000000000002</ele>
        <time>2020-02-28T12:17:52Z</time>
      </trkpt>
      <trkpt lat="44.350149538367987" lon="9.286512276157737">
        <ele>470.64999999999998</ele>
        <time>2020-02-28T12:18:13Z</time>
      </trkpt>
      <trkpt lat="44.350291946902871" lon="9.28644941188395">
        <ele>469.94999999999999</ele>
        <time>2020-02-28T12:18:28Z</time>
      </trkpt>
      <trkpt lat="44.350479198619723" lon="9.286365509033203">
        <ele>470.30000000000001</ele>
        <time>2020-02-28T12:18:47Z</time>
      </trkpt>
      <trkpt lat="44.350648177787662" lon="9.286307338625193">
        <ele>472.01999999999998</ele>
        <time>2020-02-28T12:19:06Z</time>
      </trkpt>
      <trkpt lat="44.350809613242745" lon="9.286234164610505">
        <ele>472.31</ele>
        <time>2020-02-28T12:19:20Z</time>
      </trkpt>
      <trkpt lat="44.350954201072454" lon="9.286160068586469">
        <ele>472.19</ele>
        <time>2020-02-28T12:19:37Z</time>
      </trkpt>
      <trkpt lat="44.351089233532548" lon="9.286104999482632">
        <ele>473.07999999999998</ele>
        <time>2020-02-28T12:19:57Z</time>
      </trkpt>
      <trkpt lat="44.351182272657752" lon="9.286125702783465">
        <ele>476.19</ele>
        <time>2020-02-28T12:20:16Z</time>
      </trkpt>
      <trkpt lat="44.351240862160921" lon="9.286140874028206">
        <ele>479.30000000000001</ele>
        <time>2020-02-28T12:20:32Z</time>
      </trkpt>
      <trkpt lat="44.35123055242002" lon="9.286181526258588">
        <ele>480.31</ele>
        <time>2020-02-28T12:21:04Z</time>
      </trkpt>
      <trkpt lat="44.35129358433187" lon="9.286145316436887">
        <ele>480.44</ele>
        <time>2020-02-28T12:21:25Z</time>
      </trkpt>
      <trkpt lat="44.351371703669429" lon="9.286121679469943">
        <ele>483.5</ele>
        <time>2020-02-28T12:21:42Z</time>
      </trkpt>
      <trkpt lat="44.35144454240799" lon="9.286148753017187">
        <ele>486.55000000000001</ele>
        <time>2020-02-28T12:21:59Z</time>
      </trkpt>
      <trkpt lat="44.351542526856065" lon="9.286113968119025">
        <ele>489.57999999999998</ele>
        <time>2020-02-28T12:22:14Z</time>
      </trkpt>
      <trkpt lat="44.351609665900469" lon="9.286091169342399">
        <ele>492.69999999999999</ele>
        <time>2020-02-28T12:22:32Z</time>
      </trkpt>
      <trkpt lat="44.351694658398628" lon="9.286062754690647">
        <ele>495.75</ele>
        <time>2020-02-28T12:22:50Z</time>
      </trkpt>
      <trkpt lat="44.351790966466069" lon="9.285954209044576">
        <ele>498.80000000000001</ele>
        <time>2020-02-28T12:23:12Z</time>
      </trkpt>
      <trkpt lat="44.351864559575915" lon="9.285912550985813">
        <ele>501.86000000000001</ele>
        <time>2020-02-28T12:23:30Z</time>
      </trkpt>
      <trkpt lat="44.351980565115809" lon="9.285740470513701">
        <ele>504.94999999999999</ele>
        <time>2020-02-28T12:23:54Z</time>
      </trkpt>
      <trkpt lat="44.352055415511131" lon="9.285598816350102">
        <ele>506.69999999999999</ele>
        <time>2020-02-28T12:24:13Z</time>
      </trkpt>
      <trkpt lat="44.352139485999942" lon="9.285403434187174">
        <ele>508.77999999999997</ele>
        <time>2020-02-28T12:24:35Z</time>
      </trkpt>
      <trkpt lat="44.352235961705446" lon="9.285211488604546">
        <ele>511.37</ele>
        <time>2020-02-28T12:24:59Z</time>
      </trkpt>
      <trkpt lat="44.352298825979233" lon="9.285084335133433">
        <ele>514.19000000000005</ele>
        <time>2020-02-28T12:25:21Z</time>
      </trkpt>
      <trkpt lat="44.352433942258358" lon="9.285002946853638">
        <ele>516.88999999999999</ele>
        <time>2020-02-28T12:25:41Z</time>
      </trkpt>
      <trkpt lat="44.352519940584898" lon="9.284927928820252">
        <ele>519.54999999999995</ele>
        <time>2020-02-28T12:26:01Z</time>
      </trkpt>
      <trkpt lat="44.352572662755847" lon="9.284847211092711">
        <ele>521.73000000000002</ele>
        <time>2020-02-28T12:26:19Z</time>
      </trkpt>
      <trkpt lat="44.352632593363523" lon="9.284742353484035">
        <ele>524.73000000000002</ele>
        <time>2020-02-28T12:26:41Z</time>
      </trkpt>
      <trkpt lat="44.3527218606323" lon="9.28465367294848">
        <ele>527.80999999999995</ele>
        <time>2020-02-28T12:27:00Z</time>
      </trkpt>
      <trkpt lat="44.352772487327456" lon="9.284580163657665">
        <ele>530.80999999999995</ele>
        <time>2020-02-28T12:27:23Z</time>
      </trkpt>
      <trkpt lat="44.352818336337805" lon="9.284525513648987">
        <ele>533.01999999999998</ele>
        <time>2020-02-28T12:27:37Z</time>
      </trkpt>
      <trkpt lat="44.352887822315097" lon="9.284523837268353">
        <ele>536.25999999999999</ele>
        <time>2020-02-28T12:27:55Z</time>
      </trkpt>
      <trkpt lat="44.352927803993225" lon="9.284461392089725">
        <ele>538.59000000000003</ele>
        <time>2020-02-28T12:28:14Z</time>
      </trkpt>
      <trkpt lat="44.352944316342473" lon="9.284366425126791">
        <ele>541.74000000000001</ele>
        <time>2020-02-28T12:28:34Z</time>
      </trkpt>
      <trkpt lat="44.352979017421603" lon="9.284279588609934">
        <ele>544.59000000000003</ele>
        <time>2020-02-28T12:28:57Z</time>
      </trkpt>
      <trkpt lat="44.353013299405575" lon="9.284201636910439">
        <ele>547.59000000000003</ele>
        <time>2020-02-28T12:29:20Z</time>
      </trkpt>
      <trkpt lat="44.353097705170512" lon="9.284168696030974">
        <ele>550.49000000000001</ele>
        <time>2020-02-28T12:29:40Z</time>
      </trkpt>
      <trkpt lat="44.353176075965166" lon="9.284070879220963">
        <ele>552.78999999999996</ele>
        <time>2020-02-28T12:29:58Z</time>
      </trkpt>
      <trkpt lat="44.353271210566163" lon="9.283954203128815">
        <ele>555.47000000000003</ele>
        <time>2020-02-28T12:30:19Z</time>
      </trkpt>
      <trkpt lat="44.353336505591869" lon="9.283896954730153">
        <ele>557.58000000000004</ele>
        <time>2020-02-28T12:30:38Z</time>
      </trkpt>
      <trkpt lat="44.353437339887023" lon="9.283804167062044">
        <ele>560.21000000000004</ele>
        <time>2020-02-28T12:30:58Z</time>
      </trkpt>
      <trkpt lat="44.353505317121744" lon="9.283759742975235">
        <ele>560.39999999999998</ele>
        <time>2020-02-28T12:31:19Z</time>
      </trkpt>
      <trkpt lat="44.353596679866314" lon="9.283659160137177">
        <ele>560.89999999999998</ele>
        <time>2020-02-28T12:31:37Z</time>
      </trkpt>
      <trkpt lat="44.353733388707042" lon="9.283538879826665">
        <ele>561.16999999999996</ele>
        <time>2020-02-28T12:31:57Z</time>
      </trkpt>
      <trkpt lat="44.353852830827236" lon="9.283457072451711">
        <ele>560.75999999999999</ele>
        <time>2020-02-28T12:32:16Z</time>
      </trkpt>
      <trkpt lat="44.354010913521051" lon="9.283453468233347">
        <ele>560.13999999999999</ele>
        <time>2020-02-28T12:32:35Z</time>
      </trkpt>
      <trkpt lat="44.354116525501013" lon="9.283400913700461">
        <ele>560.24000000000001</ele>
        <time>2020-02-28T12:32:54Z</time>
      </trkpt>
      <trkpt lat="44.354279469698668" lon="9.283334445208311">
        <ele>559.24000000000001</ele>
        <time>2020-02-28T12:33:14Z</time>
      </trkpt>
      <trkpt lat="44.354444425553083" lon="9.283266216516495">
        <ele>557.97000000000003</ele>
        <time>2020-02-28T12:33:33Z</time>
      </trkpt>
      <trkpt lat="44.354560095816851" lon="9.283189186826348">
        <ele>555.57000000000005</ele>
        <time>2020-02-28T12:33:52Z</time>
      </trkpt>
      <trkpt lat="44.354697139933705" lon="9.283168483525515">
        <ele>552.46000000000004</ele>
        <time>2020-02-28T12:34:11Z</time>
      </trkpt>
      <trkpt lat="44.354794705286622" lon="9.283144762739539">
        <ele>549.67999999999995</ele>
        <time>2020-02-28T12:34:29Z</time>
      </trkpt>
      <trkpt lat="44.354911968111992" lon="9.283082485198975">
        <ele>546.67999999999995</ele>
        <time>2020-02-28T12:34:48Z</time>
      </trkpt>
      <trkpt lat="44.355026884004474" lon="9.283054741099477">
        <ele>544.24000000000001</ele>
        <time>2020-02-28T12:35:05Z</time>
      </trkpt>
      <trkpt lat="44.355142218992114" lon="9.282996822148562">
        <ele>543.71000000000004</ele>
        <time>2020-02-28T12:35:23Z</time>
      </trkpt>
      <trkpt lat="44.355279430747032" lon="9.282927336171269">
        <ele>543.95000000000005</ele>
        <time>2020-02-28T12:35:42Z</time>
      </trkpt>
      <trkpt lat="44.355421923100948" lon="9.282869752496481">
        <ele>543.25</ele>
        <time>2020-02-28T12:36:03Z</time>
      </trkpt>
      <trkpt lat="44.355579251423478" lon="9.282823065295816">
        <ele>542.54999999999995</ele>
        <time>2020-02-28T12:36:21Z</time>
      </trkpt>
      <trkpt lat="44.35568930581212" lon="9.282816108316183">
        <ele>543.01999999999998</ele>
        <time>2020-02-28T12:36:40Z</time>
      </trkpt>
      <trkpt lat="44.355778908357024" lon="9.282766152173281">
        <ele>541.69000000000005</ele>
        <time>2020-02-28T12:37:00Z</time>
      </trkpt>
      <trkpt lat="44.355927770957351" lon="9.282652996480465">
        <ele>539.26999999999998</ele>
        <time>2020-02-28T12:37:17Z</time>
      </trkpt>
      <trkpt lat="44.356034137308598" lon="9.282546462491155">
        <ele>538.97000000000003</ele>
        <time>2020-02-28T12:37:36Z</time>
      </trkpt>
      <trkpt lat="44.356149220839143" lon="9.282466163858771">
        <ele>536.90999999999997</ele>
        <time>2020-02-28T12:37:54Z</time>
      </trkpt>
      <trkpt lat="44.356242762878537" lon="9.282494075596333">
        <ele>534.83000000000004</ele>
        <time>2020-02-28T12:38:14Z</time>
      </trkpt>
      <trkpt lat="44.35633035376668" lon="9.282598430290818">
        <ele>533.03999999999996</ele>
        <time>2020-02-28T12:38:35Z</time>
      </trkpt>
      <trkpt lat="44.356403443962336" lon="9.282621396705508">
        <ele>530.72000000000003</ele>
        <time>2020-02-28T12:38:56Z</time>
      </trkpt>
      <trkpt lat="44.356531351804733" lon="9.282622402533889">
        <ele>528.70000000000005</ele>
        <time>2020-02-28T12:39:15Z</time>
      </trkpt>
      <trkpt lat="44.356647608801723" lon="9.282634891569614">
        <ele>527.85000000000002</ele>
        <time>2020-02-28T12:39:33Z</time>
      </trkpt>
      <trkpt lat="44.356745174154639" lon="9.282637322321534">
        <ele>525.54999999999995</ele>
        <time>2020-02-28T12:39:50Z</time>
      </trkpt>
      <trkpt lat="44.356896467506886" lon="9.282578900456429">
        <ele>523.77999999999997</ele>
        <time>2020-02-28T12:40:11Z</time>
      </trkpt>
      <trkpt lat="44.357082042843103" lon="9.28246415220201">
        <ele>521.99000000000001</ele>
        <time>2020-02-28T12:40:32Z</time>
      </trkpt>
      <trkpt lat="44.357257224619389" lon="9.282378572970629">
        <ele>522.30999999999995</ele>
        <time>2020-02-28T12:40:53Z</time>
      </trkpt>
      <trkpt lat="44.35744347050786" lon="9.282296430319548">
        <ele>523.51999999999998</ele>
        <time>2020-02-28T12:41:15Z</time>
      </trkpt>
      <trkpt lat="44.357587639242411" lon="9.282177239656448">
        <ele>525.14999999999998</ele>
        <time>2020-02-28T12:41:36Z</time>
      </trkpt>
      <trkpt lat="44.357715044170618" lon="9.28207372315228">
        <ele>526.15999999999997</ele>
        <time>2020-02-28T12:41:55Z</time>
      </trkpt>
      <trkpt lat="44.357843119651079" lon="9.281976241618395">
        <ele>527.96000000000004</ele>
        <time>2020-02-28T12:42:13Z</time>
      </trkpt>
      <trkpt lat="44.357922663912177" lon="9.281851183623076">
        <ele>530.15999999999997</ele>
        <time>2020-02-28T12:42:35Z</time>
      </trkpt>
      <trkpt lat="44.357999777421355" lon="9.281727885827422">
        <ele>532.47000000000003</ele>
        <time>2020-02-28T12:42:55Z</time>
      </trkpt>
      <trkpt lat="44.358022240921855" lon="9.281693352386355">
        <ele>532.99000000000001</ele>
        <time>2020-02-28T12:43:00Z</time>
      </trkpt>
      <trkpt lat="44.358135061338544" lon="9.28160316310823">
        <ele>534.87</ele>
        <time>2020-02-28T12:43:20Z</time>
      </trkpt>
      <trkpt lat="44.358181664720178" lon="9.28147709928453">
        <ele>536.67999999999995</ele>
        <time>2020-02-28T12:43:39Z</time>
      </trkpt>
      <trkpt lat="44.358199518173933" lon="9.281442817300558">
        <ele>537.29999999999995</ele>
        <time>2020-02-28T12:43:44Z</time>
      </trkpt>
      <trkpt lat="44.35827805660665" lon="9.28127383813262">
        <ele>539.54999999999995</ele>
        <time>2020-02-28T12:44:04Z</time>
      </trkpt>
      <trkpt lat="44.358302783221006" lon="9.28123377263546">
        <ele>540.45000000000005</ele>
        <time>2020-02-28T12:44:13Z</time>
      </trkpt>
      <trkpt lat="44.358378974720836" lon="9.28106127306819">
        <ele>542.38</ele>
        <time>2020-02-28T12:44:35Z</time>
      </trkpt>
      <trkpt lat="44.358470169827342" lon="9.280877625569701">
        <ele>544.62</ele>
        <time>2020-02-28T12:44:59Z</time>
      </trkpt>
      <trkpt lat="44.358520712703466" lon="9.280757680535317">
        <ele>546.26999999999998</ele>
        <time>2020-02-28T12:45:15Z</time>
      </trkpt>
      <trkpt lat="44.358547534793615" lon="9.280540337786079">
        <ele>548.88</ele>
        <time>2020-02-28T12:45:37Z</time>
      </trkpt>
      <trkpt lat="44.358580643311143" lon="9.280388373881578">
        <ele>550.88999999999999</ele>
        <time>2020-02-28T12:45:59Z</time>
      </trkpt>
      <trkpt lat="44.358594054356217" lon="9.280221490189433">
        <ele>553.64999999999998</ele>
        <time>2020-02-28T12:46:22Z</time>
      </trkpt>
      <trkpt lat="44.358642334118485" lon="9.280003141611815">
        <ele>556.37</ele>
        <time>2020-02-28T12:46:46Z</time>
      </trkpt>
      <trkpt lat="44.358662534505129" lon="9.279835000634193">
        <ele>558.34000000000003</ele>
        <time>2020-02-28T12:47:06Z</time>
      </trkpt>
      <trkpt lat="44.358696229755878" lon="9.279640959575772">
        <ele>560.38</ele>
        <time>2020-02-28T12:47:27Z</time>
      </trkpt>
      <trkpt lat="44.358785497024655" lon="9.279454965144396">
        <ele>561.25999999999999</ele>
        <time>2020-02-28T12:47:49Z</time>
      </trkpt>
      <trkpt lat="44.358895970508456" lon="9.279312305152416">
        <ele>562.45000000000005</ele>
        <time>2020-02-28T12:48:10Z</time>
      </trkpt>
      <trkpt lat="44.358983309939504" lon="9.279215913265944">
        <ele>564.04999999999995</ele>
        <time>2020-02-28T12:48:28Z</time>
      </trkpt>
      <trkpt lat="44.359095124527812" lon="9.2790696490556">
        <ele>566.24000000000001</ele>
        <time>2020-02-28T12:48:47Z</time>
      </trkpt>
      <trkpt lat="44.359211549162865" lon="9.278912656009197">
        <ele>569.17999999999995</ele>
        <time>2020-02-28T12:49:11Z</time>
      </trkpt>
      <trkpt lat="44.359284304082394" lon="9.278818694874644">
        <ele>571.64999999999998</ele>
        <time>2020-02-28T12:49:30Z</time>
      </trkpt>
      <trkpt lat="44.359384886920452" lon="9.278709059581161">
        <ele>573.98000000000002</ele>
        <time>2020-02-28T12:49:50Z</time>
      </trkpt>
      <trkpt lat="44.359512459486723" lon="9.278591461479664">
        <ele>575.26999999999998</ele>
        <time>2020-02-28T12:50:10Z</time>
      </trkpt>
      <trkpt lat="44.359619077295065" lon="9.278431115671992">
        <ele>576.59000000000003</ele>
        <time>2020-02-28T12:50:31Z</time>
      </trkpt>
      <trkpt lat="44.359714714810252" lon="9.278253084048629">
        <ele>577.80999999999995</ele>
        <time>2020-02-28T12:50:50Z</time>
      </trkpt>
      <trkpt lat="44.359809765592217" lon="9.278091983869672">
        <ele>578.46000000000004</ele>
        <time>2020-02-28T12:51:09Z</time>
      </trkpt>
      <trkpt lat="44.35989492572844" lon="9.277946641668677">
        <ele>579.76999999999998</ele>
        <time>2020-02-28T12:51:28Z</time>
      </trkpt>
      <trkpt lat="44.360005985945463" lon="9.277737764641643">
        <ele>580.63999999999999</ele>
        <time>2020-02-28T12:51:50Z</time>
      </trkpt>
      <trkpt lat="44.360140515491366" lon="9.277536179870367">
        <ele>582.01999999999998</ele>
        <time>2020-02-28T12:52:12Z</time>
      </trkpt>
      <trkpt lat="44.360274961218238" lon="9.2773721460253">
        <ele>583.49000000000001</ele>
        <time>2020-02-28T12:52:33Z</time>
      </trkpt>
      <trkpt lat="44.360392307862639" lon="9.277122365310788">
        <ele>583.77999999999997</ele>
        <time>2020-02-28T12:52:56Z</time>
      </trkpt>
      <trkpt lat="44.360480736941099" lon="9.276948273181915">
        <ele>584.40999999999997</ele>
        <time>2020-02-28T12:53:16Z</time>
      </trkpt>
      <trkpt lat="44.360590036958456" lon="9.276754567399621">
        <ele>585.48000000000002</ele>
        <time>2020-02-28T12:53:36Z</time>
      </trkpt>
      <trkpt lat="44.360711155459285" lon="9.276550719514489">
        <ele>587.07000000000005</ele>
        <time>2020-02-28T12:53:58Z</time>
      </trkpt>
      <trkpt lat="44.360814755782485" lon="9.276349386200309">
        <ele>588.13999999999999</ele>
        <time>2020-02-28T12:54:16Z</time>
      </trkpt>
      <trkpt lat="44.360908214002848" lon="9.276102539151907">
        <ele>588.85000000000002</ele>
        <time>2020-02-28T12:54:36Z</time>
      </trkpt>
      <trkpt lat="44.361042324453592" lon="9.275815794244409">
        <ele>588.99000000000001</ele>
        <time>2020-02-28T12:54:57Z</time>
      </trkpt>
      <trkpt lat="44.361076606437564" lon="9.27568537183106">
        <ele>589.53999999999996</ele>
        <time>2020-02-28T12:55:07Z</time>
      </trkpt>
      <trkpt lat="44.361178614199162" lon="9.275459898635745">
        <ele>589.77999999999997</ele>
        <time>2020-02-28T12:55:24Z</time>
      </trkpt>
      <trkpt lat="44.361193617805839" lon="9.275226294994354">
        <ele>590.16999999999996</ele>
        <time>2020-02-28T12:55:43Z</time>
      </trkpt>
      <trkpt lat="44.361265450716019" lon="9.274927563965321">
        <ele>590.80999999999995</ele>
        <time>2020-02-28T12:56:04Z</time>
      </trkpt>
      <trkpt lat="44.361337535083294" lon="9.274667473509908">
        <ele>591.91999999999996</ele>
        <time>2020-02-28T12:56:26Z</time>
      </trkpt>
      <trkpt lat="44.361375672742724" lon="9.274474773555994">
        <ele>592.32000000000005</ele>
        <time>2020-02-28T12:56:39Z</time>
      </trkpt>
      <trkpt lat="44.361373074352741" lon="9.274445353075862">
        <ele>592.36000000000001</ele>
        <time>2020-02-28T12:56:41Z</time>
      </trkpt>
      <trkpt lat="44.361368715763092" lon="9.274398917332292">
        <ele>592.39999999999998</ele>
        <time>2020-02-28T12:56:44Z</time>
      </trkpt>
      <trkpt lat="44.361398471519351" lon="9.274176210165024">
        <ele>592.44000000000005</ele>
        <time>2020-02-28T12:57:01Z</time>
      </trkpt>
      <trkpt lat="44.361399058252573" lon="9.27391653880477">
        <ele>592.88999999999999</ele>
        <time>2020-02-28T12:57:18Z</time>
      </trkpt>
      <trkpt lat="44.361388413235545" lon="9.273676229640842">
        <ele>594.23000000000002</ele>
        <time>2020-02-28T12:57:37Z</time>
      </trkpt>
      <trkpt lat="44.361471980810165" lon="9.2734435480088">
        <ele>595.63</ele>
        <time>2020-02-28T12:57:59Z</time>
      </trkpt>
      <trkpt lat="44.361526211723685" lon="9.273286303505302">
        <ele>595.63999999999999</ele>
        <time>2020-02-28T12:58:10Z</time>
      </trkpt>
      <trkpt lat="44.361572647467256" lon="9.273131573572755">
        <ele>596.04999999999995</ele>
        <time>2020-02-28T12:58:21Z</time>
      </trkpt>
      <trkpt lat="44.361613802611828" lon="9.27308346144855">
        <ele>595.98000000000002</ele>
        <time>2020-02-28T12:58:46Z</time>
      </trkpt>
      <trkpt lat="44.361605672165751" lon="9.273059321567416">
        <ele>595.75</ele>
        <time>2020-02-28T12:59:08Z</time>
      </trkpt>
      <trkpt lat="44.361613132059574" lon="9.272998804226518">
        <ele>596.61000000000001</ele>
        <time>2020-02-28T12:59:30Z</time>
      </trkpt>
      <trkpt lat="44.3615997210145" lon="9.272862682119012">
        <ele>597.05999999999995</ele>
        <time>2020-02-28T12:59:45Z</time>
      </trkpt>
      <trkpt lat="44.361611288040876" lon="9.272577529773116">
        <ele>598.34000000000003</ele>
        <time>2020-02-28T13:00:09Z</time>
      </trkpt>
      <trkpt lat="44.361633500084281" lon="9.272399498149753">
        <ele>600.84000000000003</ele>
        <time>2020-02-28T13:00:31Z</time>
      </trkpt>
      <trkpt lat="44.361689575016499" lon="9.272152567282319">
        <ele>602.25</ele>
        <time>2020-02-28T13:00:51Z</time>
      </trkpt>
      <trkpt lat="44.361688401550055" lon="9.271994484588504">
        <ele>603.53999999999996</ele>
        <time>2020-02-28T13:01:10Z</time>
      </trkpt>
      <trkpt lat="44.361652191728354" lon="9.271845957264304">
        <ele>605.5</ele>
        <time>2020-02-28T13:01:27Z</time>
      </trkpt>
      <trkpt lat="44.361637691035867" lon="9.271718887612224">
        <ele>607.10000000000002</ele>
        <time>2020-02-28T13:01:45Z</time>
      </trkpt>
      <trkpt lat="44.361646324396133" lon="9.271527696400881">
        <ele>609.88999999999999</ele>
        <time>2020-02-28T13:02:07Z</time>
      </trkpt>
      <trkpt lat="44.361639702692628" lon="9.271401213482022">
        <ele>612.95000000000005</ele>
        <time>2020-02-28T13:02:26Z</time>
      </trkpt>
      <trkpt lat="44.361703237518668" lon="9.271393502131105">
        <ele>615.70000000000005</ele>
        <time>2020-02-28T13:02:45Z</time>
      </trkpt>
      <trkpt lat="44.361748499795794" lon="9.271306330338121">
        <ele>618.57000000000005</ele>
        <time>2020-02-28T13:03:03Z</time>
      </trkpt>
      <trkpt lat="44.361788481473923" lon="9.271213291212916">
        <ele>618.58000000000004</ele>
        <time>2020-02-28T13:03:11Z</time>
      </trkpt>
      <trkpt lat="44.361881520599127" lon="9.270977592095733">
        <ele>618.51999999999998</ele>
        <time>2020-02-28T13:03:32Z</time>
      </trkpt>
      <trkpt lat="44.361938768997788" lon="9.270786484703422">
        <ele>618.23000000000002</ele>
        <time>2020-02-28T13:03:52Z</time>
      </trkpt>
      <trkpt lat="44.361997358500957" lon="9.270548606291413">
        <ele>617.75999999999999</ele>
        <time>2020-02-28T13:04:11Z</time>
      </trkpt>
      <trkpt lat="44.362128619104624" lon="9.270300669595599">
        <ele>617.44000000000005</ele>
        <time>2020-02-28T13:04:30Z</time>
      </trkpt>
      <trkpt lat="44.362227777019143" lon="9.270189525559545">
        <ele>617.13</ele>
        <time>2020-02-28T13:04:45Z</time>
      </trkpt>
      <trkpt lat="44.36237228102982" lon="9.270072178915143">
        <ele>617.14999999999998</ele>
        <time>2020-02-28T13:05:01Z</time>
      </trkpt>
      <trkpt lat="44.362610997632146" lon="9.270010488107801">
        <ele>617.52999999999997</ele>
        <time>2020-02-28T13:05:24Z</time>
      </trkpt>
      <trkpt lat="44.36271820217371" lon="9.269827008247376">
        <ele>618.00999999999999</ele>
        <time>2020-02-28T13:05:44Z</time>
      </trkpt>
      <trkpt lat="44.362743515521288" lon="9.269729275256395">
        <ele>618.05999999999995</ele>
        <time>2020-02-28T13:05:53Z</time>
      </trkpt>
      <trkpt lat="44.36279590241611" lon="9.269544957205653">
        <ele>618.55999999999995</ele>
        <time>2020-02-28T13:06:14Z</time>
      </trkpt>
      <trkpt lat="44.362825071439147" lon="9.269491480663419">
        <ele>617.88999999999999</ele>
        <time>2020-02-28T13:06:34Z</time>
      </trkpt>
      <trkpt lat="44.362878715619445" lon="9.269476477056742">
        <ele>616.80999999999995</ele>
        <time>2020-02-28T13:06:49Z</time>
      </trkpt>
      <trkpt lat="44.362977370619774" lon="9.269378492608666">
        <ele>614.20000000000005</ele>
        <time>2020-02-28T13:07:05Z</time>
      </trkpt>
      <trkpt lat="44.363016095012426" lon="9.269282016903162">
        <ele>612.00999999999999</ele>
        <time>2020-02-28T13:07:14Z</time>
      </trkpt>
      <trkpt lat="44.363149451091886" lon="9.269171375781298">
        <ele>610.50999999999999</ele>
        <time>2020-02-28T13:07:30Z</time>
      </trkpt>
      <trkpt lat="44.363305103033781" lon="9.269033158197999">
        <ele>609.92999999999995</ele>
        <time>2020-02-28T13:07:52Z</time>
      </trkpt>
      <trkpt lat="44.363482715561986" lon="9.268983956426382">
        <ele>609.19000000000005</ele>
        <time>2020-02-28T13:08:14Z</time>
      </trkpt>
      <trkpt lat="44.363703075796366" lon="9.268949339166284">
        <ele>608.54999999999995</ele>
        <time>2020-02-28T13:08:36Z</time>
      </trkpt>
      <trkpt lat="44.363906839862466" lon="9.268871303647757">
        <ele>608.89999999999998</ele>
        <time>2020-02-28T13:08:57Z</time>
      </trkpt>
      <trkpt lat="44.364057714119554" lon="9.268836351111531">
        <ele>608.55999999999995</ele>
        <time>2020-02-28T13:09:16Z</time>
      </trkpt>
      <trkpt lat="44.364288887009025" lon="9.26879326812923">
        <ele>608.55999999999995</ele>
        <time>2020-02-28T13:09:38Z</time>
      </trkpt>
      <trkpt lat="44.364513773471117" lon="9.268759153783321">
        <ele>607.88999999999999</ele>
        <time>2020-02-28T13:10:00Z</time>
      </trkpt>
      <trkpt lat="44.364710161462426" lon="9.268710790202022">
        <ele>605.66999999999996</ele>
        <time>2020-02-28T13:10:24Z</time>
      </trkpt>
      <trkpt lat="44.364872016012669" lon="9.268659744411707">
        <ele>604.38999999999999</ele>
        <time>2020-02-28T13:10:45Z</time>
      </trkpt>
      <trkpt lat="44.364959606900811" lon="9.268594617024064">
        <ele>603.80999999999995</ele>
        <time>2020-02-28T13:10:58Z</time>
      </trkpt>
      <trkpt lat="44.36515306122601" lon="9.268448268994689">
        <ele>604.66999999999996</ele>
        <time>2020-02-28T13:11:21Z</time>
      </trkpt>
      <trkpt lat="44.36527082696557" lon="9.268345674499869">
        <ele>605.38</ele>
        <time>2020-02-28T13:11:38Z</time>
      </trkpt>
      <trkpt lat="44.365349030122161" lon="9.268209049478173">
        <ele>605.46000000000004</ele>
        <time>2020-02-28T13:12:10Z</time>
      </trkpt>
      <trkpt lat="44.365504682064056" lon="9.268058929592371">
        <ele>606.75</ele>
        <time>2020-02-28T13:12:34Z</time>
      </trkpt>
      <trkpt lat="44.365642983466387" lon="9.2679244838655">
        <ele>608.02999999999997</ele>
        <time>2020-02-28T13:12:57Z</time>
      </trkpt>
      <trkpt lat="44.365776339545846" lon="9.267787104472518">
        <ele>608.44000000000005</ele>
        <time>2020-02-28T13:13:15Z</time>
      </trkpt>
      <trkpt lat="44.365906259045005" lon="9.267696244642139">
        <ele>608.37</ele>
        <time>2020-02-28T13:13:32Z</time>
      </trkpt>
      <trkpt lat="44.366025282070041" lon="9.267584513872862">
        <ele>608.09000000000003</ele>
        <time>2020-02-28T13:13:51Z</time>
      </trkpt>
      <trkpt lat="44.366167774423957" lon="9.267544867470861">
        <ele>607.57000000000005</ele>
        <time>2020-02-28T13:14:12Z</time>
      </trkpt>
      <trkpt lat="44.366286378353834" lon="9.267463563010097">
        <ele>606.90999999999997</ele>
        <time>2020-02-28T13:14:28Z</time>
      </trkpt>
      <trkpt lat="44.366463404148817" lon="9.267260720953345">
        <ele>606.72000000000003</ele>
        <time>2020-02-28T13:14:49Z</time>
      </trkpt>
      <trkpt lat="44.366529621183872" lon="9.26710900850594">
        <ele>605.82000000000005</ele>
        <time>2020-02-28T13:15:06Z</time>
      </trkpt>
      <trkpt lat="44.366583852097392" lon="9.266953440383077">
        <ele>605.40999999999997</ele>
        <time>2020-02-28T13:15:20Z</time>
      </trkpt>
      <trkpt lat="44.366714861243963" lon="9.266723524779081">
        <ele>604.76999999999998</ele>
        <time>2020-02-28T13:15:43Z</time>
      </trkpt>
      <trkpt lat="44.366844026371837" lon="9.266467792913318">
        <ele>604.65999999999997</ele>
        <time>2020-02-28T13:16:02Z</time>
      </trkpt>
      <trkpt lat="44.366866573691368" lon="9.266441641375423">
        <ele>604.63999999999999</ele>
        <time>2020-02-28T13:16:05Z</time>
      </trkpt>
      <trkpt lat="44.367043431848288" lon="9.266314320266247">
        <ele>605.67999999999995</ele>
        <time>2020-02-28T13:16:23Z</time>
      </trkpt>
      <trkpt lat="44.367270162329078" lon="9.266289677470923">
        <ele>607.37</ele>
        <time>2020-02-28T13:16:45Z</time>
      </trkpt>
      <trkpt lat="44.367396896705031" lon="9.26641708239913">
        <ele>607.62</ele>
        <time>2020-02-28T13:17:04Z</time>
      </trkpt>
      <trkpt lat="44.367530336603522" lon="9.26652655005455">
        <ele>607.97000000000003</ele>
        <time>2020-02-28T13:17:26Z</time>
      </trkpt>
      <trkpt lat="44.367781458422542" lon="9.266408532857895">
        <ele>607.59000000000003</ele>
        <time>2020-02-28T13:17:45Z</time>
      </trkpt>
      <trkpt lat="44.367856560274959" lon="9.266385147348046">
        <ele>607.49000000000001</ele>
        <time>2020-02-28T13:17:49Z</time>
      </trkpt>
      <trkpt lat="44.367876006290317" lon="9.266353128477931">
        <ele>607.44000000000005</ele>
        <time>2020-02-28T13:17:51Z</time>
      </trkpt>
      <trkpt lat="44.367983713746071" lon="9.266208205372095">
        <ele>607.25</ele>
        <time>2020-02-28T13:18:05Z</time>
      </trkpt>
      <trkpt lat="44.368126960471272" lon="9.266078453511">
        <ele>607.50999999999999</ele>
        <time>2020-02-28T13:18:26Z</time>
      </trkpt>
      <trkpt lat="44.368277583271265" lon="9.266108125448227">
        <ele>607.64999999999998</ele>
        <time>2020-02-28T13:18:43Z</time>
      </trkpt>
      <trkpt lat="44.368473216891289" lon="9.26603352651">
        <ele>607.42999999999995</ele>
        <time>2020-02-28T13:19:04Z</time>
      </trkpt>
      <trkpt lat="44.368534572422504" lon="9.265931602567434">
        <ele>606.98000000000002</ele>
        <time>2020-02-28T13:19:22Z</time>
      </trkpt>
      <trkpt lat="44.368581930175424" lon="9.265804113820195">
        <ele>607.24000000000001</ele>
        <time>2020-02-28T13:19:53Z</time>
      </trkpt>
      <trkpt lat="44.368738085031509" lon="9.265652149915695">
        <ele>607.54999999999995</ele>
        <time>2020-02-28T13:20:13Z</time>
      </trkpt>
      <trkpt lat="44.368943441659212" lon="9.265504628419876">
        <ele>607.99000000000001</ele>
        <time>2020-02-28T13:20:33Z</time>
      </trkpt>
      <trkpt lat="44.369065063074231" lon="9.265313185751438">
        <ele>608.45000000000005</ele>
        <time>2020-02-28T13:20:51Z</time>
      </trkpt>
      <trkpt lat="44.369174363091588" lon="9.265130460262299">
        <ele>609.35000000000002</ele>
        <time>2020-02-28T13:21:07Z</time>
      </trkpt>
      <trkpt lat="44.369283663108945" lon="9.264921918511391">
        <ele>610.90999999999997</ele>
        <time>2020-02-28T13:21:24Z</time>
      </trkpt>
      <trkpt lat="44.36939287930727" lon="9.264690661802888">
        <ele>612.66999999999996</ele>
        <time>2020-02-28T13:21:45Z</time>
      </trkpt>
      <trkpt lat="44.369482230395079" lon="9.264404335990548">
        <ele>614.46000000000004</ele>
        <time>2020-02-28T13:22:08Z</time>
      </trkpt>
      <trkpt lat="44.369591111317277" lon="9.264228316023946">
        <ele>616.00999999999999</ele>
        <time>2020-02-28T13:22:27Z</time>
      </trkpt>
      <trkpt lat="44.369666464626789" lon="9.264045255258679">
        <ele>618.27999999999997</ele>
        <time>2020-02-28T13:22:43Z</time>
      </trkpt>
      <trkpt lat="44.369777943938971" lon="9.263742249459028">
        <ele>620.00999999999999</ele>
        <time>2020-02-28T13:23:08Z</time>
      </trkpt>
      <trkpt lat="44.369853129610419" lon="9.263596488162875">
        <ele>619.91999999999996</ele>
        <time>2020-02-28T13:23:18Z</time>
      </trkpt>
      <trkpt lat="44.369930913671851" lon="9.263275628909469">
        <ele>620.35000000000002</ele>
        <time>2020-02-28T13:23:41Z</time>
      </trkpt>
      <trkpt lat="44.369988078251481" lon="9.263080079108477">
        <ele>621.12</ele>
        <time>2020-02-28T13:23:58Z</time>
      </trkpt>
      <trkpt lat="44.37003007158637" lon="9.2628129478544">
        <ele>622.04999999999995</ele>
        <time>2020-02-28T13:24:17Z</time>
      </trkpt>
      <trkpt lat="44.370064605027437" lon="9.262596778571606">
        <ele>622.95000000000005</ele>
        <time>2020-02-28T13:24:34Z</time>
      </trkpt>
      <trkpt lat="44.37011799775064" lon="9.262325456365943">
        <ele>623.95000000000005</ele>
        <time>2020-02-28T13:24:56Z</time>
      </trkpt>
      <trkpt lat="44.37020055949688" lon="9.26209419965744">
        <ele>624.79999999999995</ele>
        <time>2020-02-28T13:25:16Z</time>
      </trkpt>
      <trkpt lat="44.370254790410399" lon="9.261877778917551">
        <ele>625.32000000000005</ele>
        <time>2020-02-28T13:25:36Z</time>
      </trkpt>
      <trkpt lat="44.370270296931267" lon="9.261738052591682">
        <ele>625.00999999999999</ele>
        <time>2020-02-28T13:25:50Z</time>
      </trkpt>
      <trkpt lat="44.370364174246788" lon="9.261479889973998">
        <ele>623.36000000000001</ele>
        <time>2020-02-28T13:26:10Z</time>
      </trkpt>
      <trkpt lat="44.370386051014066" lon="9.261177638545632">
        <ele>620.54999999999995</ele>
        <time>2020-02-28T13:26:32Z</time>
      </trkpt>
      <trkpt lat="44.370376411825418" lon="9.260922996327281">
        <ele>618.72000000000003</ele>
        <time>2020-02-28T13:26:48Z</time>
      </trkpt>
      <trkpt lat="44.370317235589027" lon="9.260770529508591">
        <ele>616.60000000000002</ele>
        <time>2020-02-28T13:27:04Z</time>
      </trkpt>
      <trkpt lat="44.370299885049462" lon="9.26073188893497">
        <ele>616.26999999999998</ele>
        <time>2020-02-28T13:27:35Z</time>
      </trkpt>
      <trkpt lat="44.370258478447795" lon="9.260564334690571">
        <ele>615.5</ele>
        <time>2020-02-28T13:27:59Z</time>
      </trkpt>
      <trkpt lat="44.370288234204054" lon="9.260495435446501">
        <ele>614.76999999999998</ele>
        <time>2020-02-28T13:28:24Z</time>
      </trkpt>
      <trkpt lat="44.370294352993369" lon="9.260412286967039">
        <ele>613.86000000000001</ele>
        <time>2020-02-28T13:28:45Z</time>
      </trkpt>
      <trkpt lat="44.370297370478511" lon="9.260296197608113">
        <ele>613.16999999999996</ele>
        <time>2020-02-28T13:28:56Z</time>
      </trkpt>
      <trkpt lat="44.370257137343287" lon="9.260138785466552">
        <ele>612.80999999999995</ele>
        <time>2020-02-28T13:29:10Z</time>
      </trkpt>
      <trkpt lat="44.370192512869835" lon="9.259946588426828">
        <ele>612.79999999999995</ele>
        <time>2020-02-28T13:29:27Z</time>
      </trkpt>
      <trkpt lat="44.370183041319251" lon="9.259922867640853">
        <ele>612.83000000000004</ele>
        <time>2020-02-28T13:29:29Z</time>
      </trkpt>
      <trkpt lat="44.370160913094878" lon="9.25985723733902">
        <ele>612.99000000000001</ele>
        <time>2020-02-28T13:29:34Z</time>
      </trkpt>
      <trkpt lat="44.370077010244131" lon="9.259709464386106">
        <ele>613.95000000000005</ele>
        <time>2020-02-28T13:29:48Z</time>
      </trkpt>
      <trkpt lat="44.370039291679859" lon="9.259653305634856">
        <ele>614.44000000000005</ele>
        <time>2020-02-28T13:30:01Z</time>
      </trkpt>
      <trkpt lat="44.369990089908242" lon="9.259625310078263">
        <ele>614.87</ele>
        <time>2020-02-28T13:30:09Z</time>
      </trkpt>
      <trkpt lat="44.369832510128617" lon="9.259488685056567">
        <ele>615.23000000000002</ele>
        <time>2020-02-28T13:30:29Z</time>
      </trkpt>
      <trkpt lat="44.369772998616099" lon="9.259400675073266">
        <ele>615.20000000000005</ele>
        <time>2020-02-28T13:30:39Z</time>
      </trkpt>
      <trkpt lat="44.369721617549658" lon="9.259343175217509">
        <ele>614.91999999999996</ele>
        <time>2020-02-28T13:30:45Z</time>
      </trkpt>
      <trkpt lat="44.369713822379708" lon="9.259269665926695">
        <ele>614.69000000000005</ele>
        <time>2020-02-28T13:30:49Z</time>
      </trkpt>
      <trkpt lat="44.369651628658175" lon="9.25907202064991">
        <ele>613.60000000000002</ele>
        <time>2020-02-28T13:31:08Z</time>
      </trkpt>
      <trkpt lat="44.369600666686893" lon="9.259006809443235">
        <ele>613.27999999999997</ele>
        <time>2020-02-28T13:31:31Z</time>
      </trkpt>
      <trkpt lat="44.369585160166025" lon="9.259039666503668">
        <ele>613.37</ele>
        <time>2020-02-28T13:31:53Z</time>
      </trkpt>
      <trkpt lat="44.369602678343654" lon="9.259027931839228">
        <ele>613.60000000000002</ele>
        <time>2020-02-28T13:32:24Z</time>
      </trkpt>
      <trkpt lat="44.369581220671535" lon="9.259063554927707">
        <ele>613.84000000000003</ele>
        <time>2020-02-28T13:32:50Z</time>
      </trkpt>
      <trkpt lat="44.369572754949331" lon="9.259033631533384">
        <ele>613.98000000000002</ele>
        <time>2020-02-28T13:33:20Z</time>
      </trkpt>
      <trkpt lat="44.369638720527291" lon="9.258983172476292">
        <ele>613.75999999999999</ele>
        <time>2020-02-28T13:33:39Z</time>
      </trkpt>
      <trkpt lat="44.369645845144987" lon="9.258991302922368">
        <ele>613.73000000000002</ele>
        <time>2020-02-28T13:33:41Z</time>
      </trkpt>
      <trkpt lat="44.36965623870492" lon="9.258981747552753">
        <ele>613.04999999999995</ele>
        <time>2020-02-28T13:34:01Z</time>
      </trkpt>
      <trkpt lat="44.369647018611431" lon="9.258952578529716">
        <ele>612.97000000000003</ele>
        <time>2020-02-28T13:34:27Z</time>
      </trkpt>
      <trkpt lat="44.369658417999744" lon="9.258942855522037">
        <ele>612.85000000000002</ele>
        <time>2020-02-28T13:34:47Z</time>
      </trkpt>
      <trkpt lat="44.369687000289559" lon="9.258925756439567">
        <ele>612.75</ele>
        <time>2020-02-28T13:35:17Z</time>
      </trkpt>
      <trkpt lat="44.369705943390727" lon="9.258947297930718">
        <ele>612.38</ele>
        <time>2020-02-28T13:35:45Z</time>
      </trkpt>
      <trkpt lat="44.369749696925282" lon="9.258973449468613">
        <ele>612.48000000000002</ele>
        <time>2020-02-28T13:36:14Z</time>
      </trkpt>
      <trkpt lat="44.369738884270191" lon="9.259008737280965">
        <ele>612.44000000000005</ele>
        <time>2020-02-28T13:36:47Z</time>
      </trkpt>
      <trkpt lat="44.369695968925953" lon="9.258980406448245">
        <ele>612.53999999999996</ele>
        <time>2020-02-28T13:37:20Z</time>
      </trkpt>
      <trkpt lat="44.369695214554667" lon="9.258972611278296">
        <ele>612.21000000000004</ele>
        <time>2020-02-28T13:37:54Z</time>
      </trkpt>
      <trkpt lat="44.369694124907255" lon="9.258968001231551">
        <ele>611.86000000000001</ele>
        <time>2020-02-28T13:38:30Z</time>
      </trkpt>
      <trkpt lat="44.369673086330295" lon="9.258919972926378">
        <ele>611.70000000000005</ele>
        <time>2020-02-28T13:39:07Z</time>
      </trkpt>
      <trkpt lat="44.36968750320375" lon="9.258924834430218">
        <ele>611.59000000000003</ele>
        <time>2020-02-28T13:39:40Z</time>
      </trkpt>
      <trkpt lat="44.369695549830794" lon="9.258941598236561">
        <ele>611.53999999999996</ele>
        <time>2020-02-28T13:40:15Z</time>
      </trkpt>
      <trkpt lat="44.369707033038139" lon="9.258974622935057">
        <ele>611.52999999999997</ele>
        <time>2020-02-28T13:40:49Z</time>
      </trkpt>
      <trkpt lat="44.369717258960009" lon="9.25900848582387">
        <ele>611.13</ele>
        <time>2020-02-28T13:41:35Z</time>
      </trkpt>
      <trkpt lat="44.369710050523281" lon="9.258990380913019">
        <ele>610.90999999999997</ele>
        <time>2020-02-28T13:42:27Z</time>
      </trkpt>
      <trkpt lat="44.369667721912265" lon="9.258947046473622">
        <ele>610.79999999999995</ele>
        <time>2020-02-28T13:43:12Z</time>
      </trkpt>
      <trkpt lat="44.369670990854502" lon="9.258959284052253">
        <ele>610.33000000000004</ele>
        <time>2020-02-28T13:43:47Z</time>
      </trkpt>
      <trkpt lat="44.369689514860511" lon="9.259013179689646">
        <ele>610.42999999999995</ele>
        <time>2020-02-28T13:44:23Z</time>
      </trkpt>
      <trkpt lat="44.369737291708589" lon="9.259034050628543">
        <ele>610.24000000000001</ele>
        <time>2020-02-28T13:44:58Z</time>
      </trkpt>
      <trkpt lat="44.369768891483545" lon="9.259057100862265">
        <ele>610.55999999999995</ele>
        <time>2020-02-28T13:45:51Z</time>
      </trkpt>
      <trkpt lat="44.369750283658504" lon="9.259028015658259">
        <ele>610.70000000000005</ele>
        <time>2020-02-28T13:47:50Z</time>
      </trkpt>
      <trkpt lat="44.36973343603313" lon="9.259038073942065">
        <ele>610.86000000000001</ele>
        <time>2020-02-28T13:49:23Z</time>
      </trkpt>
      <trkpt lat="44.369738800451159" lon="9.259038493037224">
        <ele>610.59000000000003</ele>
        <time>2020-02-28T13:50:36Z</time>
      </trkpt>
      <trkpt lat="44.369712481275201" lon="9.258963977918029">
        <ele>610.60000000000002</ele>
        <time>2020-02-28T13:51:09Z</time>
      </trkpt>
      <trkpt lat="44.36971147544682" lon="9.258961714804173">
        <ele>610.57000000000005</ele>
        <time>2020-02-28T13:51:10Z</time>
      </trkpt>
      <trkpt lat="44.369703847914934" lon="9.259003791958094">
        <ele>610.63</ele>
        <time>2020-02-28T13:51:39Z</time>
      </trkpt>
      <trkpt lat="44.369712732732296" lon="9.259028350934386">
        <ele>610.64999999999998</ele>
        <time>2020-02-28T13:52:30Z</time>
      </trkpt>
      <trkpt lat="44.369712397456169" lon="9.259006725624204">
        <ele>610.51999999999998</ele>
        <time>2020-02-28T13:53:54Z</time>
      </trkpt>
      <trkpt lat="44.369687838479877" lon="9.258959284052253">
        <ele>610.47000000000003</ele>
        <time>2020-02-28T13:54:39Z</time>
      </trkpt>
      <trkpt lat="44.369735866785049" lon="9.259021980687976">
        <ele>610.89999999999998</ele>
        <time>2020-02-28T13:56:11Z</time>
      </trkpt>
      <trkpt lat="44.369741147384048" lon="9.259038576856256">
        <ele>610.88999999999999</ele>
        <time>2020-02-28T13:56:53Z</time>
      </trkpt>
      <trkpt lat="44.369716672226787" lon="9.259026842191815">
        <ele>610.72000000000003</ele>
        <time>2020-02-28T13:57:31Z</time>
      </trkpt>
      <trkpt lat="44.369723042473197" lon="9.259008234366775">
        <ele>610.14999999999998</ele>
        <time>2020-02-28T13:58:54Z</time>
      </trkpt>
      <trkpt lat="44.369728406891227" lon="9.259000103920698">
        <ele>610.10000000000002</ele>
        <time>2020-02-28T14:00:15Z</time>
      </trkpt>
      <trkpt lat="44.369731759652495" lon="9.258987363427877">
        <ele>610.32000000000005</ele>
        <time>2020-02-28T14:00:48Z</time>
      </trkpt>
      <trkpt lat="44.369741315022111" lon="9.259005887433887">
        <ele>610.11000000000001</ele>
        <time>2020-02-28T14:01:21Z</time>
      </trkpt>
      <trkpt lat="44.369732681661844" lon="9.259035056456924">
        <ele>609.99000000000001</ele>
        <time>2020-02-28T14:01:55Z</time>
      </trkpt>
      <trkpt lat="44.369764281436801" lon="9.259030530229211">
        <ele>609.69000000000005</ele>
        <time>2020-02-28T14:02:33Z</time>
      </trkpt>
      <trkpt lat="44.369759587571025" lon="9.259034134447575">
        <ele>609.38999999999999</ele>
        <time>2020-02-28T14:03:16Z</time>
      </trkpt>
      <trkpt lat="44.369744583964348" lon="9.259049976244569">
        <ele>609.38</ele>
        <time>2020-02-28T14:03:42Z</time>
      </trkpt>
      <trkpt lat="44.369754139333963" lon="9.259050730615854">
        <ele>609.5</ele>
        <time>2020-02-28T14:04:06Z</time>
      </trkpt>
      <trkpt lat="44.369710218161345" lon="9.259004043415189">
        <ele>609.58000000000004</ele>
        <time>2020-02-28T14:04:27Z</time>
      </trkpt>
      <trkpt lat="44.36971390619874" lon="9.258981663733721">
        <ele>609.28999999999996</ele>
        <time>2020-02-28T14:04:52Z</time>
      </trkpt>
      <trkpt lat="44.369803508743644" lon="9.258874878287315">
        <ele>609.38999999999999</ele>
        <time>2020-02-28T14:05:11Z</time>
      </trkpt>
      <trkpt lat="44.369803173467517" lon="9.258873453363776">
        <ele>609.48000000000002</ele>
        <time>2020-02-28T14:05:27Z</time>
      </trkpt>
      <trkpt lat="44.369801497086883" lon="9.258881835266948">
        <ele>609</ele>
        <time>2020-02-28T14:05:54Z</time>
      </trkpt>
      <trkpt lat="44.369833096861839" lon="9.25886238925159">
        <ele>608.86000000000001</ele>
        <time>2020-02-28T14:06:15Z</time>
      </trkpt>
      <trkpt lat="44.369844412431121" lon="9.258869597688317">
        <ele>608.96000000000004</ele>
        <time>2020-02-28T14:06:38Z</time>
      </trkpt>
      <trkpt lat="44.369807448238134" lon="9.258899688720703">
        <ele>608.74000000000001</ele>
        <time>2020-02-28T14:07:02Z</time>
      </trkpt>
      <trkpt lat="44.369864026084542" lon="9.258862137794495">
        <ele>609.23000000000002</ele>
        <time>2020-02-28T14:07:21Z</time>
      </trkpt>
      <trkpt lat="44.369969638064504" lon="9.258714951574802">
        <ele>608.61000000000001</ele>
        <time>2020-02-28T14:07:39Z</time>
      </trkpt>
      <trkpt lat="44.370042728260159" lon="9.258628031238914">
        <ele>608.24000000000001</ele>
        <time>2020-02-28T14:08:02Z</time>
      </trkpt>
      <trkpt lat="44.370103999972343" lon="9.258523425087333">
        <ele>606.98000000000002</ele>
        <time>2020-02-28T14:08:21Z</time>
      </trkpt>
      <trkpt lat="44.370182454586029" lon="9.258325947448611">
        <ele>606.38</ele>
        <time>2020-02-28T14:08:42Z</time>
      </trkpt>
      <trkpt lat="44.370183711871505" lon="9.258229890838265">
        <ele>606.44000000000005</ele>
        <time>2020-02-28T14:09:00Z</time>
      </trkpt>
      <trkpt lat="44.370261831209064" lon="9.258096450939775">
        <ele>606.39999999999998</ele>
        <time>2020-02-28T14:09:15Z</time>
      </trkpt>
      <trkpt lat="44.370299046859145" lon="9.257945492863655">
        <ele>606.53999999999996</ele>
        <time>2020-02-28T14:09:33Z</time>
      </trkpt>
      <trkpt lat="44.370356630533934" lon="9.257663525640965">
        <ele>605.86000000000001</ele>
        <time>2020-02-28T14:09:52Z</time>
      </trkpt>
      <trkpt lat="44.370349422097206" lon="9.257336715236306">
        <ele>605.07000000000005</ele>
        <time>2020-02-28T14:10:14Z</time>
      </trkpt>
      <trkpt lat="44.370293263345957" lon="9.256975119933486">
        <ele>604.95000000000005</ele>
        <time>2020-02-28T14:10:39Z</time>
      </trkpt>
      <trkpt lat="44.370219334959984" lon="9.256702456623316">
        <ele>604.75999999999999</ele>
        <time>2020-02-28T14:11:00Z</time>
      </trkpt>
      <trkpt lat="44.370196368545294" lon="9.256430799141526">
        <ele>604.99000000000001</ele>
        <time>2020-02-28T14:11:17Z</time>
      </trkpt>
      <trkpt lat="44.370211539790034" lon="9.256377154961228">
        <ele>605.04999999999995</ele>
        <time>2020-02-28T14:11:20Z</time>
      </trkpt>
      <trkpt lat="44.37022696249187" lon="9.256283277645707">
        <ele>605.13999999999999</ele>
        <time>2020-02-28T14:11:25Z</time>
      </trkpt>
      <trkpt lat="44.370302483439445" lon="9.256121926009655">
        <ele>605.35000000000002</ele>
        <time>2020-02-28T14:11:38Z</time>
      </trkpt>
      <trkpt lat="44.370355037972331" lon="9.256083285436034">
        <ele>605.73000000000002</ele>
        <time>2020-02-28T14:11:43Z</time>
      </trkpt>
      <trkpt lat="44.370462242513895" lon="9.256005669012666">
        <ele>605.25</ele>
        <time>2020-02-28T14:11:59Z</time>
      </trkpt>
      <trkpt lat="44.370464589446783" lon="9.255986474454403">
        <ele>604.78999999999996</ele>
        <time>2020-02-28T14:12:20Z</time>
      </trkpt>
      <trkpt lat="44.370406754314899" lon="9.255926040932536">
        <ele>604.61000000000001</ele>
        <time>2020-02-28T14:12:29Z</time>
      </trkpt>
      <trkpt lat="44.370371801778674" lon="9.255787655711174">
        <ele>603.07000000000005</ele>
        <time>2020-02-28T14:12:43Z</time>
      </trkpt>
      <trkpt lat="44.370359564200044" lon="9.255745243281126">
        <ele>602.94000000000005</ele>
        <time>2020-02-28T14:12:46Z</time>
      </trkpt>
      <trkpt lat="44.370272560045123" lon="9.255635356530547">
        <ele>602.32000000000005</ele>
        <time>2020-02-28T14:12:56Z</time>
      </trkpt>
      <trkpt lat="44.370089499279857" lon="9.255505939945579">
        <ele>601.12</ele>
        <time>2020-02-28T14:13:17Z</time>
      </trkpt>
      <trkpt lat="44.370039124041796" lon="9.255460761487484">
        <ele>600.13</ele>
        <time>2020-02-28T14:13:39Z</time>
      </trkpt>
      <trkpt lat="44.370034262537956" lon="9.25552018918097">
        <ele>600.40999999999997</ele>
        <time>2020-02-28T14:14:07Z</time>
      </trkpt>
      <trkpt lat="44.36998070217669" lon="9.255570145323873">
        <ele>600.75999999999999</ele>
        <time>2020-02-28T14:14:26Z</time>
      </trkpt>
      <trkpt lat="44.369990257546306" lon="9.2556222807616">
        <ele>600.96000000000004</ele>
        <time>2020-02-28T14:14:40Z</time>
      </trkpt>
      <trkpt lat="44.370072986930609" lon="9.255649605765939">
        <ele>601.19000000000005</ele>
        <time>2020-02-28T14:15:00Z</time>
      </trkpt>
      <trkpt lat="44.370123445987701" lon="9.255668297410011">
        <ele>601.49000000000001</ele>
        <time>2020-02-28T14:15:07Z</time>
      </trkpt>
      <trkpt lat="44.370129145681858" lon="9.255725294351578">
        <ele>602.10000000000002</ele>
        <time>2020-02-28T14:15:19Z</time>
      </trkpt>
      <trkpt lat="44.370128056034446" lon="9.255696292966604">
        <ele>602.07000000000005</ele>
        <time>2020-02-28T14:15:54Z</time>
      </trkpt>
      <trkpt lat="44.370108610019088" lon="9.255656646564603">
        <ele>600.89999999999998</ele>
        <time>2020-02-28T14:18:39Z</time>
      </trkpt>
      <trkpt lat="44.370106682181358" lon="9.255663268268108">
        <ele>600.47000000000003</ele>
        <time>2020-02-28T14:19:01Z</time>
      </trkpt>
      <trkpt lat="44.370083883404732" lon="9.255644660443068">
        <ele>600.12</ele>
        <time>2020-02-28T14:19:25Z</time>
      </trkpt>
      <trkpt lat="44.370076591148973" lon="9.255754882469773">
        <ele>600.35000000000002</ele>
        <time>2020-02-28T14:19:41Z</time>
      </trkpt>
      <trkpt lat="44.370114393532276" lon="9.255818501114845">
        <ele>600.67999999999995</ele>
        <time>2020-02-28T14:19:51Z</time>
      </trkpt>
      <trkpt lat="44.37025629915297" lon="9.255792601034045">
        <ele>600.67999999999995</ele>
        <time>2020-02-28T14:20:35Z</time>
      </trkpt>
      <trkpt lat="44.370081201195717" lon="9.255881533026695">
        <ele>600.75999999999999</ele>
        <time>2020-02-28T14:20:39Z</time>
      </trkpt>
      <trkpt lat="44.370144819840789" lon="9.255890166386962">
        <ele>600.47000000000003</ele>
        <time>2020-02-28T14:20:51Z</time>
      </trkpt>
      <trkpt lat="44.370088744908571" lon="9.255659161135554">
        <ele>600.70000000000005</ele>
        <time>2020-02-28T14:21:07Z</time>
      </trkpt>
      <trkpt lat="44.369873749092221" lon="9.255348946899176">
        <ele>600.38999999999999</ele>
        <time>2020-02-28T14:21:50Z</time>
      </trkpt>
      <trkpt lat="44.369903337210417" lon="9.255411056801677">
        <ele>600.34000000000003</ele>
        <time>2020-02-28T14:21:57Z</time>
      </trkpt>
      <trkpt lat="44.370001489296556" lon="9.255643235519528">
        <ele>600.00999999999999</ele>
        <time>2020-02-28T14:22:14Z</time>
      </trkpt>
      <trkpt lat="44.370038202032447" lon="9.255687491968274">
        <ele>599.98000000000002</ele>
        <time>2020-02-28T14:22:41Z</time>
      </trkpt>
      <trkpt lat="44.370027976110578" lon="9.255661927163601">
        <ele>599.91999999999996</ele>
        <time>2020-02-28T14:22:59Z</time>
      </trkpt>
      <trkpt lat="44.370023533701897" lon="9.255693443119526">
        <ele>599.72000000000003</ele>
        <time>2020-02-28T14:23:35Z</time>
      </trkpt>
      <trkpt lat="44.370041638612747" lon="9.255516836419702">
        <ele>599.10000000000002</ele>
        <time>2020-02-28T14:23:54Z</time>
      </trkpt>
      <trkpt lat="44.370040632784367" lon="9.255388006567955">
        <ele>596.72000000000003</ele>
        <time>2020-02-28T14:24:14Z</time>
      </trkpt>
      <trkpt lat="44.370037112385035" lon="9.255409799516201">
        <ele>596.40999999999997</ele>
        <time>2020-02-28T14:24:38Z</time>
      </trkpt>
      <trkpt lat="44.370012804865837" lon="9.255430502817035">
        <ele>596.87</ele>
        <time>2020-02-28T14:25:02Z</time>
      </trkpt>
      <trkpt lat="44.370019510388374" lon="9.255454642698169">
        <ele>596.75999999999999</ele>
        <time>2020-02-28T14:25:22Z</time>
      </trkpt>
      <trkpt lat="44.370018085464835" lon="9.255422707647085">
        <ele>596.78999999999996</ele>
        <time>2020-02-28T14:25:47Z</time>
      </trkpt>
      <trkpt lat="44.370056893676519" lon="9.25545372068882">
        <ele>596.75</ele>
        <time>2020-02-28T14:26:10Z</time>
      </trkpt>
      <trkpt lat="44.370009787380695" lon="9.255357747897506">
        <ele>597.08000000000004</ele>
        <time>2020-02-28T14:26:35Z</time>
      </trkpt>
      <trkpt lat="44.36996016651392" lon="9.255283819511533">
        <ele>593.88999999999999</ele>
        <time>2020-02-28T14:26:54Z</time>
      </trkpt>
      <trkpt lat="44.369903672486544" lon="9.25519086420536">
        <ele>591.41999999999996</ele>
        <time>2020-02-28T14:27:09Z</time>
      </trkpt>
      <trkpt lat="44.369844999164343" lon="9.255159934982657">
        <ele>590.38</ele>
        <time>2020-02-28T14:27:16Z</time>
      </trkpt>
      <trkpt lat="44.369803005829453" lon="9.255053820088506">
        <ele>588.67999999999995</ele>
        <time>2020-02-28T14:27:30Z</time>
      </trkpt>
      <trkpt lat="44.369724802672863" lon="9.254894983023405">
        <ele>587.62</ele>
        <time>2020-02-28T14:27:45Z</time>
      </trkpt>
      <trkpt lat="44.369625141844153" lon="9.254749724641442">
        <ele>585.64999999999998</ele>
        <time>2020-02-28T14:28:01Z</time>
      </trkpt>
      <trkpt lat="44.369566887617111" lon="9.254609076306224">
        <ele>583.88</ele>
        <time>2020-02-28T14:28:21Z</time>
      </trkpt>
      <trkpt lat="44.369468484073877" lon="9.254421154037118">
        <ele>582.86000000000001</ele>
        <time>2020-02-28T14:28:38Z</time>
      </trkpt>
      <trkpt lat="44.36936354264617" lon="9.254215965047479">
        <ele>581.85000000000002</ele>
        <time>2020-02-28T14:28:55Z</time>
      </trkpt>
      <trkpt lat="44.369206884875894" lon="9.253962496295571">
        <ele>580.50999999999999</ele>
        <time>2020-02-28T14:29:18Z</time>
      </trkpt>
      <trkpt lat="44.369119210168719" lon="9.253927543759346">
        <ele>578.25999999999999</ele>
        <time>2020-02-28T14:29:35Z</time>
      </trkpt>
      <trkpt lat="44.369135890156031" lon="9.253754457458854">
        <ele>575.29999999999995</ele>
        <time>2020-02-28T14:29:54Z</time>
      </trkpt>
      <trkpt lat="44.369052574038506" lon="9.253683211281896">
        <ele>572.79999999999995</ele>
        <time>2020-02-28T14:30:13Z</time>
      </trkpt>
      <trkpt lat="44.368952745571733" lon="9.253627387806773">
        <ele>569.65999999999997</ele>
        <time>2020-02-28T14:30:33Z</time>
      </trkpt>
      <trkpt lat="44.368908572942019" lon="9.253625962883234">
        <ele>567.38</ele>
        <time>2020-02-28T14:30:55Z</time>
      </trkpt>
      <trkpt lat="44.368890216574073" lon="9.253569217398763">
        <ele>567.50999999999999</ele>
        <time>2020-02-28T14:31:23Z</time>
      </trkpt>
      <trkpt lat="44.36888862401247" lon="9.253560919314623">
        <ele>567.51999999999998</ele>
        <time>2020-02-28T14:31:50Z</time>
      </trkpt>
      <trkpt lat="44.368854677304626" lon="9.253486907109618">
        <ele>566.15999999999997</ele>
        <time>2020-02-28T14:32:07Z</time>
      </trkpt>
      <trkpt lat="44.368861466646194" lon="9.253391437232494">
        <ele>563.05999999999995</ele>
        <time>2020-02-28T14:32:27Z</time>
      </trkpt>
      <trkpt lat="44.368953416123986" lon="9.253296973183751">
        <ele>560</ele>
        <time>2020-02-28T14:32:45Z</time>
      </trkpt>
      <trkpt lat="44.368893569335341" lon="9.253202090039849">
        <ele>557.13</ele>
        <time>2020-02-28T14:33:02Z</time>
      </trkpt>
      <trkpt lat="44.368783347308636" lon="9.253122294321656">
        <ele>554.07000000000005</ele>
        <time>2020-02-28T14:33:21Z</time>
      </trkpt>
      <trkpt lat="44.368700366467237" lon="9.253046102821827">
        <ele>550.88999999999999</ele>
        <time>2020-02-28T14:33:40Z</time>
      </trkpt>
      <trkpt lat="44.368685195222497" lon="9.252894222736359">
        <ele>547.73000000000002</ele>
        <time>2020-02-28T14:33:59Z</time>
      </trkpt>
      <trkpt lat="44.368632473051548" lon="9.252755586057901">
        <ele>544.62</ele>
        <time>2020-02-28T14:34:17Z</time>
      </trkpt>
      <trkpt lat="44.368543289601803" lon="9.25265290774405">
        <ele>541.88</ele>
        <time>2020-02-28T14:34:36Z</time>
      </trkpt>
      <trkpt lat="44.368507415056229" lon="9.252602113410831">
        <ele>541.25999999999999</ele>
        <time>2020-02-28T14:34:41Z</time>
      </trkpt>
      <trkpt lat="44.368396941572428" lon="9.252453418448567">
        <ele>539.72000000000003</ele>
        <time>2020-02-28T14:34:58Z</time>
      </trkpt>
      <trkpt lat="44.368276745080948" lon="9.25225124694407">
        <ele>538.32000000000005</ele>
        <time>2020-02-28T14:35:21Z</time>
      </trkpt>
      <trkpt lat="44.368135174736381" lon="9.252061061561108">
        <ele>537.75999999999999</ele>
        <time>2020-02-28T14:35:43Z</time>
      </trkpt>
      <trkpt lat="44.367979355156422" lon="9.251838438212872">
        <ele>535.75</ele>
        <time>2020-02-28T14:36:07Z</time>
      </trkpt>
      <trkpt lat="44.367945492267609" lon="9.25177582539618">
        <ele>535.03999999999996</ele>
        <time>2020-02-28T14:36:12Z</time>
      </trkpt>
      <trkpt lat="44.367908695712686" lon="9.25170298665762">
        <ele>534.01999999999998</ele>
        <time>2020-02-28T14:36:19Z</time>
      </trkpt>
      <trkpt lat="44.36789327301085" lon="9.251668537035584">
        <ele>533.72000000000003</ele>
        <time>2020-02-28T14:36:22Z</time>
      </trkpt>
      <trkpt lat="44.367769975215197" lon="9.251415403559804">
        <ele>532.12</ele>
        <time>2020-02-28T14:36:39Z</time>
      </trkpt>
      <trkpt lat="44.3677525408566" lon="9.251393107697368">
        <ele>532.10000000000002</ele>
        <time>2020-02-28T14:36:41Z</time>
      </trkpt>
      <trkpt lat="44.367660256102681" lon="9.251274587586522">
        <ele>531.88</ele>
        <time>2020-02-28T14:36:56Z</time>
      </trkpt>
      <trkpt lat="44.367566211149096" lon="9.251133520156145">
        <ele>530.47000000000003</ele>
        <time>2020-02-28T14:37:15Z</time>
      </trkpt>
      <trkpt lat="44.367493707686663" lon="9.251047018915415">
        <ele>529.63999999999999</ele>
        <time>2020-02-28T14:37:26Z</time>
      </trkpt>
      <trkpt lat="44.367442242801189" lon="9.250987926498056">
        <ele>528.16999999999996</ele>
        <time>2020-02-28T14:37:47Z</time>
      </trkpt>
      <trkpt lat="44.367449451237917" lon="9.250980718061328">
        <ele>528.16999999999996</ele>
        <time>2020-02-28T14:37:53Z</time>
      </trkpt>
      <trkpt lat="44.36747845262289" lon="9.250996895134449">
        <ele>527.92999999999995</ele>
        <time>2020-02-28T14:38:19Z</time>
      </trkpt>
      <trkpt lat="44.367460934445262" lon="9.250991027802229">
        <ele>529.01999999999998</ele>
        <time>2020-02-28T14:38:48Z</time>
      </trkpt>
      <trkpt lat="44.367383318021894" lon="9.250905783846974">
        <ele>528.34000000000003</ele>
        <time>2020-02-28T14:39:08Z</time>
      </trkpt>
      <trkpt lat="44.367279382422566" lon="9.250760776922107">
        <ele>526.59000000000003</ele>
        <time>2020-02-28T14:39:25Z</time>
      </trkpt>
      <trkpt lat="44.367207465693355" lon="9.250682657584548">
        <ele>526.20000000000005</ele>
        <time>2020-02-28T14:39:32Z</time>
      </trkpt>
      <trkpt lat="44.367131693288684" lon="9.250481659546495">
        <ele>524.21000000000004</ele>
        <time>2020-02-28T14:39:48Z</time>
      </trkpt>
      <trkpt lat="44.367038989439607" lon="9.250259539112449">
        <ele>521.00999999999999</ele>
        <time>2020-02-28T14:40:07Z</time>
      </trkpt>
      <trkpt lat="44.366971766576171" lon="9.25010179169476">
        <ele>517.88999999999999</ele>
        <time>2020-02-28T14:40:22Z</time>
      </trkpt>
      <trkpt lat="44.366856934502721" lon="9.249969273805618">
        <ele>514.73000000000002</ele>
        <time>2020-02-28T14:40:38Z</time>
      </trkpt>
      <trkpt lat="44.366825921460986" lon="9.249929375946522">
        <ele>513.99000000000001</ele>
        <time>2020-02-28T14:40:42Z</time>
      </trkpt>
      <trkpt lat="44.366733385249972" lon="9.249874390661717">
        <ele>512.46000000000004</ele>
        <time>2020-02-28T14:40:51Z</time>
      </trkpt>
      <trkpt lat="44.366563819348812" lon="9.249777914956212">
        <ele>511.75</ele>
        <time>2020-02-28T14:41:07Z</time>
      </trkpt>
      <trkpt lat="44.366397438570857" lon="9.249609690159559">
        <ele>510.10000000000002</ele>
        <time>2020-02-28T14:41:29Z</time>
      </trkpt>
      <trkpt lat="44.366329461336136" lon="9.249448087066412">
        <ele>507.25999999999999</ele>
        <time>2020-02-28T14:41:46Z</time>
      </trkpt>
      <trkpt lat="44.366272715851665" lon="9.249231917783618">
        <ele>504.60000000000002</ele>
        <time>2020-02-28T14:42:06Z</time>
      </trkpt>
      <trkpt lat="44.36624757014215" lon="9.249002505093813">
        <ele>501.79000000000002</ele>
        <time>2020-02-28T14:42:26Z</time>
      </trkpt>
      <trkpt lat="44.366243882104754" lon="9.248880129307509">
        <ele>500.02999999999997</ele>
        <time>2020-02-28T14:42:36Z</time>
      </trkpt>
      <trkpt lat="44.36617917381227" lon="9.248701762408018">
        <ele>499.06</ele>
        <time>2020-02-28T14:42:52Z</time>
      </trkpt>
      <trkpt lat="44.366107508540154" lon="9.24847612157464">
        <ele>497.95999999999998</ele>
        <time>2020-02-28T14:43:13Z</time>
      </trkpt>
      <trkpt lat="44.366064509376884" lon="9.248275877907872">
        <ele>496.91000000000003</ele>
        <time>2020-02-28T14:43:32Z</time>
      </trkpt>
      <trkpt lat="44.366030730307102" lon="9.248020397499204">
        <ele>495.91000000000003</ele>
        <time>2020-02-28T14:43:54Z</time>
      </trkpt>
      <trkpt lat="44.365984881296754" lon="9.247725438326597">
        <ele>495.20999999999998</ele>
        <time>2020-02-28T14:44:19Z</time>
      </trkpt>
      <trkpt lat="44.365900391712785" lon="9.247547490522265">
        <ele>494</ele>
        <time>2020-02-28T14:44:39Z</time>
      </trkpt>
      <trkpt lat="44.365798719227314" lon="9.247423438355327">
        <ele>490.83999999999997</ele>
        <time>2020-02-28T14:44:57Z</time>
      </trkpt>
      <trkpt lat="44.365728395059705" lon="9.247349509969354">
        <ele>487.72000000000003</ele>
        <time>2020-02-28T14:45:12Z</time>
      </trkpt>
      <trkpt lat="44.365597134456038" lon="9.247343977913261">
        <ele>484.69999999999999</ele>
        <time>2020-02-28T14:45:31Z</time>
      </trkpt>
      <trkpt lat="44.365485487505794" lon="9.247330231592059">
        <ele>481.56999999999999</ele>
        <time>2020-02-28T14:45:47Z</time>
      </trkpt>
      <trkpt lat="44.365467550233006" lon="9.247219171375036">
        <ele>478.58999999999997</ele>
        <time>2020-02-28T14:46:06Z</time>
      </trkpt>
      <trkpt lat="44.365452881902456" lon="9.247066117823124">
        <ele>475.52999999999997</ele>
        <time>2020-02-28T14:46:25Z</time>
      </trkpt>
      <trkpt lat="44.365418683737516" lon="9.246902503073216">
        <ele>472.41000000000003</ele>
        <time>2020-02-28T14:46:46Z</time>
      </trkpt>
      <trkpt lat="44.365379372611642" lon="9.246738133952022">
        <ele>469.37</ele>
        <time>2020-02-28T14:47:06Z</time>
      </trkpt>
      <trkpt lat="44.365339810028672" lon="9.246590528637171">
        <ele>466.24000000000001</ele>
        <time>2020-02-28T14:47:25Z</time>
      </trkpt>
      <trkpt lat="44.365283902734518" lon="9.24644242040813">
        <ele>463.19999999999999</ele>
        <time>2020-02-28T14:47:44Z</time>
      </trkpt>
      <trkpt lat="44.365215171128511" lon="9.246311746537685">
        <ele>460.18000000000001</ele>
        <time>2020-02-28T14:48:03Z</time>
      </trkpt>
      <trkpt lat="44.365136129781604" lon="9.246136732399464">
        <ele>457.27999999999997</ele>
        <time>2020-02-28T14:48:26Z</time>
      </trkpt>
      <trkpt lat="44.365044934675097" lon="9.246001783758402">
        <ele>454.24000000000001</ele>
        <time>2020-02-28T14:48:46Z</time>
      </trkpt>
      <trkpt lat="44.364977208897471" lon="9.245890639722347">
        <ele>451.08999999999997</ele>
        <time>2020-02-28T14:49:04Z</time>
      </trkpt>
      <trkpt lat="44.364878972992301" lon="9.245776562020183">
        <ele>447.98000000000002</ele>
        <time>2020-02-28T14:49:22Z</time>
      </trkpt>
      <trkpt lat="44.364786939695477" lon="9.245590064674616">
        <ele>444.79000000000002</ele>
        <time>2020-02-28T14:49:42Z</time>
      </trkpt>
      <trkpt lat="44.364858688786626" lon="9.24538454040885">
        <ele>442.42000000000002</ele>
        <time>2020-02-28T14:50:02Z</time>
      </trkpt>
      <trkpt lat="44.364820970222354" lon="9.24531564116478">
        <ele>440.41000000000003</ele>
        <time>2020-02-28T14:50:20Z</time>
      </trkpt>
      <trkpt lat="44.364753663539886" lon="9.245317652821541">
        <ele>437.36000000000001</ele>
        <time>2020-02-28T14:50:42Z</time>
      </trkpt>
      <trkpt lat="44.364799009636045" lon="9.245166946202517">
        <ele>434.29000000000002</ele>
        <time>2020-02-28T14:51:01Z</time>
      </trkpt>
      <trkpt lat="44.36472793109715" lon="9.245148338377476">
        <ele>432.29000000000002</ele>
        <time>2020-02-28T14:51:16Z</time>
      </trkpt>
      <trkpt lat="44.364671185612679" lon="9.245143560692668">
        <ele>429.47000000000003</ele>
        <time>2020-02-28T14:51:38Z</time>
      </trkpt>
      <trkpt lat="44.364701360464096" lon="9.244995201006532">
        <ele>426.44</ele>
        <time>2020-02-28T14:51:56Z</time>
      </trkpt>
      <trkpt lat="44.364683590829372" lon="9.244842985644937">
        <ele>423.56999999999999</ele>
        <time>2020-02-28T14:52:15Z</time>
      </trkpt>
      <trkpt lat="44.364683087915182" lon="9.244807614013553">
        <ele>421.45999999999998</ele>
        <time>2020-02-28T14:52:34Z</time>
      </trkpt>
      <trkpt lat="44.364713849499822" lon="9.244659086689353">
        <ele>418.77999999999997</ele>
        <time>2020-02-28T14:52:56Z</time>
      </trkpt>
      <trkpt lat="44.364581080153584" lon="9.244730416685343">
        <ele>416.37</ele>
        <time>2020-02-28T14:53:16Z</time>
      </trkpt>
      <trkpt lat="44.364451076835394" lon="9.244880033656955">
        <ele>413.24000000000001</ele>
        <time>2020-02-28T14:53:39Z</time>
      </trkpt>
      <trkpt lat="44.364361641928554" lon="9.244994865730405">
        <ele>410.19</ele>
        <time>2020-02-28T14:53:57Z</time>
      </trkpt>
      <trkpt lat="44.364214204251766" lon="9.245094610378146">
        <ele>407.13999999999999</ele>
        <time>2020-02-28T14:54:19Z</time>
      </trkpt>
      <trkpt lat="44.364091493189335" lon="9.245188320055604">
        <ele>404.42000000000002</ele>
        <time>2020-02-28T14:54:39Z</time>
      </trkpt>
      <trkpt lat="44.364032316952944" lon="9.245228217914701">
        <ele>401.35000000000002</ele>
        <time>2020-02-28T14:54:58Z</time>
      </trkpt>
      <trkpt lat="44.364004153758287" lon="9.245147835463285">
        <ele>398.22000000000003</ele>
        <time>2020-02-28T14:55:17Z</time>
      </trkpt>
      <trkpt lat="44.363873144611716" lon="9.245153199881315">
        <ele>395.13999999999999</ele>
        <time>2020-02-28T14:55:36Z</time>
      </trkpt>
      <trkpt lat="44.363784631714225" lon="9.245247328653932">
        <ele>392.19</ele>
        <time>2020-02-28T14:55:54Z</time>
      </trkpt>
      <trkpt lat="44.363696873188019" lon="9.24528437666595">
        <ele>389.16000000000003</ele>
        <time>2020-02-28T14:56:12Z</time>
      </trkpt>
      <trkpt lat="44.363641468808055" lon="9.245225451886654">
        <ele>386.11000000000001</ele>
        <time>2020-02-28T14:56:29Z</time>
      </trkpt>
      <trkpt lat="44.363557733595371" lon="9.245098968967795">
        <ele>382.98000000000002</ele>
        <time>2020-02-28T14:56:49Z</time>
      </trkpt>
      <trkpt lat="44.363476345315576" lon="9.245159821584821">
        <ele>380.27999999999997</ele>
        <time>2020-02-28T14:57:05Z</time>
      </trkpt>
      <trkpt lat="44.363467041403055" lon="9.245324693620205">
        <ele>377.38</ele>
        <time>2020-02-28T14:57:26Z</time>
      </trkpt>
      <trkpt lat="44.363480284810066" lon="9.245557291433215">
        <ele>374.5</ele>
        <time>2020-02-28T14:57:47Z</time>
      </trkpt>
      <trkpt lat="44.363371152430773" lon="9.245477998629212">
        <ele>371.49000000000001</ele>
        <time>2020-02-28T14:58:07Z</time>
      </trkpt>
      <trkpt lat="44.363302672281861" lon="9.245376829057932">
        <ele>369.87</ele>
        <time>2020-02-28T14:58:35Z</time>
      </trkpt>
      <trkpt lat="44.363245088607073" lon="9.245305499061942">
        <ele>366.75</ele>
        <time>2020-02-28T14:58:50Z</time>
      </trkpt>
      <trkpt lat="44.363207621499896" lon="9.245193349197507">
        <ele>363.69</ele>
        <time>2020-02-28T14:59:05Z</time>
      </trkpt>
      <trkpt lat="44.363139057531953" lon="9.24506057985127">
        <ele>360.45999999999998</ele>
        <time>2020-02-28T14:59:21Z</time>
      </trkpt>
      <trkpt lat="44.363078624010086" lon="9.244933677837253">
        <ele>357.35000000000002</ele>
        <time>2020-02-28T14:59:37Z</time>
      </trkpt>
      <trkpt lat="44.363005785271525" lon="9.24482555128634">
        <ele>354.29000000000002</ele>
        <time>2020-02-28T14:59:53Z</time>
      </trkpt>
      <trkpt lat="44.362901179119945" lon="9.24469948746264">
        <ele>351.05000000000001</ele>
        <time>2020-02-28T15:00:11Z</time>
      </trkpt>
      <trkpt lat="44.362821634858847" lon="9.244576273486018">
        <ele>347.94999999999999</ele>
        <time>2020-02-28T15:00:30Z</time>
      </trkpt>
      <trkpt lat="44.3627964053303" lon="9.244459429755807">
        <ele>344.83999999999997</ele>
        <time>2020-02-28T15:00:46Z</time>
      </trkpt>
      <trkpt lat="44.362667994573712" lon="9.244413413107395">
        <ele>341.92000000000002</ele>
        <time>2020-02-28T15:01:04Z</time>
      </trkpt>
      <trkpt lat="44.362577302381396" lon="9.244479881599546">
        <ele>339.25999999999999</ele>
        <time>2020-02-28T15:01:21Z</time>
      </trkpt>
      <trkpt lat="44.362431792542338" lon="9.244399750605226">
        <ele>336.13999999999999</ele>
        <time>2020-02-28T15:01:40Z</time>
      </trkpt>
      <trkpt lat="44.36224621720612" lon="9.244295144453645">
        <ele>333</ele>
        <time>2020-02-28T15:02:01Z</time>
      </trkpt>
      <trkpt lat="44.362118477001786" lon="9.244179725646973">
        <ele>329.97000000000003</ele>
        <time>2020-02-28T15:02:21Z</time>
      </trkpt>
      <trkpt lat="44.362036753445864" lon="9.244049554690719">
        <ele>326.88</ele>
        <time>2020-02-28T15:02:43Z</time>
      </trkpt>
      <trkpt lat="44.361907336860895" lon="9.243941428139806">
        <ele>323.95999999999998</ele>
        <time>2020-02-28T15:03:04Z</time>
      </trkpt>
      <trkpt lat="44.361794013530016" lon="9.243855429813266">
        <ele>321.26999999999998</ele>
        <time>2020-02-28T15:03:24Z</time>
      </trkpt>
      <trkpt lat="44.361671302467585" lon="9.243760462850332">
        <ele>319.31999999999999</ele>
        <time>2020-02-28T15:03:44Z</time>
      </trkpt>
      <trkpt lat="44.361574072390795" lon="9.243635656312108">
        <ele>316.72000000000003</ele>
        <time>2020-02-28T15:04:02Z</time>
      </trkpt>
      <trkpt lat="44.361484218388796" lon="9.243502719327807">
        <ele>313.56999999999999</ele>
        <time>2020-02-28T15:04:23Z</time>
      </trkpt>
      <trkpt lat="44.361359747126698" lon="9.243343295529485">
        <ele>310.39999999999998</ele>
        <time>2020-02-28T15:04:45Z</time>
      </trkpt>
      <trkpt lat="44.361230581998825" lon="9.243218740448356">
        <ele>308.67000000000002</ele>
        <time>2020-02-28T15:05:03Z</time>
      </trkpt>
      <trkpt lat="44.361101500689983" lon="9.243088234215975">
        <ele>305.85000000000002</ele>
        <time>2020-02-28T15:05:24Z</time>
      </trkpt>
      <trkpt lat="44.360987590625882" lon="9.242981532588601">
        <ele>303.41000000000003</ele>
        <time>2020-02-28T15:05:43Z</time>
      </trkpt>
      <trkpt lat="44.360881559550762" lon="9.24285052344203">
        <ele>300.99000000000001</ele>
        <time>2020-02-28T15:06:02Z</time>
      </trkpt>
      <trkpt lat="44.360751304775476" lon="9.242705097422004">
        <ele>298.69</ele>
        <time>2020-02-28T15:06:21Z</time>
      </trkpt>
      <trkpt lat="44.360624654218554" lon="9.242581631988287">
        <ele>296.35000000000002</ele>
        <time>2020-02-28T15:06:40Z</time>
      </trkpt>
      <trkpt lat="44.360483167693019" lon="9.242434613406658">
        <ele>294.17000000000002</ele>
        <time>2020-02-28T15:06:58Z</time>
      </trkpt>
      <trkpt lat="44.360350063070655" lon="9.242312237620354">
        <ele>291.42000000000002</ele>
        <time>2020-02-28T15:07:19Z</time>
      </trkpt>
      <trkpt lat="44.3602389190346" lon="9.242234202101827">
        <ele>289.07999999999998</ele>
        <time>2020-02-28T15:07:41Z</time>
      </trkpt>
      <trkpt lat="44.36023254878819" lon="9.242209307849407">
        <ele>288.45999999999998</ele>
        <time>2020-02-28T15:08:12Z</time>
      </trkpt>
      <trkpt lat="44.360197009518743" lon="9.242193549871445">
        <ele>289.44</ele>
        <time>2020-02-28T15:08:33Z</time>
      </trkpt>
      <trkpt lat="44.360070526599884" lon="9.242191119119525">
        <ele>287.66000000000003</ele>
        <time>2020-02-28T15:08:55Z</time>
      </trkpt>
      <trkpt lat="44.359960136935115" lon="9.242209978401661">
        <ele>284.61000000000001</ele>
        <time>2020-02-28T15:09:11Z</time>
      </trkpt>
      <trkpt lat="44.359834073111415" lon="9.242217103019357">
        <ele>281.60000000000002</ele>
        <time>2020-02-28T15:09:26Z</time>
      </trkpt>
      <trkpt lat="44.359715050086379" lon="9.242260688915849">
        <ele>278.51999999999998</ele>
        <time>2020-02-28T15:09:41Z</time>
      </trkpt>
      <trkpt lat="44.359618406742811" lon="9.242284074425697">
        <ele>275.36000000000001</ele>
        <time>2020-02-28T15:09:56Z</time>
      </trkpt>
      <trkpt lat="44.359480440616608" lon="9.242347776889801">
        <ele>272.24000000000001</ele>
        <time>2020-02-28T15:10:11Z</time>
      </trkpt>
      <trkpt lat="44.359345827251673" lon="9.242372838780284">
        <ele>269.01999999999998</ele>
        <time>2020-02-28T15:10:26Z</time>
      </trkpt>
      <trkpt lat="44.359269132837653" lon="9.242376023903489">
        <ele>265.85000000000002</ele>
        <time>2020-02-28T15:10:39Z</time>
      </trkpt>
      <trkpt lat="44.359221858903766" lon="9.242336293682456">
        <ele>263.81</ele>
        <time>2020-02-28T15:10:49Z</time>
      </trkpt>
      <trkpt lat="44.359082886949182" lon="9.242260437458754">
        <ele>260.56999999999999</ele>
        <time>2020-02-28T15:11:07Z</time>
      </trkpt>
      <trkpt lat="44.358950452879071" lon="9.242189023643732">
        <ele>257.36000000000001</ele>
        <time>2020-02-28T15:11:25Z</time>
      </trkpt>
      <trkpt lat="44.358782982453704" lon="9.242007303982973">
        <ele>254.74000000000001</ele>
        <time>2020-02-28T15:11:48Z</time>
      </trkpt>
      <trkpt lat="44.358685584738851" lon="9.241893477737904">
        <ele>251.69</ele>
        <time>2020-02-28T15:12:03Z</time>
      </trkpt>
      <trkpt lat="44.358616769313812" lon="9.241784512996674">
        <ele>248.56</ele>
        <time>2020-02-28T15:12:19Z</time>
      </trkpt>
      <trkpt lat="44.358514929190278" lon="9.241802282631397">
        <ele>245.44999999999999</ele>
        <time>2020-02-28T15:12:36Z</time>
      </trkpt>
      <trkpt lat="44.358460949733853" lon="9.241847209632397">
        <ele>243.50999999999999</ele>
        <time>2020-02-28T15:12:57Z</time>
      </trkpt>
      <trkpt lat="44.358436055481434" lon="9.241776298731566">
        <ele>242.78</ele>
        <time>2020-02-28T15:13:16Z</time>
      </trkpt>
      <trkpt lat="44.358454998582602" lon="9.241677140817046">
        <ele>239.59</ele>
        <time>2020-02-28T15:13:34Z</time>
      </trkpt>
      <trkpt lat="44.358464721590281" lon="9.241640511900187">
        <ele>237.96000000000001</ele>
        <time>2020-02-28T15:13:53Z</time>
      </trkpt>
      <trkpt lat="44.358433540910482" lon="9.241625675931573">
        <ele>238</ele>
        <time>2020-02-28T15:14:15Z</time>
      </trkpt>
      <trkpt lat="44.358453154563904" lon="9.241638584062457">
        <ele>237.78999999999999</ele>
        <time>2020-02-28T15:14:43Z</time>
      </trkpt>
      <trkpt lat="44.358514593914151" lon="9.241609247401357">
        <ele>237.27000000000001</ele>
        <time>2020-02-28T15:15:10Z</time>
      </trkpt>
      <trkpt lat="44.358498333021998" lon="9.241653587669134">
        <ele>237.09</ele>
        <time>2020-02-28T15:15:43Z</time>
      </trkpt>
      <trkpt lat="44.358372604474425" lon="9.241646798327565">
        <ele>234.43000000000001</ele>
        <time>2020-02-28T15:16:03Z</time>
      </trkpt>
      <trkpt lat="44.358264645561576" lon="9.241682169958949">
        <ele>231.91</ele>
        <time>2020-02-28T15:16:17Z</time>
      </trkpt>
      <trkpt lat="44.358262298628688" lon="9.241939075291157">
        <ele>230.18000000000001</ele>
        <time>2020-02-28T15:16:34Z</time>
      </trkpt>
      <trkpt lat="44.358320636674762" lon="9.242149544879794">
        <ele>230</ele>
        <time>2020-02-28T15:16:50Z</time>
      </trkpt>
      <trkpt lat="44.358326336368918" lon="9.242263790220022">
        <ele>227.90000000000001</ele>
        <time>2020-02-28T15:17:06Z</time>
      </trkpt>
      <trkpt lat="44.35819985345006" lon="9.242214253172278">
        <ele>224.80000000000001</ele>
        <time>2020-02-28T15:17:21Z</time>
      </trkpt>
      <trkpt lat="44.358088625594974" lon="9.242149293422699">
        <ele>221.65000000000001</ele>
        <time>2020-02-28T15:17:36Z</time>
      </trkpt>
      <trkpt lat="44.357986534014344" lon="9.242037897929549">
        <ele>218.47</ele>
        <time>2020-02-28T15:17:53Z</time>
      </trkpt>
      <trkpt lat="44.357849406078458" lon="9.242003532126546">
        <ele>215.37</ele>
        <time>2020-02-28T15:18:09Z</time>
      </trkpt>
      <trkpt lat="44.357728455215693" lon="9.241949133574963">
        <ele>211.97</ele>
        <time>2020-02-28T15:18:24Z</time>
      </trkpt>
      <trkpt lat="44.357641451060772" lon="9.241864141076803">
        <ele>208.96000000000001</ele>
        <time>2020-02-28T15:18:38Z</time>
      </trkpt>
      <trkpt lat="44.357570959255099" lon="9.24193530343473">
        <ele>205.90000000000001</ele>
        <time>2020-02-28T15:18:53Z</time>
      </trkpt>
      <trkpt lat="44.357464089989662" lon="9.241836732253432">
        <ele>202.75</ele>
        <time>2020-02-28T15:19:09Z</time>
      </trkpt>
      <trkpt lat="44.357386054471135" lon="9.241833630949259">
        <ele>199.56999999999999</ele>
        <time>2020-02-28T15:19:25Z</time>
      </trkpt>
      <trkpt lat="44.357319669798017" lon="9.241776634007692">
        <ele>196.41999999999999</ele>
        <time>2020-02-28T15:19:41Z</time>
      </trkpt>
      <trkpt lat="44.35721917077899" lon="9.241788955405355">
        <ele>193.84</ele>
        <time>2020-02-28T15:19:59Z</time>
      </trkpt>
      <trkpt lat="44.357140883803368" lon="9.24173447303474">
        <ele>190.84</ele>
        <time>2020-02-28T15:20:17Z</time>
      </trkpt>
      <trkpt lat="44.357064608484507" lon="9.241801025345922">
        <ele>187.77000000000001</ele>
        <time>2020-02-28T15:20:36Z</time>
      </trkpt>
      <trkpt lat="44.357113894075155" lon="9.241812424734235">
        <ele>187.03999999999999</ele>
        <time>2020-02-28T15:21:06Z</time>
      </trkpt>
      <trkpt lat="44.357135351747274" lon="9.241828601807356">
        <ele>187.62</ele>
        <time>2020-02-28T15:21:33Z</time>
      </trkpt>
      <trkpt lat="44.357081204652786" lon="9.241901692003012">
        <ele>186.52000000000001</ele>
        <time>2020-02-28T15:21:54Z</time>
      </trkpt>
      <trkpt lat="44.357047509402037" lon="9.242002945393324">
        <ele>184.77000000000001</ele>
        <time>2020-02-28T15:22:11Z</time>
      </trkpt>
      <trkpt lat="44.357103332877159" lon="9.242119872942567">
        <ele>182.91</ele>
        <time>2020-02-28T15:22:30Z</time>
      </trkpt>
      <trkpt lat="44.356952458620071" lon="9.242086848244071">
        <ele>179.97999999999999</ele>
        <time>2020-02-28T15:22:49Z</time>
      </trkpt>
      <trkpt lat="44.356758082285523" lon="9.242001436650753">
        <ele>177.03999999999999</ele>
        <time>2020-02-28T15:23:11Z</time>
      </trkpt>
      <trkpt lat="44.356622127816081" lon="9.241927172988653">
        <ele>174.40000000000001</ele>
        <time>2020-02-28T15:23:32Z</time>
      </trkpt>
      <trkpt lat="44.356519198045135" lon="9.241825668141246">
        <ele>172.81999999999999</ele>
        <time>2020-02-28T15:23:55Z</time>
      </trkpt>
      <trkpt lat="44.35640562325716" lon="9.241749895736575">
        <ele>169.69999999999999</ele>
        <time>2020-02-28T15:24:14Z</time>
      </trkpt>
      <trkpt lat="44.356215605512261" lon="9.241683762520552">
        <ele>167.83000000000001</ele>
        <time>2020-02-28T15:24:35Z</time>
      </trkpt>
      <trkpt lat="44.356089876964688" lon="9.241659119725227">
        <ele>164.74000000000001</ele>
        <time>2020-02-28T15:24:53Z</time>
      </trkpt>
      <trkpt lat="44.356005722656846" lon="9.241647301241756">
        <ele>161.69</ele>
        <time>2020-02-28T15:25:09Z</time>
      </trkpt>
      <trkpt lat="44.355857782065868" lon="9.241601284593344">
        <ele>158.52000000000001</ele>
        <time>2020-02-28T15:25:30Z</time>
      </trkpt>
      <trkpt lat="44.355755606666207" lon="9.241556692868471">
        <ele>155.41999999999999</ele>
        <time>2020-02-28T15:25:46Z</time>
      </trkpt>
      <trkpt lat="44.355651000514627" lon="9.241467006504536">
        <ele>152.30000000000001</ele>
        <time>2020-02-28T15:26:02Z</time>
      </trkpt>
      <trkpt lat="44.355502976104617" lon="9.241378158330917">
        <ele>150.56</ele>
        <time>2020-02-28T15:26:25Z</time>
      </trkpt>
      <trkpt lat="44.355296110734344" lon="9.241390228271484">
        <ele>148.58000000000001</ele>
        <time>2020-02-28T15:26:48Z</time>
      </trkpt>
      <trkpt lat="44.35510290786624" lon="9.24138855189085">
        <ele>145.53999999999999</ele>
        <time>2020-02-28T15:27:12Z</time>
      </trkpt>
      <trkpt lat="44.354955134913325" lon="9.241332979872823">
        <ele>142.5</ele>
        <time>2020-02-28T15:27:32Z</time>
      </trkpt>
      <trkpt lat="44.354828484356403" lon="9.241251675412059">
        <ele>139.41</ele>
        <time>2020-02-28T15:27:52Z</time>
      </trkpt>
      <trkpt lat="44.354758495464921" lon="9.241185039281845">
        <ele>136.34</ele>
        <time>2020-02-28T15:28:08Z</time>
      </trkpt>
      <trkpt lat="44.354668809100986" lon="9.24110809341073">
        <ele>133.28999999999999</ele>
        <time>2020-02-28T15:28:26Z</time>
      </trkpt>
      <trkpt lat="44.354603094980121" lon="9.24113541841507">
        <ele>130.06</ele>
        <time>2020-02-28T15:28:45Z</time>
      </trkpt>
      <trkpt lat="44.354507625102997" lon="9.241095436736941">
        <ele>126.92</ele>
        <time>2020-02-28T15:29:04Z</time>
      </trkpt>
      <trkpt lat="44.35444132424891" lon="9.240932492539287">
        <ele>124.8</ele>
        <time>2020-02-28T15:29:21Z</time>
      </trkpt>
      <trkpt lat="44.354436295107007" lon="9.240915393456817">
        <ele>124.75</ele>
        <time>2020-02-28T15:29:22Z</time>
      </trkpt>
      <trkpt lat="44.354354320093989" lon="9.240712802857161">
        <ele>124.90000000000001</ele>
        <time>2020-02-28T15:29:39Z</time>
      </trkpt>
      <trkpt lat="44.354190286248922" lon="9.240599647164345">
        <ele>125.09</ele>
        <time>2020-02-28T15:29:59Z</time>
      </trkpt>
      <trkpt lat="44.35408852994442" lon="9.240560000762343">
        <ele>125.31</ele>
        <time>2020-02-28T15:30:15Z</time>
      </trkpt>
      <trkpt lat="44.353896332904696" lon="9.240509122610092">
        <ele>123.31999999999999</ele>
        <time>2020-02-28T15:30:38Z</time>
      </trkpt>
      <trkpt lat="44.353755181655288" lon="9.240487664937973">
        <ele>120.23</ele>
        <time>2020-02-28T15:30:59Z</time>
      </trkpt>
      <trkpt lat="44.353638840839267" lon="9.240447767078877">
        <ele>117.16</ele>
        <time>2020-02-28T15:31:20Z</time>
      </trkpt>
      <trkpt lat="44.353498695418239" lon="9.240373503416777">
        <ele>114.08</ele>
        <time>2020-02-28T15:31:40Z</time>
      </trkpt>
      <trkpt lat="44.353365423157811" lon="9.240304436534643">
        <ele>111.06</ele>
        <time>2020-02-28T15:31:58Z</time>
      </trkpt>
      <trkpt lat="44.353286968544126" lon="9.240301083773375">
        <ele>108.22</ele>
        <time>2020-02-28T15:32:19Z</time>
      </trkpt>
      <trkpt lat="44.353255955502391" lon="9.24028230831027">
        <ele>107.81999999999999</ele>
        <time>2020-02-28T15:32:44Z</time>
      </trkpt>
      <trkpt lat="44.353102901950479" lon="9.240256575867534">
        <ele>104.98999999999999</ele>
        <time>2020-02-28T15:33:05Z</time>
      </trkpt>
      <trkpt lat="44.352983292192221" lon="9.24021047540009">
        <ele>101.90000000000001</ele>
        <time>2020-02-28T15:33:24Z</time>
      </trkpt>
      <trkpt lat="44.352842979133129" lon="9.240164458751679">
        <ele>98.769999999999996</ele>
        <time>2020-02-28T15:33:44Z</time>
      </trkpt>
      <trkpt lat="44.352696379646659" lon="9.240094134584069">
        <ele>95.790000000000006</ele>
        <time>2020-02-28T15:34:06Z</time>
      </trkpt>
      <trkpt lat="44.352550199255347" lon="9.239978883415461">
        <ele>92.760000000000005</ele>
        <time>2020-02-28T15:34:27Z</time>
      </trkpt>
      <trkpt lat="44.352447101846337" lon="9.239873690530658">
        <ele>89.659999999999997</ele>
        <time>2020-02-28T15:34:47Z</time>
      </trkpt>
      <trkpt lat="44.352324809879065" lon="9.239784004166722">
        <ele>86.620000000000005</ele>
        <time>2020-02-28T15:35:06Z</time>
      </trkpt>
      <trkpt lat="44.352296646684408" lon="9.239783752709627">
        <ele>85.269999999999996</ele>
        <time>2020-02-28T15:35:26Z</time>
      </trkpt>
      <trkpt lat="44.352261275053024" lon="9.239697586745024">
        <ele>85.349999999999994</ele>
        <time>2020-02-28T15:35:51Z</time>
      </trkpt>
      <trkpt lat="44.352311650291085" lon="9.239701358601451">
        <ele>85.209999999999994</ele>
        <time>2020-02-28T15:36:23Z</time>
      </trkpt>
      <trkpt lat="44.352358253672719" lon="9.2395986802876">
        <ele>84.480000000000004</ele>
        <time>2020-02-28T15:36:47Z</time>
      </trkpt>
      <trkpt lat="44.35235490091145" lon="9.239607732743025">
        <ele>84.310000000000002</ele>
        <time>2020-02-28T15:37:11Z</time>
      </trkpt>
      <trkpt lat="44.352346016094089" lon="9.23971694894135">
        <ele>84.799999999999997</ele>
        <time>2020-02-28T15:37:25Z</time>
      </trkpt>
      <trkpt lat="44.352304693311453" lon="9.23972868360579">
        <ele>85</ele>
        <time>2020-02-28T15:37:29Z</time>
      </trkpt>
      <trkpt lat="44.352215677499771" lon="9.239720553159714">
        <ele>85.260000000000005</ele>
        <time>2020-02-28T15:37:41Z</time>
      </trkpt>
      <trkpt lat="44.352166643366218" lon="9.239716781303287">
        <ele>85.170000000000002</ele>
        <time>2020-02-28T15:37:45Z</time>
      </trkpt>
      <trkpt lat="44.352045357227325" lon="9.239643607288599">
        <ele>85.450000000000003</ele>
        <time>2020-02-28T15:37:59Z</time>
      </trkpt>
      <trkpt lat="44.35194980353117" lon="9.239762211218476">
        <ele>82.939999999999998</ele>
        <time>2020-02-28T15:38:18Z</time>
      </trkpt>
      <trkpt lat="44.351857267320156" lon="9.239866733551025">
        <ele>79.920000000000002</ele>
        <time>2020-02-28T15:38:34Z</time>
      </trkpt>
      <trkpt lat="44.35177537612617" lon="9.240002436563373">
        <ele>77.140000000000001</ele>
        <time>2020-02-28T15:38:49Z</time>
      </trkpt>
      <trkpt lat="44.35176364146173" lon="9.240036215633154">
        <ele>74.859999999999999</ele>
        <time>2020-02-28T15:39:03Z</time>
      </trkpt>
      <trkpt lat="44.351699938997626" lon="9.240136714652181">
        <ele>72.819999999999993</ele>
        <time>2020-02-28T15:39:18Z</time>
      </trkpt>
      <trkpt lat="44.351651910692453" lon="9.24025540240109">
        <ele>70.409999999999997</ele>
        <time>2020-02-28T15:39:34Z</time>
      </trkpt>
      <trkpt lat="44.351541856303811" lon="9.240344166755676">
        <ele>67.189999999999998</ele>
        <time>2020-02-28T15:39:51Z</time>
      </trkpt>
      <trkpt lat="44.35141914524138" lon="9.240376353263855">
        <ele>64.030000000000001</ele>
        <time>2020-02-28T15:40:07Z</time>
      </trkpt>
      <trkpt lat="44.351299870759249" lon="9.240350453183055">
        <ele>60.909999999999997</ele>
        <time>2020-02-28T15:40:24Z</time>
      </trkpt>
      <trkpt lat="44.351196186617017" lon="9.240339975804091">
        <ele>57.829999999999998</ele>
        <time>2020-02-28T15:40:40Z</time>
      </trkpt>
      <trkpt lat="44.351083114743233" lon="9.240314997732639">
        <ele>54.659999999999997</ele>
        <time>2020-02-28T15:40:57Z</time>
      </trkpt>
      <trkpt lat="44.350930480286479" lon="9.240328995510936">
        <ele>52.130000000000003</ele>
        <time>2020-02-28T15:41:15Z</time>
      </trkpt>
      <trkpt lat="44.350790753960609" lon="9.240361852571368">
        <ele>49.030000000000001</ele>
        <time>2020-02-28T15:41:37Z</time>
      </trkpt>
      <trkpt lat="44.350625295192003" lon="9.24036830663681">
        <ele>45.969999999999999</ele>
        <time>2020-02-28T15:41:55Z</time>
      </trkpt>
      <trkpt lat="44.350452544167638" lon="9.240161692723632">
        <ele>44.630000000000003</ele>
        <time>2020-02-28T15:42:18Z</time>
      </trkpt>
      <trkpt lat="44.35035246424377" lon="9.23990017734468">
        <ele>43.649999999999999</ele>
        <time>2020-02-28T15:42:40Z</time>
      </trkpt>
      <trkpt lat="44.350257832556963" lon="9.239726336672902">
        <ele>43.609999999999999</ele>
        <time>2020-02-28T15:42:59Z</time>
      </trkpt>
      <trkpt lat="44.350066222250462" lon="9.239606810733676">
        <ele>42.359999999999999</ele>
        <time>2020-02-28T15:43:21Z</time>
      </trkpt>
      <trkpt lat="44.350011488422751" lon="9.239575881510973">
        <ele>42.229999999999997</ele>
        <time>2020-02-28T15:43:28Z</time>
      </trkpt>
      <trkpt lat="44.349930016323924" lon="9.239506982266903">
        <ele>42.170000000000002</ele>
        <time>2020-02-28T15:43:37Z</time>
      </trkpt>
      <trkpt lat="44.349817363545299" lon="9.239465408027172">
        <ele>42.200000000000003</ele>
        <time>2020-02-28T15:43:47Z</time>
      </trkpt>
      <trkpt lat="44.349781405180693" lon="9.239288549870253">
        <ele>42.380000000000003</ele>
        <time>2020-02-28T15:43:59Z</time>
      </trkpt>
      <trkpt lat="44.349718121811748" lon="9.239219734445214">
        <ele>42.469999999999999</ele>
        <time>2020-02-28T15:44:06Z</time>
      </trkpt>
      <trkpt lat="44.349647797644138" lon="9.239088306203485">
        <ele>41.630000000000003</ele>
        <time>2020-02-28T15:44:15Z</time>
      </trkpt>
      <trkpt lat="44.349441938102245" lon="9.238855540752411">
        <ele>40.18</ele>
        <time>2020-02-28T15:44:38Z</time>
      </trkpt>
      <trkpt lat="44.349365662783384" lon="9.238700056448579">
        <ele>38.020000000000003</ele>
        <time>2020-02-28T15:44:58Z</time>
      </trkpt>
      <trkpt lat="44.349262565374374" lon="9.238426554948092">
        <ele>34.840000000000003</ele>
        <time>2020-02-28T15:45:20Z</time>
      </trkpt>
      <trkpt lat="44.349200790748" lon="9.238076945766807">
        <ele>32.700000000000003</ele>
        <time>2020-02-28T15:45:44Z</time>
      </trkpt>
      <trkpt lat="44.349099537357688" lon="9.23778735101223">
        <ele>30.109999999999999</ele>
        <time>2020-02-28T15:46:07Z</time>
      </trkpt>
      <trkpt lat="44.349010018631816" lon="9.237593309953809">
        <ele>27.899999999999999</ele>
        <time>2020-02-28T15:46:26Z</time>
      </trkpt>
      <trkpt lat="44.349043630063534" lon="9.237487781792879">
        <ele>27.690000000000001</ele>
        <time>2020-02-28T15:46:39Z</time>
      </trkpt>
      <trkpt lat="44.349059807136655" lon="9.237449057400227">
        <ele>27.75</ele>
        <time>2020-02-28T15:46:42Z</time>
      </trkpt>
      <trkpt lat="44.349073050543666" lon="9.237422067672014">
        <ele>27.809999999999999</ele>
        <time>2020-02-28T15:46:44Z</time>
      </trkpt>
      <trkpt lat="44.349130215123296" lon="9.237235821783543">
        <ele>27.91</ele>
        <time>2020-02-28T15:47:03Z</time>
      </trkpt>
      <trkpt lat="44.349225349724293" lon="9.236939353868365">
        <ele>27.75</ele>
        <time>2020-02-28T15:47:25Z</time>
      </trkpt>
      <trkpt lat="44.349246807396412" lon="9.236900294199586">
        <ele>27.66</ele>
        <time>2020-02-28T15:47:29Z</time>
      </trkpt>
      <trkpt lat="44.34916659258306" lon="9.236705750226975">
        <ele>24.530000000000001</ele>
        <time>2020-02-28T15:47:49Z</time>
      </trkpt>
      <trkpt lat="44.349096100777388" lon="9.236587230116129">
        <ele>21.379999999999999</ele>
        <time>2020-02-28T15:48:04Z</time>
      </trkpt>
      <trkpt lat="44.349034912884235" lon="9.236446833238006">
        <ele>17.98</ele>
        <time>2020-02-28T15:48:19Z</time>
      </trkpt>
      <trkpt lat="44.349002307280898" lon="9.23632244579494">
        <ele>15.19</ele>
        <time>2020-02-28T15:48:33Z</time>
      </trkpt>
      <trkpt lat="44.348994847387075" lon="9.23619688488543">
        <ele>12.109999999999999</ele>
        <time>2020-02-28T15:48:48Z</time>
      </trkpt>
      <trkpt lat="44.34892326593399" lon="9.236072497442365">
        <ele>9.65</ele>
        <time>2020-02-28T15:49:08Z</time>
      </trkpt>
      <trkpt lat="44.348852941766381" lon="9.235993372276425">
        <ele>6.47</ele>
        <time>2020-02-28T15:49:23Z</time>
      </trkpt>
      <trkpt lat="44.348780103027821" lon="9.235904775559902">
        <ele>3.36</ele>
        <time>2020-02-28T15:49:39Z</time>
      </trkpt>
      <trkpt lat="44.348707180470228" lon="9.235729090869427">
        <ele>0.28</ele>
        <time>2020-02-28T15:49:56Z</time>
      </trkpt>
      <trkpt lat="44.348644064739347" lon="9.235630687326193">
        <ele>-2.89</ele>
        <time>2020-02-28T15:50:10Z</time>
      </trkpt>
      <trkpt lat="44.348640963435173" lon="9.235600596293807">
        <ele>-4.33</ele>
        <time>2020-02-28T15:50:39Z</time>
      </trkpt>
      <trkpt lat="44.348704917356372" lon="9.235659101977944">
        <ele>-4.53</ele>
        <time>2020-02-28T15:51:06Z</time>
      </trkpt>
      <trkpt lat="44.348608441650867" lon="9.23558609560132">
        <ele>-4.52</ele>
        <time>2020-02-28T15:51:30Z</time>
      </trkpt>
      <trkpt lat="44.348592013120651" lon="9.235508227720857">
        <ele>-5.78</ele>
        <time>2020-02-28T15:51:45Z</time>
      </trkpt>
      <trkpt lat="44.34857826679945" lon="9.235498839989305">
        <ele>-6.32</ele>
        <time>2020-02-28T15:51:59Z</time>
      </trkpt>
      <trkpt lat="44.348503248766065" lon="9.235432287678123">
        <ele>-6.61</ele>
        <time>2020-02-28T15:52:09Z</time>
      </trkpt>
      <trkpt lat="44.348500398918986" lon="9.235239503905177">
        <ele>-7.51</ele>
        <time>2020-02-28T15:52:25Z</time>
      </trkpt>
      <trkpt lat="44.348507523536682" lon="9.235216369852424">
        <ele>-7.64</ele>
        <time>2020-02-28T15:52:27Z</time>
      </trkpt>
      <trkpt lat="44.348530909046531" lon="9.235065411776304">
        <ele>-8.970000000000001</ele>
        <time>2020-02-28T15:52:49Z</time>
      </trkpt>
      <trkpt lat="44.348588827997446" lon="9.235006989911199">
        <ele>-9.199999999999999</ele>
        <time>2020-02-28T15:52:54Z</time>
      </trkpt>
      <trkpt lat="44.348616153001785" lon="9.23485754057765">
        <ele>-10.640000000000001</ele>
        <time>2020-02-28T15:53:05Z</time>
      </trkpt>
      <trkpt lat="44.348603915423155" lon="9.234835915267468">
        <ele>-10.85</ele>
        <time>2020-02-28T15:53:07Z</time>
      </trkpt>
      <trkpt lat="44.348615314811468" lon="9.234807668253779">
        <ele>-11.08</ele>
        <time>2020-02-28T15:53:09Z</time>
      </trkpt>
      <trkpt lat="44.348582457751036" lon="9.234689399600029">
        <ele>-13.07</ele>
        <time>2020-02-28T15:53:27Z</time>
      </trkpt>
      <trkpt lat="44.348781025037169" lon="9.234514217823744">
        <ele>-14.210000000000001</ele>
        <time>2020-02-28T15:53:42Z</time>
      </trkpt>
      <trkpt lat="44.348772643133998" lon="9.234501728788018">
        <ele>-14.27</ele>
        <time>2020-02-28T15:53:43Z</time>
      </trkpt>
      <trkpt lat="44.348757388070226" lon="9.234408773481846">
        <ele>-14.5</ele>
        <time>2020-02-28T15:53:48Z</time>
      </trkpt>
      <trkpt lat="44.348701313138008" lon="9.234245326370001">
        <ele>-14.76</ele>
        <time>2020-02-28T15:54:01Z</time>
      </trkpt>
      <trkpt lat="44.348819497972727" lon="9.234163267537952">
        <ele>-14.93</ele>
        <time>2020-02-28T15:54:18Z</time>
      </trkpt>
      <trkpt lat="44.348978754132986" lon="9.234141642227769">
        <ele>-15.49</ele>
        <time>2020-02-28T15:54:34Z</time>
      </trkpt>
      <trkpt lat="44.349162904545665" lon="9.234048519283533">
        <ele>-15.59</ele>
        <time>2020-02-28T15:54:58Z</time>
      </trkpt>
      <trkpt lat="44.349197940900922" lon="9.234052207320929">
        <ele>-15.539999999999999</ele>
        <time>2020-02-28T15:55:03Z</time>
      </trkpt>
      <trkpt lat="44.349223673343658" lon="9.234040137380362">
        <ele>-15.470000000000001</ele>
        <time>2020-02-28T15:55:06Z</time>
      </trkpt>
      <trkpt lat="44.349274216219783" lon="9.23405421897769">
        <ele>-15.41</ele>
        <time>2020-02-28T15:55:10Z</time>
      </trkpt>
      <trkpt lat="44.349451996386051" lon="9.233949948102236">
        <ele>-15.52</ele>
        <time>2020-02-28T15:55:28Z</time>
      </trkpt>
      <trkpt lat="44.349536234512925" lon="9.233911642804742">
        <ele>-15.52</ele>
        <time>2020-02-28T15:55:39Z</time>
      </trkpt>
      <trkpt lat="44.349656850099564" lon="9.233857663348317">
        <ele>-15.76</ele>
        <time>2020-02-28T15:56:00Z</time>
      </trkpt>
      <trkpt lat="44.349683001637459" lon="9.233830170705915">
        <ele>-15.81</ele>
        <time>2020-02-28T15:56:05Z</time>
      </trkpt>
      <trkpt lat="44.349768497049809" lon="9.233757248148322">
        <ele>-15.880000000000001</ele>
        <time>2020-02-28T15:56:12Z</time>
      </trkpt>
      <trkpt lat="44.349868409335613" lon="9.233589190989733">
        <ele>-15.949999999999999</ele>
        <time>2020-02-28T15:56:30Z</time>
      </trkpt>
      <trkpt lat="44.349892716854811" lon="9.233563458546996">
        <ele>-15.92</ele>
        <time>2020-02-28T15:56:33Z</time>
      </trkpt>
      <trkpt lat="44.349948037415743" lon="9.233441250398755">
        <ele>-15.43</ele>
        <time>2020-02-28T15:56:48Z</time>
      </trkpt>
      <trkpt lat="44.34994543902576" lon="9.233414679765701">
        <ele>-15.43</ele>
        <time>2020-02-28T15:56:50Z</time>
      </trkpt>
      <trkpt lat="44.349942924454808" lon="9.233379056677222">
        <ele>-15.470000000000001</ele>
        <time>2020-02-28T15:56:52Z</time>
      </trkpt>
      <trkpt lat="44.350017355754972" lon="9.233231283724308">
        <ele>-15.609999999999999</ele>
        <time>2020-02-28T15:57:02Z</time>
      </trkpt>
      <trkpt lat="44.350037891417742" lon="9.233175963163376">
        <ele>-15.68</ele>
        <time>2020-02-28T15:57:05Z</time>
      </trkpt>
      <trkpt lat="44.350049123167992" lon="9.233141262084246">
        <ele>-15.75</ele>
        <time>2020-02-28T15:57:08Z</time>
      </trkpt>
      <trkpt lat="44.350095558911562" lon="9.232936408370733">
        <ele>-15.84</ele>
        <time>2020-02-28T15:57:21Z</time>
      </trkpt>
      <trkpt lat="44.350266717374325" lon="9.232663493603468">
        <ele>-15.6</ele>
        <time>2020-02-28T15:57:36Z</time>
      </trkpt>
      <trkpt lat="44.350280882790685" lon="9.232619656249881">
        <ele>-15.779999999999999</ele>
        <time>2020-02-28T15:57:41Z</time>
      </trkpt>
      <trkpt lat="44.35028993524611" lon="9.232600461691618">
        <ele>-15.83</ele>
        <time>2020-02-28T15:57:43Z</time>
      </trkpt>
      <trkpt lat="44.350359421223402" lon="9.232496023178101">
        <ele>-15.710000000000001</ele>
        <time>2020-02-28T15:57:50Z</time>
      </trkpt>
      <trkpt lat="44.350389260798693" lon="9.232461657375097">
        <ele>-15.699999999999999</ele>
        <time>2020-02-28T15:57:54Z</time>
      </trkpt>
      <trkpt lat="44.350428655743599" lon="9.232405247166753">
        <ele>-15.880000000000001</ele>
        <time>2020-02-28T15:57:59Z</time>
      </trkpt>
      <trkpt lat="44.350448437035084" lon="9.232374401763082">
        <ele>-15.91</ele>
        <time>2020-02-28T15:58:01Z</time>
      </trkpt>
      <trkpt lat="44.350466206669807" lon="9.232311537489295">
        <ele>-15.93</ele>
        <time>2020-02-28T15:58:04Z</time>
      </trkpt>
      <trkpt lat="44.350481545552611" lon="9.232251523062587">
        <ele>-15.94</ele>
        <time>2020-02-28T15:58:08Z</time>
      </trkpt>
      <trkpt lat="44.350557988509536" lon="9.23212755471468">
        <ele>-16.210000000000001</ele>
        <time>2020-02-28T15:58:24Z</time>
      </trkpt>
      <trkpt lat="44.35059042647481" lon="9.232019344344735">
        <ele>-16.43</ele>
        <time>2020-02-28T15:58:38Z</time>
      </trkpt>
      <trkpt lat="44.350622612982988" lon="9.231948349624872">
        <ele>-16.449999999999999</ele>
        <time>2020-02-28T15:58:44Z</time>
      </trkpt>
      <trkpt lat="44.350754460319877" lon="9.23173762857914">
        <ele>-16.609999999999999</ele>
        <time>2020-02-28T15:58:56Z</time>
      </trkpt>
      <trkpt lat="44.350775917991996" lon="9.231693120673299">
        <ele>-16.609999999999999</ele>
        <time>2020-02-28T15:58:59Z</time>
      </trkpt>
      <trkpt lat="44.350778432562947" lon="9.231619359925389">
        <ele>-16.629999999999999</ele>
        <time>2020-02-28T15:59:05Z</time>
      </trkpt>
      <trkpt lat="44.350845571607351" lon="9.231447195634246">
        <ele>-16.449999999999999</ele>
        <time>2020-02-28T15:59:21Z</time>
      </trkpt>
      <trkpt lat="44.350897958502173" lon="9.231351725757122">
        <ele>-16.530000000000001</ele>
        <time>2020-02-28T15:59:26Z</time>
      </trkpt>
      <trkpt lat="44.350926540791988" lon="9.23116690479219">
        <ele>-16.530000000000001</ele>
        <time>2020-02-28T15:59:36Z</time>
      </trkpt>
      <trkpt lat="44.35088119469583" lon="9.231041595339775">
        <ele>-16.43</ele>
        <time>2020-02-28T15:59:44Z</time>
      </trkpt>
      <trkpt lat="44.350883541628718" lon="9.230880662798882">
        <ele>-16.300000000000001</ele>
        <time>2020-02-28T15:59:57Z</time>
      </trkpt>
      <trkpt lat="44.35088312253356" lon="9.230856606736779">
        <ele>-16.27</ele>
        <time>2020-02-28T15:59:59Z</time>
      </trkpt>
      <trkpt lat="44.350841464474797" lon="9.230820145457983">
        <ele>-16.309999999999999</ele>
        <time>2020-02-28T16:00:04Z</time>
      </trkpt>
      <trkpt lat="44.350762171670794" lon="9.23071788623929">
        <ele>-16.23</ele>
        <time>2020-02-28T16:00:20Z</time>
      </trkpt>
      <trkpt lat="44.350720094516873" lon="9.230601964518428">
        <ele>-16.239999999999998</ele>
        <time>2020-02-28T16:00:32Z</time>
      </trkpt>
      <trkpt lat="44.350706767290831" lon="9.230537423864007">
        <ele>-15.98</ele>
        <time>2020-02-28T16:00:43Z</time>
      </trkpt>
      <trkpt lat="44.350747335702181" lon="9.230353944003582">
        <ele>-16</ele>
        <time>2020-02-28T16:00:56Z</time>
      </trkpt>
    </trkseg>
  </trk>

</gpx>